Provisional Data: Choconut Creek near Vestal Center, NY


Please select a monitoring station.
Please select start date.
Please select start date.

Toggle Unit: C/F Toggle Unit: C/F
Sample Time Temperature (C) Temperature (F) Specific Conductivity (mS/cm) pH   Turbidity (NTU+) DO (mg/L)
9/6/2021 12:00:00 AM 18.11 64.598 0.11 6.95 10.9 8.91
9/6/2021 12:15:00 AM 18.09 64.562 0.11 6.97 12.53 8.88
9/6/2021 12:30:00 AM 18.07 64.526 0.11 6.96 11.62 8.87
9/6/2021 12:45:00 AM 18.06 64.508 0.11 6.94 10.38 8.85
9/6/2021 1:00:00 AM 18.05 64.49 0.11 6.91 11.07 8.83
9/6/2021 1:15:00 AM 18.03 64.454 0.11 6.93 10.93 8.82
9/6/2021 1:30:00 AM 18.01 64.418 0.11 6.94 10.65 8.8
9/6/2021 1:45:00 AM 17.98 64.364 0.11 6.94 10.92 8.79
9/6/2021 2:00:00 AM 17.96 64.328 0.11 6.94 10.27 8.78
9/6/2021 2:15:00 AM 17.93 64.274 0.11 6.93 11.29 8.78
9/6/2021 2:30:00 AM 17.9 64.22 0.11 6.93 11.03 8.76
9/6/2021 2:45:00 AM 17.87 64.166 0.11 6.92 11.29 8.76
9/6/2021 3:00:00 AM 17.83 64.094 0.11 6.92 16.09 8.75
9/6/2021 3:15:00 AM 17.79 64.022 0.11 6.91 12.15 8.75
9/6/2021 3:30:00 AM 17.75 63.95 0.11 6.85 10.42 8.75
9/6/2021 3:45:00 AM 17.7 63.86 0.11 6.9 10.75 8.75
9/6/2021 4:00:00 AM 17.66 63.788 0.11 6.9 10.25 8.75
9/6/2021 4:15:00 AM 17.62 63.716 0.11 6.9 10.06 8.76
9/6/2021 4:30:00 AM 17.57 63.626 0.11 6.89 11.26 8.76
9/6/2021 4:45:00 AM 17.53 63.554 0.11 6.89 10.83 8.76
9/6/2021 5:00:00 AM 17.49 63.482 0.11 6.89 11.13 8.77
9/6/2021 5:15:00 AM 17.45 63.41 0.11 6.89 10.86 8.77
9/6/2021 5:30:00 AM 17.41 63.338 0.11 6.9 11.48 8.78
9/6/2021 5:45:00 AM 17.37 63.266 0.11 6.9 11.73 8.79
9/6/2021 6:00:00 AM 17.33 63.194 0.11 6.91 10.97 8.79
9/6/2021 6:15:00 AM 17.29 63.122 0.11 6.91 9.92 8.8
9/6/2021 6:30:00 AM 17.26 63.068 0.11 6.91 10.8 8.8
9/6/2021 6:45:00 AM 17.22 62.996 0.11 6.84 10.52 8.82
9/6/2021 7:00:00 AM 17.18 62.924 0.11 6.84 10.37 8.85
9/6/2021 7:15:00 AM 17.15 62.87 0.11 6.84 10.51 8.88
9/6/2021 7:30:00 AM 17.12 62.816 0.111 6.91 9.9 8.92
9/6/2021 7:45:00 AM 17.09 62.762 0.11 6.92 10.14 8.96
9/6/2021 8:00:00 AM 17.06 62.708 0.111 6.85 10.26 9.01
9/6/2021 8:15:00 AM 17.05 62.69 0.11 6.92 9.82 9.06
9/6/2021 8:30:00 AM 17.04 62.672 0.11 6.94 10.22 9.14
9/6/2021 8:45:00 AM 17.07 62.726 0.111 6.93 9.93 9.23
9/6/2021 9:00:00 AM 17.05 62.69 0.111 6.95 10.36 9.29
9/6/2021 9:15:00 AM 17.07 62.726 0.111 6.97 9.79 9.39
9/6/2021 9:30:00 AM 17.19 62.942 0.111 6.95 10.13 9.5
9/6/2021 9:45:00 AM 17.25 63.05 0.111 6.98 9.92 9.57
9/6/2021 10:00:00 AM 17.24 63.032 0.111 6.97 9.75 9.62
9/6/2021 10:15:00 AM 17.29 63.122 0.111 7.01 10.41 9.76
9/6/2021 10:30:00 AM 17.34 63.212 0.111 7.01 10.03 9.88
9/6/2021 10:45:00 AM 17.38 63.284 0.111 7.02 9.67 9.98
9/6/2021 11:00:00 AM 17.5 63.5 0.111 7.08 9.59 10.1
9/6/2021 11:15:00 AM 17.66 63.788 0.111 7.11 9.21 10.18
9/6/2021 11:30:00 AM 17.81 64.058 0.111 7.06 9.62 10.26
9/6/2021 11:45:00 AM 18.02 64.436 0.111 7.14 9.24 10.33
9/6/2021 12:00:00 PM 18.21 64.778 0.111 7.16 9.56 10.41
9/6/2021 12:15:00 PM 18.31 64.958 0.111 7.11 8.65 10.44
9/6/2021 12:30:00 PM 18.47 65.246 0.111 7.2 8.6 10.5
9/6/2021 12:45:00 PM 18.61 65.498 0.111 7.2 9.23 10.52
9/6/2021 1:00:00 PM 18.83 65.894 0.111 7.23 9.06 10.56
9/6/2021 1:15:00 PM 19.11 66.398 0.111 7.25 9.46 10.65
9/6/2021 1:30:00 PM 19.23 66.614 0.111 7.27 8.85 10.66
9/6/2021 1:45:00 PM 19.19 66.542 0.111 7.26 9.46 10.5
9/6/2021 2:00:00 PM 19.1 66.38 0.111 7.24 9.39 10.36
9/6/2021 2:15:00 PM 19.2 66.56 0.111 7.25 8.74 10.48
9/6/2021 2:30:00 PM 19.41 66.938 0.111 7.22 9.28 10.58
9/6/2021 2:45:00 PM 19.6 67.28 0.111 7.26 9.04 10.6
9/6/2021 3:00:00 PM 19.69 67.442 0.111 7.23 8.93 10.55
9/6/2021 3:15:00 PM 19.72 67.496 0.111 7.32 9.14 10.57
9/6/2021 3:30:00 PM 19.67 67.406 0.111 7.32 8.81 10.52
9/6/2021 3:45:00 PM 19.77 67.586 0.111 7.34 9.17 10.6
9/6/2021 4:00:00 PM 19.75 67.55 0.111 7.27 8.71 10.55
9/6/2021 4:15:00 PM 19.81 67.658 0.111 7.27 8.91 10.55
9/6/2021 4:30:00 PM 19.82 67.676 0.11 7.26 9.44 10.46
9/6/2021 4:45:00 PM 19.87 67.766 0.11 7.26 9.05 10.42
9/6/2021 5:00:00 PM 19.89 67.802 0.11 7.32 10.22 10.37
9/6/2021 5:15:00 PM 19.88 67.784 0.11 7.31 9.5 10.32
9/6/2021 5:30:00 PM 19.84 67.712 0.11 7.31 9.07 10.28
9/6/2021 5:45:00 PM 19.79 67.622 0.111 7.25 10.01 10.18
9/6/2021 6:00:00 PM 19.69 67.442 0.111 7.2 9.24 10.06
9/6/2021 6:15:00 PM 19.62 67.316 0.111 7.26 9.01 9.97
9/6/2021 6:30:00 PM 19.54 67.172 0.111 7.23 9.33 9.87
9/6/2021 6:45:00 PM 19.48 67.064 0.111 7.12 9.19 9.76
9/6/2021 7:00:00 PM 19.41 66.938 0.111 7.13 9.17 9.66
9/6/2021 7:15:00 PM 19.34 66.812 0.111 7.17 9.72 9.57
9/6/2021 7:30:00 PM 19.26 66.668 0.111 7.14 9.75 9.48
9/6/2021 7:45:00 PM 19.18 66.524 0.111 7.12 9.3 9.38
9/6/2021 8:00:00 PM 19.11 66.398 0.111 7.11 9.37 9.3
9/6/2021 8:15:00 PM 19.04 66.272 0.111 7.04 9.98 9.22
9/6/2021 8:30:00 PM 18.96 66.128 0.111 7.07 11.15 9.16
9/6/2021 8:45:00 PM 18.9 66.02 0.111 7.05 10.3 9.11
9/6/2021 9:00:00 PM 18.84 65.912 0.111 6.95 10.47 9.07
9/6/2021 9:15:00 PM 18.78 65.804 0.111 6.94 11.1 9.03
9/6/2021 9:30:00 PM 18.72 65.696 0.111 7.02 10.94 9
9/6/2021 9:45:00 PM 18.66 65.588 0.111 7.01 10.97 8.96
9/6/2021 10:00:00 PM 18.6 65.48 0.111 7.01 10.8 8.94
9/6/2021 10:15:00 PM 18.54 65.372 0.111 7 11.46 8.92
9/6/2021 10:30:00 PM 18.48 65.264 0.111 6.98 11.16 8.9
9/6/2021 10:45:00 PM 18.43 65.174 0.112 6.97 11.58 8.89
9/6/2021 11:00:00 PM 18.37 65.066 0.111 6.98 11.81 8.87
9/6/2021 11:15:00 PM 18.31 64.958 0.111 6.97 11.15 8.85
9/6/2021 11:30:00 PM 18.25 64.85 0.111 6.98 12.26 8.84
9/6/2021 11:45:00 PM 18.18 64.724 0.111 6.98 12.12 8.82
9/7/2021 12:00:00 AM 18.12 64.616 0.111 6.96 12.42 8.82
9/7/2021 12:15:00 AM 18.06 64.508 0.111 7.04 12.06 8.8
9/7/2021 12:30:00 AM 18 64.4 0.111 6.97 12.63 8.8
9/7/2021 12:45:00 AM 17.95 64.31 0.111 6.96 12.16 8.79
9/7/2021 1:00:00 AM 17.89 64.202 0.112 6.95 12.2 8.78
9/7/2021 1:15:00 AM 17.84 64.112 0.112 6.96 12.33 8.76
9/7/2021 1:30:00 AM 17.78 64.004 0.112 6.94 12.06 8.75
9/7/2021 1:45:00 AM 17.73 63.914 0.112 6.94 12.02 8.75
9/7/2021 2:00:00 AM 17.67 63.806 0.112 6.94 11.63 8.74
9/7/2021 2:15:00 AM 17.62 63.716 0.112 6.9 12.19 8.74
9/7/2021 2:30:00 AM 17.57 63.626 0.112 6.93 13.3 8.73
9/7/2021 2:45:00 AM 17.51 63.518 0.112 6.87 11.78 8.74
9/7/2021 3:00:00 AM 17.46 63.428 0.112 6.93 10.81 8.74
9/7/2021 3:15:00 AM 17.41 63.338 0.112 6.91 10.49 8.74
9/7/2021 3:30:00 AM 17.36 63.248 0.112 6.92 10.91 8.73
9/7/2021 3:45:00 AM 17.3 63.14 0.112 6.95 12.19 8.74
9/7/2021 4:00:00 AM 17.25 63.05 0.112 6.92 10.45 8.75
9/7/2021 4:15:00 AM 17.19 62.942 0.112 6.92 10.29 8.75
9/7/2021 4:30:00 AM 17.14 62.852 0.111 6.83 12.33 8.76
9/7/2021 4:45:00 AM 17.08 62.744 0.112 6.93 11.82 8.76
9/7/2021 5:00:00 AM 17.02 62.636 0.112 6.93 10.56 8.78
9/7/2021 5:15:00 AM 16.96 62.528 0.112 6.91 11.62 8.8
9/7/2021 5:30:00 AM 16.91 62.438 0.112 6.91 10.85 8.81
9/7/2021 5:45:00 AM 16.85 62.33 0.112 6.9 10.89 8.82
9/7/2021 6:00:00 AM 16.79 62.222 0.112 6.9 11.69 8.83
9/7/2021 6:15:00 AM 16.73 62.114 0.112 6.83 11.25 8.84
9/7/2021 6:30:00 AM 16.67 62.006 0.111 6.9 11.24 8.86
9/7/2021 6:45:00 AM 16.62 61.916 0.112 6.91 11.19 8.88
9/7/2021 7:00:00 AM 16.55 61.79 0.112 6.88 10.88 8.91
9/7/2021 7:15:00 AM 16.5 61.7 0.112 6.91 10.83 8.95
9/7/2021 7:30:00 AM 16.45 61.61 0.111 6.84 10.7 8.99
9/7/2021 7:45:00 AM 16.4 61.52 0.112 6.9 10.49 9.04
9/7/2021 8:00:00 AM 16.36 61.448 0.112 6.92 10.4 9.09
9/7/2021 8:15:00 AM 16.34 61.412 0.112 6.92 10.83 9.14
9/7/2021 8:30:00 AM 16.33 61.394 0.112 6.93 10.46 9.21
9/7/2021 8:45:00 AM 16.33 61.394 0.112 6.86 14.05 9.29
9/7/2021 9:00:00 AM 16.36 61.448 0.112 6.97 11.32 9.38
9/7/2021 9:15:00 AM 16.4 61.52 0.112 6.88 10.88 9.48
9/7/2021 9:30:00 AM 16.46 61.628 0.112 6.97 10.89 9.57
9/7/2021 9:45:00 AM 16.51 61.718 0.112 6.98 10.43 9.65
9/7/2021 10:00:00 AM 16.59 61.862 0.112 7 13.12 9.73
9/7/2021 10:15:00 AM 16.66 61.988 0.096 6.89 10.3 9.81
9/7/2021 10:30:00 AM 16.76 62.168 0.112 7 10.19 9.88
9/7/2021 10:45:00 AM 16.84 62.312 0.113 7.05 10.23 9.95
9/7/2021 11:00:00 AM 16.94 62.492 0.113 7.07 10.28 10.02
9/7/2021 11:15:00 AM 17.01 62.618 0.113 7.08 10.17 10.08
9/7/2021 11:30:00 AM 17.11 62.798 0.113 7.1 10.28 10.14
9/7/2021 11:45:00 AM 17.22 62.996 0.113 7.12 10.04 10.22
9/7/2021 12:00:00 PM 17.29 63.122 0.113 7.13 9.97 10.27
9/7/2021 12:15:00 PM 17.54 63.572 0.113 7.13 10.25 10.41
9/7/2021 12:30:00 PM 17.77 63.986 0.113 7.12 9.88 10.48
9/7/2021 12:45:00 PM 18.02 64.436 0.112 7.15 9.9 10.54
9/7/2021 1:00:00 PM 18.28 64.904 0.112 7.22 9.85 10.62
9/7/2021 1:15:00 PM 18.55 65.39 0.112 7.13 9.89 10.69
9/7/2021 1:30:00 PM 18.75 65.75 0.112 7.14 9.5 10.74
9/7/2021 1:45:00 PM 18.92 66.056 0.113 7.18 9.57 10.75
9/7/2021 2:00:00 PM 18.98 66.164 0.112 7.27 9.96 10.7
9/7/2021 2:15:00 PM 19.15 66.47 0.113 7.29 9.65 10.76
9/7/2021 2:30:00 PM 19.23 66.614 0.112 7.31 9.49 10.72
9/7/2021 2:45:00 PM 19.46 67.028 0.113 7.33 9.45 10.75
9/7/2021 3:00:00 PM 19.59 67.262 0.112 7.32 9.23 10.75
9/7/2021 3:15:00 PM 19.76 67.568 0.112 7.28 9 10.75
9/7/2021 3:30:00 PM 19.87 67.766 0.112 7.35 9.4 10.73
9/7/2021 3:45:00 PM 19.98 67.964 0.112 7.36 9.25 10.73
9/7/2021 4:00:00 PM 20.08 68.144 0.112 7.36 9.42 10.7
9/7/2021 4:15:00 PM 20.12 68.216 0.113 7.26 9.14 10.63
9/7/2021 4:30:00 PM 20.14 68.252 0.113 7.36 9.16 10.58
9/7/2021 4:45:00 PM 20.07 68.126 0.112 7.35 8.97 10.45
9/7/2021 5:00:00 PM 20.04 68.07201 0.113 7.31 8.91 10.42
9/7/2021 5:15:00 PM 19.98 67.964 0.113 7.32 9.46 10.32
9/7/2021 5:30:00 PM 19.93 67.874 0.113 7.31 9.42 10.25
9/7/2021 5:45:00 PM 19.85 67.73 0.113 7.3 9.4 10.15
9/7/2021 6:00:00 PM 19.75 67.55 0.113 7.22 8.83 10.06
9/7/2021 6:15:00 PM 19.66 67.388 0.113 7.25 9.09 9.95
9/7/2021 6:30:00 PM 19.57 67.226 0.113 7.2 9.2 9.86
9/7/2021 6:45:00 PM 19.49 67.082 0.113 7.21 9.34 9.75
9/7/2021 7:00:00 PM 19.41 66.938 0.113 7.17 9.64 9.66
9/7/2021 7:15:00 PM 19.33 66.794 0.114 7.14 9.74 9.56
9/7/2021 7:30:00 PM 19.26 66.668 0.114 7.15 9.69 9.46
9/7/2021 7:45:00 PM 19.18 66.524 0.114 7.11 9.89 9.37
9/7/2021 8:00:00 PM 19.1 66.38 0.114 7.08 8.84 9.28
9/7/2021 8:15:00 PM 19.03 66.254 0.114 7.04 8.9 9.22
9/7/2021 8:30:00 PM 18.97 66.146 0.114 7.08 9.35 9.16
9/7/2021 8:45:00 PM 18.89 66.002 0.114 7.07 9.55 9.11
9/7/2021 9:00:00 PM 18.83 65.894 0.114 7.07 11.84 9.06
9/7/2021 9:15:00 PM 18.78 65.804 0.114 7.05 9.32 9.03
9/7/2021 9:30:00 PM 18.72 65.696 0.114 7.05 9.23 8.99
9/7/2021 9:45:00 PM 18.67 65.606 0.114 7.04 10.65 8.96
9/7/2021 10:00:00 PM 18.62 65.516 0.115 7.02 9.48 8.93
9/7/2021 10:15:00 PM 18.58 65.444 0.115 7 8.99 8.9
9/7/2021 10:30:00 PM 18.54 65.372 0.115 7.03 9.45 8.87
9/7/2021 10:45:00 PM 18.5 65.3 0.114 7.02 9.62 8.85
9/7/2021 11:00:00 PM 18.46 65.228 0.114 7.01 10.87 8.84
9/7/2021 11:15:00 PM 18.43 65.174 0.114 7.01 10.87 8.81
9/7/2021 11:30:00 PM 18.4 65.12 0.114 7 10.03 8.8
9/7/2021 11:45:00 PM 18.37 65.066 0.114 6.97 11.14 8.78
9/8/2021 12:00:00 AM 18.34 65.012 0.114 6.92 10.16 8.76
9/8/2021 12:15:00 AM 18.31 64.958 0.114 7 9.38 8.75
9/8/2021 12:30:00 AM 18.28 64.904 0.114 7 9.42 8.73
9/8/2021 12:45:00 AM 18.25 64.85 0.114 7 9.82 8.72
9/8/2021 1:00:00 AM 18.22 64.796 0.114 7 9.55 8.71
9/8/2021 1:15:00 AM 18.2 64.76 0.114 6.99 10.38 8.68
9/8/2021 1:30:00 AM 18.17 64.706 0.114 6.98 9.53 8.68
9/8/2021 1:45:00 AM 18.15 64.67 0.115 6.99 9.97 8.66
9/8/2021 2:00:00 AM 18.13 64.634 0.115 6.93 10.03 8.65
9/8/2021 2:15:00 AM 18.11 64.598 0.115 6.98 10.06 8.63
9/8/2021 2:30:00 AM 18.08 64.544 0.115 6.99 9.87 8.62
9/8/2021 2:45:00 AM 18.05 64.49 0.115 6.97 10.78 8.61
9/8/2021 3:00:00 AM 18.02 64.436 0.115 6.97 10.21 8.6
9/8/2021 3:15:00 AM 18 64.4 0.115 6.97 9.53 8.6
9/8/2021 3:30:00 AM 17.97 64.346 0.115 6.96 10.07 8.58
9/8/2021 3:45:00 AM 17.94 64.292 0.115 6.89 11.01 8.58
9/8/2021 4:00:00 AM 17.91 64.238 0.115 6.85 10.18 8.57
9/8/2021 4:15:00 AM 17.89 64.202 0.115 6.95 10.43 8.57
9/8/2021 4:30:00 AM 17.86 64.148 0.115 6.94 10.17 8.56
9/8/2021 4:45:00 AM 17.83 64.094 0.115 6.94 10.17 8.56
9/8/2021 5:00:00 AM 17.8 64.04 0.115 6.95 10.11 8.55
9/8/2021 5:15:00 AM 17.78 64.004 0.115 6.92 10.59 8.56
9/8/2021 5:30:00 AM 17.75 63.95 0.115 6.94 10.43 8.55
9/8/2021 5:45:00 AM 17.73 63.914 0.115 6.94 10.52 8.56
9/8/2021 6:00:00 AM 17.7 63.86 0.115 6.93 10.12 8.55
9/8/2021 6:15:00 AM 17.68 63.824 0.115 6.93 27.01 8.56
9/8/2021 6:30:00 AM 17.65 63.77 0.115 6.9 11.27 8.57
9/8/2021 6:45:00 AM 17.63 63.734 0.114 6.92 9.51 8.57
9/8/2021 7:00:00 AM 17.61 63.698 0.114 6.85 11.03 8.6
9/8/2021 7:15:00 AM 17.6 63.68 0.114 6.84 9.77 8.66
9/8/2021 7:30:00 AM 17.61 63.698 0.114 6.9 9.61 8.76
9/8/2021 7:45:00 AM 17.6 63.68 0.114 6.97 9.49 8.8
9/8/2021 8:00:00 AM 17.61 63.698 0.114 6.95 9.7 8.87
9/8/2021 8:15:00 AM 17.64 63.752 0.114 6.99 9.34 8.99
9/8/2021 8:30:00 AM 17.66 63.788 0.114 6.9 10.28 9.07
9/8/2021 8:45:00 AM 17.68 63.824 0.114 6.96 8.88 9.15
9/8/2021 9:00:00 AM 17.73 63.914 0.114 7.01 9.11 9.28
9/8/2021 9:15:00 AM 17.77 63.986 0.114 7.03 8.76 9.39
9/8/2021 9:30:00 AM 17.79 64.022 0.114 6.98 9.09 9.46
9/8/2021 9:45:00 AM 17.86 64.148 0.113 7 9.42 9.61
9/8/2021 10:00:00 AM 17.99 64.382 0.114 7.09 9.5 9.74
9/8/2021 10:15:00 AM 18.13 64.634 0.113 7.02 9.19 9.85
9/8/2021 10:30:00 AM 18.22 64.796 0.114 7.12 9.63 9.94
9/8/2021 10:45:00 AM 18.36 65.048 0.113 7.14 9.51 10.03
9/8/2021 11:00:00 AM 18.51 65.318 0.113 7.17 9.38 10.12
9/8/2021 11:15:00 AM 18.65 65.57 0.114 7.11 9.38 10.19
9/8/2021 11:30:00 AM 18.79 65.82201 0.114 7.19 9.12 10.26
9/8/2021 11:45:00 AM 18.93 66.074 0.113 7.16 9.18 10.33
9/8/2021 12:00:00 PM 19.07 66.326 0.113 7.23 9.44 10.44
9/8/2021 12:15:00 PM 19.24 66.632 0.114 7.27 9.08 10.53
9/8/2021 12:30:00 PM 19.42 66.956 0.113 7.3 8.83 10.6
9/8/2021 12:45:00 PM 19.64 67.352 0.114 7.29 9.1 10.63
9/8/2021 1:00:00 PM 19.78 67.604 0.113 7.25 9.88 10.65
9/8/2021 1:15:00 PM 19.95 67.91 0.113 7.33 8.42 10.69
9/8/2021 1:30:00 PM 20.05 68.09 0.114 7.27 8.36 10.7
9/8/2021 1:45:00 PM 20.08 68.144 0.113 7.45 8.24 10.69
9/8/2021 2:00:00 PM 20.1 68.18 0.113 7.3 8.9 10.66
9/8/2021 2:15:00 PM 20.23 68.414 0.113 7.46 8.19 10.74
9/8/2021 2:30:00 PM 20.42 68.756 0.113 7.36 8.48 10.82
9/8/2021 2:45:00 PM 20.54 68.972 0.113 7.47 8.54 10.89
9/8/2021 3:00:00 PM 20.68 69.224 0.113 7.5 8.41 10.91
9/8/2021 3:15:00 PM 20.78 69.404 0.113 7.51 8.09 10.91
9/8/2021 3:30:00 PM 20.73 69.314 0.113 7.49 8.93 10.79
9/8/2021 3:45:00 PM 20.61 69.098 0.114 7.42 8.38 10.5
9/8/2021 4:00:00 PM 20.48 68.864 0.114 7.32 8.41 10.22
9/8/2021 4:15:00 PM 20.41 68.738 0.114 7.25 8.84 10.04
9/8/2021 4:30:00 PM 20.35 68.63 0.114 7.25 8.78 9.88
9/8/2021 4:45:00 PM 20.31 68.558 0.113 7.27 9.35 9.76
9/8/2021 5:00:00 PM 20.27 68.486 0.113 7.18 9.12 9.68
9/8/2021 5:15:00 PM 20.23 68.414 0.113 7.23 8.69 9.58
9/8/2021 5:30:00 PM 20.16 68.288 0.113 7.14 9.6 9.46
9/8/2021 5:45:00 PM 20.07 68.126 0.114 7.2 10.43 9.34
9/8/2021 6:00:00 PM 19.98 67.964 0.113 7.15 10.01 9.23
9/8/2021 6:15:00 PM 19.88 67.784 0.113 7.15 9.91 9.13
9/8/2021 6:30:00 PM 19.79 67.622 0.113 7.14 10.53 9.06
9/8/2021 6:45:00 PM 19.72 67.496 0.113 7.11 10.39 9.02
9/8/2021 7:00:00 PM 19.67 67.406 0.113 7.05 9.96 8.99
9/8/2021 7:15:00 PM 19.62 67.316 0.113 7.08 9.85 8.94
9/8/2021 7:30:00 PM 19.58 67.244 0.113 7.07 9.5 8.88
9/8/2021 7:45:00 PM 19.54 67.172 0.113 7.07 10.23 8.83
9/8/2021 8:00:00 PM 19.51 67.118 0.113 7.05 11.05 8.79
9/8/2021 8:15:00 PM 19.48 67.064 0.113 7.01 11.55 8.7
9/8/2021 8:30:00 PM 19.46 67.028 0.113 7.03 12.45 8.75
9/8/2021 8:45:00 PM 19.44 66.992 0.113 6.97 13.22 8.73
9/8/2021 9:00:00 PM 19.42 66.956 0.114 6.96 13.2 8.72
9/8/2021 9:15:00 PM 19.4 66.92 0.115 6.98 12.59 8.69
9/8/2021 9:30:00 PM 19.38 66.884 0.115 7.02 13.84 8.69
9/8/2021 9:45:00 PM 19.35 66.83 0.116 7 12.24 8.67
9/8/2021 10:00:00 PM 19.33 66.794 0.116 6.94 12.26 8.65
9/8/2021 10:15:00 PM 19.3 66.74 0.116 6.96 12.1 8.64
9/8/2021 10:30:00 PM 19.27 66.686 0.117 6.98 12.08 8.63
9/8/2021 10:45:00 PM 19.24 66.632 0.117 7 13.75 8.61
9/8/2021 11:00:00 PM 19.21 66.578 0.117 7.01 12.05 8.6
9/8/2021 11:15:00 PM 19.18 66.524 0.116 6.99 12.64 8.59
9/8/2021 11:30:00 PM 19.14 66.452 0.116 7 13.06 8.57
9/8/2021 11:45:00 PM 19.11 66.398 0.115 7 13.83 8.57
9/9/2021 12:00:00 AM 19.07 66.326 0.114 7 14.82 8.56
9/9/2021 12:15:00 AM 19.02 66.236 0.114 6.94 13.11 8.58
9/9/2021 12:30:00 AM 18.96 66.128 0.114 7 13.46 8.58
9/9/2021 12:45:00 AM 18.91 66.038 0.113 7.01 13.78 8.58
9/9/2021 1:00:00 AM 18.87 65.966 0.112 7 16.84 8.59
9/9/2021 1:15:00 AM 18.83 65.894 0.111 6.99 16.28 8.6
9/9/2021 1:30:00 AM 18.8 65.84 0.111 6.99 13.83 8.61
9/9/2021 1:45:00 AM 18.76 65.768 0.11 6.99 15.39 8.63
9/9/2021 2:00:00 AM 18.72 65.696 0.109 6.95 15.32 8.65
9/9/2021 2:15:00 AM 18.68 65.624 0.109 6.91 12.3 8.68
9/9/2021 2:30:00 AM 18.64 65.552 0.109 6.93 12.83 8.7
9/9/2021 2:45:00 AM 18.59 65.462 0.11 6.99 14.31 8.72
9/9/2021 3:00:00 AM 18.52 65.336 0.11 6.97 13.72 8.74
9/9/2021 3:15:00 AM 18.44 65.192 0.111 6.97 13.69 8.76
9/9/2021 3:30:00 AM 18.36 65.048 0.112 6.98 14.44 8.78
9/9/2021 3:45:00 AM 18.28 64.904 0.112 6.98 12.13 8.79
9/9/2021 4:00:00 AM 18.2 64.76 0.112 6.93 13.48 8.82
9/9/2021 4:15:00 AM 18.13 64.634 0.112 6.99 13.53 8.84
9/9/2021 4:30:00 AM 18.06 64.508 0.112 6.98 12.99 8.85
9/9/2021 4:45:00 AM 17.99 64.382 0.112 6.98 12.72 8.87
9/9/2021 5:00:00 AM 17.94 64.292 0.111 6.95 13.21 8.88
9/9/2021 5:15:00 AM 17.88 64.184 0.111 6.94 13.21 8.89
9/9/2021 5:30:00 AM 17.84 64.112 0.111 6.94 12.91 8.9
9/9/2021 5:45:00 AM 17.79 64.022 0.11 6.91 12.56 8.91
9/9/2021 6:00:00 AM 17.74 63.932 0.11 6.94 13.2 8.91
9/9/2021 6:15:00 AM 17.7 63.86 0.109 6.85 14.14 8.92
9/9/2021 6:30:00 AM 17.66 63.788 0.109 6.87 13.16 8.93
9/9/2021 6:45:00 AM 17.63 63.734 0.109 6.91 13.17 8.93
9/9/2021 7:00:00 AM 17.6 63.68 0.109 6.92 13.09 8.94
9/9/2021 7:15:00 AM 17.57 63.626 0.109 6.93 13.1 8.95
9/9/2021 7:30:00 AM 17.56 63.608 0.109 6.89 13.2 8.97
9/9/2021 7:45:00 AM 17.54 63.572 0.109 6.93 12.88 8.98
9/9/2021 8:00:00 AM 17.54 63.572 0.109 6.9 13.17 9
9/9/2021 8:15:00 AM 17.54 63.572 0.11 6.93 13.38 9.05
9/9/2021 8:30:00 AM 17.55 63.59 0.11 6.94 13.25 9.12
9/9/2021 8:45:00 AM 17.56 63.608 0.111 6.93 13.91 9.19
9/9/2021 9:00:00 AM 17.57 63.626 0.111 6.92 12.79 9.24
9/9/2021 9:15:00 AM 17.58 63.644 0.111 6.96 13.62 9.34
9/9/2021 9:30:00 AM 17.6 63.68 0.111 6.98 13.17 9.42
9/9/2021 9:45:00 AM 17.62 63.716 0.111 6.99 13.32 9.48
9/9/2021 10:00:00 AM 17.63 63.734 0.111 6.93 12.91 9.49
9/9/2021 10:15:00 AM 17.66 63.788 0.111 6.99 13.42 9.57
9/9/2021 10:30:00 AM 17.7 63.86 0.111 7.04 13 9.68
9/9/2021 10:45:00 AM 17.74 63.932 0.111 7.06 12.3 9.77
9/9/2021 11:00:00 AM 17.79 64.022 0.111 7.08 11.98 9.87
9/9/2021 11:15:00 AM 17.9 64.22 0.111 7.1 12.38 9.97
9/9/2021 11:30:00 AM 18.01 64.418 0.111 7.12 11.85 10.08
9/9/2021 11:45:00 AM 18.13 64.634 0.111 7.08 12.96 10.18
9/9/2021 12:00:00 PM 18.2 64.76 0.111 7.11 11.25 10.26
9/9/2021 12:15:00 PM 18.25 64.85 0.111 7.18 12.33 10.31
9/9/2021 12:30:00 PM 18.32 64.976 0.11 7.19 13.43 10.36
9/9/2021 12:45:00 PM 18.44 65.192 0.11 7.21 12.08 10.43
9/9/2021 1:00:00 PM 18.51 65.318 0.11 7.22 13.48 10.47
9/9/2021 1:15:00 PM 18.63 65.534 0.11 7.24 12.33 10.53
9/9/2021 1:30:00 PM 18.66 65.588 0.11 7.26 13.48 10.56
9/9/2021 1:45:00 PM 18.69 65.642 0.11 7.26 13.66 10.57
9/9/2021 2:00:00 PM 18.73 65.714 0.11 7.28 12.77 10.59
9/9/2021 2:15:00 PM 18.83 65.894 0.11 7.28 14.3 10.64
9/9/2021 2:30:00 PM 18.88 65.984 0.11 7.24 13.57 10.65
9/9/2021 2:45:00 PM 18.87 65.966 0.11 7.24 15.5 10.59
9/9/2021 3:00:00 PM 18.87 65.966 0.11 7.29 13.8 10.52
9/9/2021 3:15:00 PM 18.89 66.002 0.11 7.22 14.41 10.5
9/9/2021 3:30:00 PM 18.97 66.146 0.109 7.22 12.64 10.55
9/9/2021 3:45:00 PM 19.01 66.218 0.109 7.31 14.02 10.54
9/9/2021 4:00:00 PM 19.1 66.38 0.109 7.32 13.26 10.54
9/9/2021 4:15:00 PM 19.16 66.488 0.109 7.29 12.36 10.57
9/9/2021 4:30:00 PM 19.24 66.632 0.109 7.25 11.44 10.54
9/9/2021 4:45:00 PM 19.3 66.74 0.109 7.32 11.36 10.5
9/9/2021 5:00:00 PM 19.34 66.812 0.109 7.31 10.93 10.47
9/9/2021 5:15:00 PM 19.33 66.794 0.11 7.27 11.91 10.36
9/9/2021 5:30:00 PM 19.27 66.686 0.11 7.22 12.2 10.2
9/9/2021 5:45:00 PM 19.24 66.632 0.11 7.21 12.08 10.07
9/9/2021 6:00:00 PM 19.22 66.596 0.11 7.22 9.41 9.94
9/9/2021 6:15:00 PM 19.19 66.542 0.11 7.2 12.02 9.84
9/9/2021 6:30:00 PM 19.14 66.452 0.11 7.2 11.98 9.79
9/9/2021 6:45:00 PM 19.09 66.362 0.11 7.18 11.9 9.69
9/9/2021 7:00:00 PM 19.04 66.272 0.11 7.09 12.36 9.57
9/9/2021 7:15:00 PM 18.98 66.164 0.11 7.07 11.92 9.47
9/9/2021 7:30:00 PM 18.93 66.074 0.11 7.12 11.77 9.38
9/9/2021 7:45:00 PM 18.9 66.02 0.11 7.1 11.75 9.32
9/9/2021 8:00:00 PM 18.86 65.948 0.11 7.08 14.33 9.26
9/9/2021 8:15:00 PM 18.83 65.894 0.11 7.02 11.62 9.21
9/9/2021 8:30:00 PM 18.8 65.84 0.11 7.05 11.57 9.17
9/9/2021 8:45:00 PM 18.76 65.768 0.11 6.97 11.99 9.13
9/9/2021 9:00:00 PM 18.73 65.714 0.11 7.01 13.39 9.09
9/9/2021 9:15:00 PM 18.7 65.66 0.11 7.03 12.31 9.05
9/9/2021 9:30:00 PM 18.67 65.606 0.11 7.01 11.52 9.02
9/9/2021 9:45:00 PM 18.64 65.552 0.11 7.01 12.27 8.99
9/9/2021 10:00:00 PM 18.59 65.462 0.11 7 12.75 8.96
9/9/2021 10:15:00 PM 18.55 65.39 0.11 6.98 12.77 8.93
9/9/2021 10:30:00 PM 18.52 65.336 0.11 6.95 13.05 8.91
9/9/2021 10:45:00 PM 18.48 65.264 0.11 6.97 12.65 8.89
9/9/2021 11:00:00 PM 18.44 65.192 0.11 6.99 13.17 8.86
9/9/2021 11:15:00 PM 18.42 65.156 0.11 6.96 12.69 8.84
9/9/2021 11:30:00 PM 18.38 65.084 0.11 6.96 12.54 8.82
9/9/2021 11:45:00 PM 18.34 65.012 0.11 6.93 12.69 8.8
9/10/2021 12:00:00 AM 18.3 64.94 0.11 6.93 12.17 8.78
9/10/2021 12:15:00 AM 18.27 64.886 0.11 6.96 13.61 8.77
9/10/2021 12:30:00 AM 18.24 64.832 0.11 6.95 12.06 8.75
9/10/2021 12:45:00 AM 18.21 64.778 0.11 6.91 12.63 8.74
9/10/2021 1:00:00 AM 18.18 64.724 0.11 6.94 12.83 8.73
9/10/2021 1:15:00 AM 18.15 64.67 0.11 6.93 12.43 8.72
9/10/2021 1:30:00 AM 18.11 64.598 0.11 6.94 12.98 8.72
9/10/2021 1:45:00 AM 18.07 64.526 0.109 6.92 13.85 8.72
9/10/2021 2:00:00 AM 18.03 64.454 0.109 6.93 12.53 8.72
9/10/2021 2:15:00 AM 17.99 64.382 0.109 6.84 12.75 8.72
9/10/2021 2:30:00 AM 17.93 64.274 0.109 6.88 12.28 8.73
9/10/2021 2:45:00 AM 17.87 64.166 0.109 6.92 12.63 8.73
9/10/2021 3:00:00 AM 17.82 64.076 0.108 6.88 13.34 8.74
9/10/2021 3:15:00 AM 17.77 63.986 0.108 6.88 13.04 8.75
9/10/2021 3:30:00 AM 17.71 63.878 0.108 6.93 13.57 8.76
9/10/2021 3:45:00 AM 17.65 63.77 0.109 6.94 13.73 8.77
9/10/2021 4:00:00 AM 17.59 63.662 0.108 6.92 12.86 8.8
9/10/2021 4:15:00 AM 17.55 63.59 0.108 6.94 12.92 8.81
9/10/2021 4:30:00 AM 17.5 63.5 0.108 6.94 13.12 8.82
9/10/2021 4:45:00 AM 17.44 63.392 0.108 6.95 13.83 8.83
9/10/2021 5:00:00 AM 17.38 63.284 0.108 6.94 13.91 8.84
9/10/2021 5:15:00 AM 17.32 63.176 0.108 6.91 13.84 8.86
9/10/2021 5:30:00 AM 17.26 63.068 0.109 6.9 13.16 8.87
9/10/2021 5:45:00 AM 17.21 62.978 0.109 6.86 13.79 8.88
9/10/2021 6:00:00 AM 17.14 62.852 0.109 6.96 13.69 8.89
9/10/2021 6:15:00 AM 17.08 62.744 0.109 6.91 13.67 8.9
9/10/2021 6:30:00 AM 17.01 62.618 0.109 6.9 13.06 8.92
9/10/2021 6:45:00 AM 16.94 62.492 0.109 6.87 11.94 8.94
9/10/2021 7:00:00 AM 16.88 62.384 0.109 6.95 12.59 8.97
9/10/2021 7:15:00 AM 16.81 62.258 0.109 6.92 12.33 9.01
9/10/2021 7:30:00 AM 16.75 62.15 0.11 6.97 12.66 9.05
9/10/2021 7:45:00 AM 16.69 62.042 0.11 6.96 12.37 9.1
9/10/2021 8:00:00 AM 16.64 61.952 0.11 6.9 12.68 9.15
9/10/2021 8:15:00 AM 16.61 61.898 0.11 6.98 12.69 9.22
9/10/2021 8:30:00 AM 16.58 61.844 0.11 6.99 11.99 9.29
9/10/2021 8:45:00 AM 16.56 61.808 0.11 6.94 12.23 9.36
9/10/2021 9:00:00 AM 16.58 61.844 0.11 6.94 12.11 9.47
9/10/2021 9:15:00 AM 16.59 61.862 0.11 6.99 11.74 9.56
9/10/2021 9:30:00 AM 16.6 61.88 0.11 6.99 12.11 9.67
9/10/2021 9:45:00 AM 16.64 61.952 0.109 7.04 12.09 9.77
9/10/2021 10:00:00 AM 16.72 62.096 0.109 7.03 11.59 9.89
9/10/2021 10:15:00 AM 16.83 62.294 0.109 7.06 11.85 9.99
9/10/2021 10:30:00 AM 16.79 62.222 0.109 7.05 12.1 10.02
9/10/2021 10:45:00 AM 16.85 62.33 0.109 7.04 11.97 10.11
9/10/2021 11:00:00 AM 16.96 62.528 0.109 7.06 11.73 10.21
9/10/2021 11:15:00 AM 16.95 62.51 0.109 7.1 11.35 10.26
9/10/2021 11:30:00 AM 17.07 62.726 0.109 7.16 11.79 10.35
9/10/2021 11:45:00 AM 17.15 62.87 0.109 7.18 11.3 10.4
9/10/2021 12:00:00 PM 17.32 63.176 0.109 7.19 11.66 10.47
9/10/2021 12:15:00 PM 17.56 63.608 0.109 7.21 11.28 10.6
9/10/2021 12:30:00 PM 17.72 63.896 0.109 7.17 11.35 10.64
9/10/2021 12:45:00 PM 17.84 64.112 0.109 7.23 11.32 10.65
9/10/2021 1:00:00 PM 18.03 64.454 0.109 7.26 11.14 10.74
9/10/2021 1:15:00 PM 18.21 64.778 0.109 7.2 11.08 10.77
9/10/2021 1:30:00 PM 18.39 65.102 0.109 7.28 11.07 10.81
9/10/2021 1:45:00 PM 18.45 65.21 0.109 7.3 11.66 10.77
9/10/2021 2:00:00 PM 18.49 65.282 0.109 7.26 12.07 10.75
9/10/2021 2:15:00 PM 18.69 65.642 0.109 7.24 11.04 10.83
9/10/2021 2:30:00 PM 18.88 65.984 0.109 7.26 12 10.88
9/10/2021 2:45:00 PM 18.84 65.912 0.109 7.34 11.01 10.84
9/10/2021 3:00:00 PM 18.82 65.876 0.109 7.35 11.15 10.83
9/10/2021 3:15:00 PM 18.8 65.84 0.109 7.35 11.03 10.76
9/10/2021 3:30:00 PM 18.91 66.038 0.109 7.33 11.17 10.76
9/10/2021 3:45:00 PM 19.02 66.236 0.109 7.3 10.8 10.81
9/10/2021 4:00:00 PM 19.08 66.344 0.109 7.37 10.66 10.83
9/10/2021 4:15:00 PM 19.11 66.398 0.109 7.38 11.35 10.84
9/10/2021 4:30:00 PM 19.1 66.38 0.109 7.39 11.11 10.81
9/10/2021 4:45:00 PM 19.08 66.344 0.109 7.3 11.02 10.78
9/10/2021 5:00:00 PM 19.03 66.254 0.109 7.31 10.8 10.67
9/10/2021 5:15:00 PM 18.97 66.146 0.109 7.35 11.58 10.53
9/10/2021 5:30:00 PM 18.9 66.02 0.109 7.33 12.91 10.44
9/10/2021 5:45:00 PM 18.84 65.912 0.109 7.3 11.79 10.32
9/10/2021 6:00:00 PM 18.79 65.82201 0.109 7.29 11.26 10.26
9/10/2021 6:15:00 PM 18.73 65.714 0.109 7.2 11.16 10.18
9/10/2021 6:30:00 PM 18.67 65.606 0.109 7.18 11.44 10.07
9/10/2021 6:45:00 PM 18.61 65.498 0.11 7.14 10.97 9.96
9/10/2021 7:00:00 PM 18.54 65.372 0.11 7.1 11.24 9.86
9/10/2021 7:15:00 PM 18.47 65.246 0.11 7.1 11.35 9.74
9/10/2021 7:30:00 PM 18.4 65.12 0.11 7.15 11.35 9.64
9/10/2021 7:45:00 PM 18.34 65.012 0.11 7.14 10.92 9.55
9/10/2021 8:00:00 PM 18.27 64.886 0.11 7.13 11.59 9.47
9/10/2021 8:15:00 PM 18.21 64.778 0.11 7.1 12.18 9.41
9/10/2021 8:30:00 PM 18.15 64.67 0.11 7.01 13.85 9.36
9/10/2021 8:45:00 PM 18.1 64.58 0.11 7.07 12.64 9.31
9/10/2021 9:00:00 PM 18.04 64.472 0.11 7.06 12.39 9.27
9/10/2021 9:15:00 PM 17.99 64.382 0.11 7.04 12.96 9.23
9/10/2021 9:30:00 PM 17.93 64.274 0.11 7.06 12.86 9.19
9/10/2021 9:45:00 PM 17.89 64.202 0.11 7.06 12.59 9.16
9/10/2021 10:00:00 PM 17.84 64.112 0.11 6.98 13.1 9.13
9/10/2021 10:15:00 PM 17.79 64.022 0.11 7.04 12.21 9.09
9/10/2021 10:30:00 PM 17.74 63.932 0.11 7.01 13.65 9.04
9/10/2021 10:45:00 PM 17.68 63.824 0.11 6.99 12.14 9.09
9/10/2021 11:00:00 PM 17.63 63.734 0.11 6.96 12.21 9.08
9/10/2021 11:15:00 PM 17.57 63.626 0.11 7.02 12.49 9.05
9/10/2021 11:30:00 PM 17.52 63.536 0.11 7.02 12.29 9.02
9/10/2021 11:45:00 PM 17.47 63.446 0.11 6.93 12.56 9.02
9/11/2021 12:00:00 AM 17.42 63.356 0.111 6.93 11.93 8.98
9/11/2021 12:15:00 AM 17.37 63.266 0.11 6.94 12.4 8.93
9/11/2021 12:30:00 AM 17.32 63.176 0.11 7 12.74 8.94
9/11/2021 12:45:00 AM 17.27 63.086 0.111 7 12.47 8.95
9/11/2021 1:00:00 AM 17.22 62.996 0.111 6.9 12.09 8.86
9/11/2021 1:15:00 AM 17.17 62.906 0.111 6.99 12.39 8.93
9/11/2021 1:30:00 AM 17.13 62.834 0.111 6.95 12.3 8.92
9/11/2021 1:45:00 AM 17.08 62.744 0.111 6.98 12.56 8.9
9/11/2021 2:00:00 AM 17.03 62.654 0.111 6.9 12.73 8.91
9/11/2021 2:15:00 AM 16.99 62.582 0.111 6.97 12.71 8.9
9/11/2021 2:30:00 AM 16.93 62.474 0.111 6.94 12.56 8.9
9/11/2021 2:45:00 AM 16.88 62.384 0.111 6.95 15.02 8.9
9/11/2021 3:00:00 AM 16.83 62.294 0.111 6.89 14.36 8.9
9/11/2021 3:15:00 AM 16.77 62.186 0.111 6.94 14.09 8.91
9/11/2021 3:30:00 AM 16.72 62.096 0.111 6.89 14.44 8.92
9/11/2021 3:45:00 AM 16.66 61.988 0.111 6.93 16.82 8.92
9/11/2021 4:00:00 AM 16.61 61.898 0.111 6.93 18.05 8.93
9/11/2021 4:15:00 AM 16.55 61.79 0.111 6.87 17.22 8.93
9/11/2021 4:30:00 AM 16.49 61.682 0.111 6.93 17.1 8.94
9/11/2021 4:45:00 AM 16.43 61.574 0.111 6.93 16.26 8.94
9/11/2021 5:00:00 AM 16.37 61.466 0.111 6.86 17.49 8.95
9/11/2021 5:15:00 AM 16.32 61.376 0.111 6.93 16.72 8.97
9/11/2021 5:30:00 AM 16.26 61.268 0.111 6.88 16.35 8.98
9/11/2021 5:45:00 AM 16.2 61.16 0.111 6.94 16.86 8.99
9/11/2021 6:00:00 AM 16.14 61.052 0.111 6.93 17.1 9.01
9/11/2021 6:15:00 AM 16.08 60.944 0.111 6.93 18.08 9.02
9/11/2021 6:30:00 AM 16.02 60.836 0.111 6.82 19.72 9.03
9/11/2021 6:45:00 AM 15.97 60.746 0.112 6.92 19.91 9.05
9/11/2021 7:00:00 AM 15.92 60.656 0.112 6.91 19.8 9.09
9/11/2021 7:15:00 AM 15.88 60.584 0.112 6.96 19.66 9.13
9/11/2021 7:30:00 AM 15.83 60.494 0.112 6.97 19.52 9.19
9/11/2021 7:45:00 AM 15.79 60.422 0.112 6.98 19.46 9.26
9/11/2021 8:00:00 AM 15.75 60.35 0.112 7.01 19.73 9.33
9/11/2021 8:15:00 AM 15.73 60.314 0.112 6.98 19.27 9.42
9/11/2021 8:30:00 AM 15.73 60.314 0.112 6.98 19.39 9.52
9/11/2021 8:45:00 AM 15.74 60.332 0.112 7.01 19.68 9.63
9/11/2021 9:00:00 AM 15.76 60.368 0.112 6.96 19.21 9.73
9/11/2021 9:15:00 AM 15.79 60.422 0.112 7.03 19.46 9.85
9/11/2021 9:30:00 AM 15.83 60.494 0.112 7.06 19.34 9.95
9/11/2021 9:45:00 AM 15.9 60.62 0.112 7.05 19.08 10.05
9/11/2021 10:00:00 AM 15.94 60.692 0.112 7.04 18.9 10.16
9/11/2021 10:15:00 AM 16 60.8 0.112 7 19.19 10.26
9/11/2021 10:30:00 AM 16.11 60.998 0.112 7.01 18.94 10.35
9/11/2021 10:45:00 AM 16.21 61.178 0.112 7.11 19 10.42
9/11/2021 11:00:00 AM 16.32 61.376 0.112 7.06 18.79 10.49
9/11/2021 11:15:00 AM 16.43 61.574 0.112 7.14 18.92 10.57
9/11/2021 11:30:00 AM 16.55 61.79 0.112 7.15 18.69 10.64
9/11/2021 11:45:00 AM 16.72 62.096 0.112 7.17 18.65 10.72
9/11/2021 12:00:00 PM 16.92 62.456 0.112 7.19 18.73 10.8
9/11/2021 12:15:00 PM 17.12 62.816 0.112 7.21 18.63 10.86
9/11/2021 12:30:00 PM 17.32 63.176 0.112 7.14 18.42 10.93
9/11/2021 12:45:00 PM 17.55 63.59 0.113 7.19 18.45 10.97
9/11/2021 1:00:00 PM 17.8 64.04 0.112 7.16 18.31 11.03
9/11/2021 1:15:00 PM 18.02 64.436 0.112 7.28 18.26 11.07
9/11/2021 1:30:00 PM 18.23 64.814 0.112 7.3 18.35 11.11
9/11/2021 1:45:00 PM 18.42 65.156 0.113 7.31 18.16 11.12
9/11/2021 2:00:00 PM 18.6 65.48 0.112 7.34 18.03 11.17
9/11/2021 2:15:00 PM 18.74 65.732 0.112 7.42 18.37 11.21
9/11/2021 2:30:00 PM 18.92 66.056 0.113 7.42 18.02 11.24
9/11/2021 2:45:00 PM 19.07 66.326 0.112 7.45 18.06 11.24
9/11/2021 3:00:00 PM 19.17 66.506 0.112 7.37 18.06 11.2
9/11/2021 3:15:00 PM 19.25 66.65 0.112 7.38 18.12 11.18
9/11/2021 3:30:00 PM 19.35 66.83 0.112 7.33 17.89 11.19
9/11/2021 3:45:00 PM 19.36 66.848 0.112 7.35 17.89 11.13
9/11/2021 4:00:00 PM 19.41 66.938 0.112 7.47 17.88 11.13
9/11/2021 4:15:00 PM 19.37 66.866 0.112 7.48 17.96 11.07
9/11/2021 4:30:00 PM 19.33 66.794 0.112 7.49 18.04 11.02
9/11/2021 4:45:00 PM 19.28 66.704 0.112 7.44 17.77 10.97
9/11/2021 5:00:00 PM 19.22 66.596 0.112 7.48 17.81 10.9
9/11/2021 5:15:00 PM 19.17 66.506 0.112 7.4 17.91 10.82
9/11/2021 5:30:00 PM 19.1 66.38 0.112 7.46 17.89 10.72
9/11/2021 5:45:00 PM 19.02 66.236 0.112 7.44 17.88 10.65
9/11/2021 6:00:00 PM 18.93 66.074 0.112 7.43 18.33 10.54
9/11/2021 6:15:00 PM 18.84 65.912 0.113 7.35 17.73 10.42
9/11/2021 6:30:00 PM 18.75 65.75 0.113 7.37 18.06 10.31
9/11/2021 6:45:00 PM 18.68 65.624 0.113 7.35 18.13 10.2
9/11/2021 7:00:00 PM 18.61 65.498 0.113 7.29 17.95 10.08
9/11/2021 7:15:00 PM 18.54 65.372 0.113 7.27 17.89 9.94
9/11/2021 7:30:00 PM 18.47 65.246 0.113 7.18 17.92 9.81
9/11/2021 7:45:00 PM 18.4 65.12 0.114 7.23 18.06 9.7
9/11/2021 8:00:00 PM 18.34 65.012 0.114 7.21 18.18 9.6
9/11/2021 8:15:00 PM 18.28 64.904 0.114 7.2 18.38 9.53
9/11/2021 8:30:00 PM 18.22 64.796 0.114 7.17 16.9 9.45
9/11/2021 8:45:00 PM 18.16 64.688 0.114 7.14 16.85 9.39
9/11/2021 9:00:00 PM 18.1 64.58 0.114 7.16 16.9 9.33
9/11/2021 9:15:00 PM 18.04 64.472 0.114 7.15 16.65 9.29
9/11/2021 9:30:00 PM 17.99 64.382 0.114 7.12 16.18 9.24
9/11/2021 9:45:00 PM 17.94 64.292 0.115 7.1 17.32 9.21
9/11/2021 10:00:00 PM 17.89 64.202 0.115 7.1 17.12 9.17
9/11/2021 10:15:00 PM 17.84 64.112 0.115 7.02 16.41 9.13
9/11/2021 10:30:00 PM 17.8 64.04 0.115 6.98 17.62 9.11
9/11/2021 10:45:00 PM 17.76 63.968 0.114 7.05 15.97 9.09
9/11/2021 11:00:00 PM 17.72 63.896 0.114 7.07 18.02 9.06
9/11/2021 11:15:00 PM 17.69 63.842 0.114 7.04 15.62 9.05
9/11/2021 11:30:00 PM 17.65 63.77 0.114 7.05 15.69 9.03
9/11/2021 11:45:00 PM 17.62 63.716 0.114 7.04 15.72 9.02
9/12/2021 12:00:00 AM 17.59 63.662 0.114 7.08 16.11 9.01
9/12/2021 12:15:00 AM 17.56 63.608 0.114 7.05 17 9.01
9/12/2021 12:30:00 AM 17.55 63.59 0.114 7.04 16.87 8.98
9/12/2021 12:45:00 AM 17.52 63.536 0.114 7.06 17.74 8.98
9/12/2021 1:00:00 AM 17.51 63.518 0.114 7.07 15.82 8.96
9/12/2021 1:15:00 AM 17.49 63.482 0.114 7.05 16 8.94
9/12/2021 1:30:00 AM 17.46 63.428 0.114 7.06 17.51 8.93
9/12/2021 1:45:00 AM 17.43 63.374 0.115 6.98 17.33 8.91
9/12/2021 2:00:00 AM 17.4 63.32 0.115 6.99 15.9 8.9
9/12/2021 2:15:00 AM 17.38 63.284 0.115 7 17.5 8.88
9/12/2021 2:30:00 AM 17.37 63.266 0.115 7.01 17.66 8.86
9/12/2021 2:45:00 AM 17.36 63.248 0.115 6.99 17.55 8.85
9/12/2021 3:00:00 AM 17.35 63.23 0.115 6.91 16.34 8.84
9/12/2021 3:15:00 AM 17.35 63.23 0.115 6.97 16.06 8.82
9/12/2021 3:30:00 AM 17.34 63.212 0.115 6.97 16.23 8.81
9/12/2021 3:45:00 AM 17.33 63.194 0.115 6.97 15.7 8.79
9/12/2021 4:00:00 AM 17.32 63.176 0.115 6.97 16.14 8.79
9/12/2021 4:15:00 AM 17.3 63.14 0.115 6.95 16.44 8.78
9/12/2021 4:30:00 AM 17.29 63.122 0.115 6.91 16.28 8.76
9/12/2021 4:45:00 AM 17.27 63.086 0.115 6.96 16.14 8.76
9/12/2021 5:00:00 AM 17.27 63.086 0.115 6.96 15.89 8.75
9/12/2021 5:15:00 AM 17.27 63.086 0.115 6.96 16.5 8.75
9/12/2021 5:30:00 AM 17.27 63.086 0.115 6.91 16.42 8.74
9/12/2021 5:45:00 AM 17.26 63.068 0.115 6.91 17.29 8.72
9/12/2021 6:00:00 AM 17.25 63.05 0.115 6.87 385.19 8.67
9/12/2021 6:15:00 AM 17.23 63.014 0.115 6.96 16.95 8.72
9/12/2021 6:30:00 AM 17.21 62.978 0.115 6.88 17.07 8.72
9/12/2021 6:45:00 AM 17.19 62.942 0.115 6.91 17.49 8.73
9/12/2021 7:00:00 AM 17.18 62.924 0.115 6.95 17.54 8.74
9/12/2021 7:15:00 AM 17.17 62.906 0.114 6.91 17.02 8.78
9/12/2021 7:30:00 AM 17.18 62.924 0.115 6.95 16.96 8.83
9/12/2021 7:45:00 AM 17.18 62.924 0.115 6.95 17.23 8.88
9/12/2021 8:00:00 AM 17.19 62.942 0.115 6.97 16.61 8.98
9/12/2021 8:15:00 AM 17.2 62.96 0.115 6.91 16.77 9.1
9/12/2021 8:30:00 AM 17.21 62.978 0.115 6.96 16.61 9.21
9/12/2021 8:45:00 AM 17.23 63.014 0.115 7.07 16.73 9.33
9/12/2021 9:00:00 AM 17.28 63.104 0.114 6.95 16.6 9.47
9/12/2021 9:15:00 AM 17.35 63.23 0.114 7.01 16.94 9.61
9/12/2021 9:30:00 AM 17.41 63.338 0.114 7.04 16.64 9.76
9/12/2021 9:45:00 AM 17.46 63.428 0.114 7 16.39 9.87
9/12/2021 10:00:00 AM 17.58 63.644 0.114 7.08 16.31 10
9/12/2021 10:15:00 AM 17.7 63.86 0.114 7.11 16.2 10.16
9/12/2021 10:30:00 AM 17.78 64.004 0.114 7.06 16.68 10.28
9/12/2021 10:45:00 AM 17.79 64.022 0.114 7.11 17.41 10.32
9/12/2021 11:00:00 AM 17.94 64.292 0.114 7.16 17.4 10.48
9/12/2021 11:15:00 AM 17.96 64.328 0.114 7.19 17.49 10.54
9/12/2021 11:30:00 AM 18.14 64.652 0.113 7.17 17.1 10.7
9/12/2021 11:45:00 AM 18.28 64.904 0.114 7.26 17.46 10.77
9/12/2021 12:00:00 PM 18.39 65.102 0.114 7.23 17.36 10.86
9/12/2021 12:15:00 PM 18.44 65.192 0.113 7.22 17.14 10.83
9/12/2021 12:30:00 PM 18.51 65.318 0.114 7.32 17.12 10.91
9/12/2021 12:45:00 PM 18.6 65.48 0.114 7.35 17.29 11
9/12/2021 1:00:00 PM 18.83 65.894 0.114 7.32 17.17 11.12
9/12/2021 1:15:00 PM 19.06 66.308 0.114 7.42 16.98 11.13
9/12/2021 1:30:00 PM 19.2 66.56 0.114 7.43 17.13 11.26
9/12/2021 1:45:00 PM 19.31 66.758 0.114 7.48 17.04 11.27
9/12/2021 2:00:00 PM 19.34 66.812 0.114 7.51 17.16 11.28
9/12/2021 2:15:00 PM 19.34 66.812 0.114 7.51 17.52 11.24
9/12/2021 2:30:00 PM 19.34 66.812 0.114 7.5 16.91 11.19
9/12/2021 2:45:00 PM 19.32 66.776 0.114 7.48 16.97 11.09
9/12/2021 3:00:00 PM 19.33 66.794 0.114 7.43 17.32 11.03
9/12/2021 3:15:00 PM 19.4 66.92 0.114 7.51 16.95 11.12
9/12/2021 3:30:00 PM 19.45 67.01 0.114 7.51 17.41 11.16
9/12/2021 3:45:00 PM 19.49 67.082 0.114 7.56 17.1 11.16
9/12/2021 4:00:00 PM 19.53 67.154 0.114 7.57 16.46 11.16
9/12/2021 4:15:00 PM 19.54 67.172 0.114 7.57 17.15 11.11
9/12/2021 4:30:00 PM 19.52 67.136 0.114 7.55 17.07 11
9/12/2021 4:45:00 PM 19.49 67.082 0.114 7.52 17.15 10.88
9/12/2021 5:00:00 PM 19.48 67.064 0.114 7.49 16.25 10.85
9/12/2021 5:15:00 PM 19.49 67.082 0.114 7.5 16.58 10.83
9/12/2021 5:30:00 PM 19.5 67.1 0.114 7.44 17.28 10.8
9/12/2021 5:45:00 PM 19.47 67.046 0.114 7.45 17.41 10.62
9/12/2021 6:00:00 PM 19.46 67.028 0.114 7.43 17.35 10.53
9/12/2021 6:15:00 PM 19.43 66.974 0.115 7.37 16.64 10.35
9/12/2021 6:30:00 PM 19.41 66.938 0.115 7.35 17.12 10.22
9/12/2021 6:45:00 PM 19.38 66.884 0.115 7.27 17.06 10.06
9/12/2021 7:00:00 PM 19.35 66.83 0.115 7.24 17.71 9.91
9/12/2021 7:15:00 PM 19.33 66.794 0.115 7.25 17.22 9.79
9/12/2021 7:30:00 PM 19.29 66.722 0.115 7.17 17.79 9.68
9/12/2021 7:45:00 PM 19.25 66.65 0.116 7.13 17.75 9.54
9/12/2021 8:00:00 PM 19.22 66.596 0.116 7.16 17.29 9.45
9/12/2021 8:15:00 PM 19.19 66.542 0.116 7.14 17.14 9.35
9/12/2021 8:30:00 PM 19.16 66.488 0.116 7.05 16.96 9.27
9/12/2021 8:45:00 PM 19.13 66.434 0.116 7.1 17.5 9.19
9/12/2021 9:00:00 PM 19.1 66.38 0.117 7 18.05 9.12
9/12/2021 9:15:00 PM 19.07 66.326 0.117 7.07 17.65 9.06
9/12/2021 9:30:00 PM 19.05 66.29 0.117 6.99 18.14 9
9/12/2021 9:45:00 PM 19.02 66.236 0.117 6.99 18.18 8.96
9/12/2021 10:00:00 PM 19 66.2 0.117 7.03 17.86 8.92
9/12/2021 10:15:00 PM 18.99 66.182 0.117 7.03 18.16 8.89
9/12/2021 10:30:00 PM 18.97 66.146 0.117 7.01 18.46 8.85
9/12/2021 10:45:00 PM 18.96 66.128 0.117 7 18.76 8.83
9/12/2021 11:00:00 PM 18.95 66.11 0.117 6.94 18.62 8.8
9/12/2021 11:15:00 PM 18.94 66.092 0.118 6.92 18.29 8.78
9/12/2021 11:30:00 PM 18.93 66.074 0.118 6.96 18.3 8.76
9/12/2021 11:45:00 PM 18.92 66.056 0.118 6.97 18.33 8.74
9/13/2021 12:00:00 AM 18.9 66.02 0.117 6.97 18.77 8.72
9/13/2021 12:15:00 AM 18.88 65.984 0.118 6.94 18.81 8.71
9/13/2021 12:30:00 AM 18.88 65.984 0.118 6.91 18.61 8.69
9/13/2021 12:45:00 AM 18.88 65.984 0.118 6.9 17.85 8.66
9/13/2021 1:00:00 AM 18.87 65.966 0.118 6.77 17.62 8.62
9/13/2021 1:15:00 AM 18.87 65.966 0.118 6.87 17.66 8.62
9/13/2021 1:30:00 AM 18.87 65.966 0.118 6.95 17.82 8.6
9/13/2021 1:45:00 AM 18.86 65.948 0.118 6.94 18.54 8.59
9/13/2021 2:00:00 AM 18.86 65.948 0.118 6.94 17.27 8.57
9/13/2021 2:15:00 AM 18.85 65.93 0.118 6.86 17.2 8.55
9/13/2021 2:30:00 AM 18.84 65.912 0.118 6.92 16.9 8.53
9/13/2021 2:45:00 AM 18.83 65.894 0.118 6.9 15.54 8.51
9/13/2021 3:00:00 AM 18.81 65.858 0.118 6.88 15.83 8.46
9/13/2021 3:15:00 AM 18.8 65.84 0.118 6.91 15.33 8.44
9/13/2021 3:30:00 AM 18.79 65.82201 0.118 6.83 15.74 8.46
9/13/2021 3:45:00 AM 18.77 65.786 0.118 6.88 15.95 8.45
9/13/2021 4:00:00 AM 18.76 65.768 0.118 6.89 18.17 8.43
9/13/2021 4:15:00 AM 18.75 65.75 0.118 6.89 16.09 8.41
9/13/2021 4:30:00 AM 18.73 65.714 0.118 6.91 16.65 8.4
9/13/2021 4:45:00 AM 18.72 65.696 0.118 6.92 15.92 8.41
9/13/2021 5:00:00 AM 18.7 65.66 0.118 6.92 17.16 8.4
9/13/2021 5:15:00 AM 18.68 65.624 0.118 6.84 16.48 8.33
9/13/2021 5:30:00 AM 18.66 65.588 0.118 6.89 15.81 8.38
9/13/2021 5:45:00 AM 18.65 65.57 0.118 6.88 16.14 8.37
9/13/2021 6:00:00 AM 18.64 65.552 0.119 6.86 17.93 8.33
9/13/2021 6:15:00 AM 18.63 65.534 0.118 6.84 16.99 8.34
9/13/2021 6:30:00 AM 18.6 65.48 0.118 6.85 15.97 8.32
9/13/2021 6:45:00 AM 18.58 65.444 0.118 6.89 16.01 8.35
9/13/2021 7:00:00 AM 18.56 65.408 0.118 6.9 16.18 8.29
9/13/2021 7:15:00 AM 18.55 65.39 0.118 6.91 15.99 8.33
9/13/2021 7:30:00 AM 18.54 65.372 0.118 6.9 16 8.39
9/13/2021 7:45:00 AM 18.54 65.372 0.118 6.9 15.86 8.45
9/13/2021 8:00:00 AM 18.55 65.39 0.118 6.85 15.94 8.56
9/13/2021 8:15:00 AM 18.56 65.408 0.118 6.91 15.68 8.67
9/13/2021 8:30:00 AM 18.57 65.426 0.118 6.94 15.91 8.82
9/13/2021 8:45:00 AM 18.59 65.462 0.118 7.05 15.88 8.92
9/13/2021 9:00:00 AM 18.62 65.516 0.118 6.94 15.88 9.02
9/13/2021 9:15:00 AM 18.65 65.57 0.118 6.95 16.8 9.16
9/13/2021 9:30:00 AM 18.7 65.66 0.118 7 17.65 9.3
9/13/2021 9:45:00 AM 18.72 65.696 0.118 6.98 17.58 9.38
9/13/2021 10:00:00 AM 18.87 65.966 0.117 6.98 17.6 9.58
9/13/2021 10:15:00 AM 18.9 66.02 0.117 6.99 17.58 9.74
9/13/2021 10:30:00 AM 18.96 66.128 0.117 7.01 17.65 9.87
9/13/2021 10:45:00 AM 19.09 66.362 0.117 7.1 17.43 10.01
9/13/2021 11:00:00 AM 19.11 66.398 0.117 7.15 17.53 10.12
9/13/2021 11:15:00 AM 19.13 66.434 0.116 7.16 15.75 10.17
9/13/2021 11:30:00 AM 19.18 66.524 0.116 7.19 17.59 10.22
9/13/2021 11:45:00 AM 19.26 66.668 0.116 7.14 17.45 10.41
9/13/2021 12:00:00 PM 19.31 66.758 0.116 7.19 17.35 10.51
9/13/2021 12:15:00 PM 19.46 67.028 0.116 7.26 15.73 10.64
9/13/2021 12:30:00 PM 19.61 67.298 0.115 7.23 16.67 10.77
9/13/2021 12:45:00 PM 19.75 67.55 0.115 7.27 17.74 10.8
9/13/2021 1:00:00 PM 19.8 67.64 0.115 7.36 17.36 10.84
9/13/2021 1:15:00 PM 20.03 68.054 0.115 7.4 17.24 10.96
9/13/2021 1:30:00 PM 20.18 68.324 0.115 7.35 17.15 10.97
9/13/2021 1:45:00 PM 20.31 68.558 0.115 7.39 17.32 11.02
9/13/2021 2:00:00 PM 20.52 68.936 0.115 7.4 17.59 11.05
9/13/2021 2:15:00 PM 20.64 69.152 0.115 7.51 16.87 11.06
9/13/2021 2:30:00 PM 20.78 69.404 0.115 7.5 16.77 11.07
9/13/2021 2:45:00 PM 20.91 69.638 0.115 7.47 16.74 11.07
9/13/2021 3:00:00 PM 21.01 69.818 0.115 7.58 17.03 11.08
9/13/2021 3:15:00 PM 21.06 69.908 0.115 7.58 16.86 11.02
9/13/2021 3:30:00 PM 21.05 69.89 0.116 7.58 16.73 10.96
9/13/2021 3:45:00 PM 21.02 69.836 0.116 7.52 17.01 10.84
9/13/2021 4:00:00 PM 20.98 69.764 0.116 7.5 17.4 10.8
9/13/2021 4:15:00 PM 20.94 69.692 0.116 7.46 17.44 10.68
9/13/2021 4:30:00 PM 20.92 69.656 0.116 7.45 17.95 10.62
9/13/2021 4:45:00 PM 20.91 69.638 0.116 7.5 17.03 10.61
9/13/2021 5:00:00 PM 20.88 69.584 0.116 7.42 16.89 10.52
9/13/2021 5:15:00 PM 20.84 69.512 0.116 7.41 16.57 10.49
9/13/2021 5:30:00 PM 20.76 69.368 0.116 7.46 17.03 10.4
9/13/2021 5:45:00 PM 20.66 69.188 0.117 7.43 17.19 10.29
9/13/2021 6:00:00 PM 20.57 69.026 0.117 7.34 17.12 10.2
9/13/2021 6:15:00 PM 20.47 68.846 0.117 7.37 17.05 10.07
9/13/2021 6:30:00 PM 20.4 68.72 0.117 7.33 15.46 9.95
9/13/2021 6:45:00 PM 20.32 68.576 0.117 7.25 17.32 9.77
9/13/2021 7:00:00 PM 20.26 68.468 0.117 7.27 17.24 9.65
9/13/2021 7:15:00 PM 20.19 68.342 0.117 7.17 17.21 9.51
9/13/2021 7:30:00 PM 20.14 68.252 0.117 7.21 17.29 9.4
9/13/2021 7:45:00 PM 20.1 68.18 0.117 7.13 17.44 9.28
9/13/2021 8:00:00 PM 20.07 68.126 0.117 7.08 16.76 9.19
9/13/2021 8:15:00 PM 20.03 68.054 0.117 7.05 17.6 9.07
9/13/2021 8:30:00 PM 19.99 67.982 0.117 7.04 15.83 9.03
9/13/2021 8:45:00 PM 19.95 67.91 0.117 7.1 16.54 8.96
9/13/2021 9:00:00 PM 19.92 67.856 0.117 7.07 17.87 8.88
9/13/2021 9:15:00 PM 19.88 67.784 0.118 7.01 15.78 8.78
9/13/2021 9:30:00 PM 19.85 67.73 0.118 7.05 15.86 8.72
9/13/2021 9:45:00 PM 19.82 67.676 0.118 7.05 16.76 8.69
9/13/2021 10:00:00 PM 19.79 67.622 0.118 7.03 15.82 8.65
9/13/2021 10:15:00 PM 19.75 67.55 0.118 7.02 15.94 8.61
9/13/2021 10:30:00 PM 19.71 67.478 0.118 6.99 16.89 8.59
9/13/2021 10:45:00 PM 19.68 67.424 0.118 6.95 16.42 8.56
9/13/2021 11:00:00 PM 19.64 67.352 0.119 6.97 16.22 8.53
9/13/2021 11:15:00 PM 19.62 67.316 0.119 6.99 17.43 8.48
9/13/2021 11:30:00 PM 19.59 67.262 0.119 6.99 17.25 8.51
9/13/2021 11:45:00 PM 19.55 67.19 0.119 6.95 17.19 8.47
9/14/2021 12:00:00 AM 19.53 67.154 0.119 6.95 17.32 8.48
9/14/2021 12:15:00 AM 19.5 67.1 0.119 6.91 18.09 8.48
9/14/2021 12:30:00 AM 19.48 67.064 0.119 6.91 17.93 8.47
9/14/2021 12:45:00 AM 19.44 66.992 0.119 6.91 17.73 8.47
9/14/2021 1:00:00 AM 19.4 66.92 0.119 6.98 17.88 8.48
9/14/2021 1:15:00 AM 19.36 66.848 0.119 6.93 17.69 8.48
9/14/2021 1:30:00 AM 19.32 66.776 0.119 6.95 17.9 8.47
9/14/2021 1:45:00 AM 19.28 66.704 0.119 6.97 18.37 8.45
9/14/2021 2:00:00 AM 19.24 66.632 0.119 6.96 18.78 8.44
9/14/2021 2:15:00 AM 19.21 66.578 0.119 6.89 18.19 8.44
9/14/2021 2:30:00 AM 19.18 66.524 0.119 6.9 17.79 8.44
9/14/2021 2:45:00 AM 19.15 66.47 0.118 6.95 18.66 8.41
9/14/2021 3:00:00 AM 19.12 66.416 0.118 6.89 18.57 8.38
9/14/2021 3:15:00 AM 19.09 66.362 0.119 6.93 18.78 8.38
9/14/2021 3:30:00 AM 19.06 66.308 0.119 6.85 18.56 8.37
9/14/2021 3:45:00 AM 19.03 66.254 0.119 6.93 18.57 8.36
9/14/2021 4:00:00 AM 19.01 66.218 0.119 6.89 18.63 8.35
9/14/2021 4:15:00 AM 18.98 66.164 0.119 6.92 18.7 8.34
9/14/2021 4:30:00 AM 18.96 66.128 0.119 6.93 18.67 8.33
9/14/2021 4:45:00 AM 18.94 66.092 0.119 6.94 19.08 8.31
9/14/2021 5:00:00 AM 18.91 66.038 0.119 6.93 18.75 8.29
9/14/2021 5:15:00 AM 18.89 66.002 0.119 6.93 18.96 8.3
9/14/2021 5:30:00 AM 18.86 65.948 0.119 6.93 18.99 8.29
9/14/2021 5:45:00 AM 18.84 65.912 0.119 6.93 19.46 8.29
9/14/2021 6:00:00 AM 18.82 65.876 0.119 6.9 378.1 8.28
9/14/2021 6:15:00 AM 18.79 65.82201 0.119 6.93 19.66 8.29
9/14/2021 6:30:00 AM 18.76 65.768 0.119 6.86 19.56 8.28
9/14/2021 6:45:00 AM 18.74 65.732 0.119 6.88 19.19 8.29
9/14/2021 7:00:00 AM 18.72 65.696 0.119 6.91 19.22 8.27
9/14/2021 7:15:00 AM 18.7 65.66 0.119 6.93 18.99 8.28
9/14/2021 7:30:00 AM 18.68 65.624 0.119 6.93 19.09 8.34
9/14/2021 7:45:00 AM 18.66 65.588 0.118 6.93 19.17 8.38
9/14/2021 8:00:00 AM 18.65 65.57 0.118 6.89 20.43 8.51
9/14/2021 8:15:00 AM 18.64 65.552 0.119 6.87 19 8.64
9/14/2021 8:30:00 AM 18.65 65.57 0.118 6.89 19.32 8.77
9/14/2021 8:45:00 AM 18.67 65.606 0.118 6.98 18.93 8.89
9/14/2021 9:00:00 AM 18.71 65.67799 0.118 6.91 18.96 9.01
9/14/2021 9:15:00 AM 18.74 65.732 0.118 7.01 18.87 9.15
9/14/2021 9:30:00 AM 18.8 65.84 0.117 7.03 19.04 9.28
9/14/2021 9:45:00 AM 18.84 65.912 0.117 7.04 18.78 9.37
9/14/2021 10:00:00 AM 18.94 66.092 0.117 7 19.01 9.52
9/14/2021 10:15:00 AM 19.03 66.254 0.117 7.04 18.93 9.67
9/14/2021 10:30:00 AM 19.14 66.452 0.116 7.11 19.3 9.78
9/14/2021 10:45:00 AM 19.26 66.668 0.116 7.11 18.7 9.93
9/14/2021 11:00:00 AM 19.37 66.866 0.116 7.15 18.66 10.06
9/14/2021 11:15:00 AM 19.51 67.118 0.116 7.19 18.69 10.19
9/14/2021 11:30:00 AM 19.63 67.334 0.116 7.21 18.57 10.28
9/14/2021 11:45:00 AM 19.78 67.604 0.115 7.24 18.68 10.4
9/14/2021 12:00:00 PM 19.83 67.694 0.115 7.25 18.66 10.43
9/14/2021 12:15:00 PM 19.92 67.856 0.115 7.29 18.4 10.49
9/14/2021 12:30:00 PM 20.07 68.126 0.115 7.25 18.95 10.57
9/14/2021 12:45:00 PM 20.2 68.36 0.115 7.3 18.84 10.65
9/14/2021 1:00:00 PM 20.29 68.522 0.115 7.37 18.21 10.7
9/14/2021 1:15:00 PM 20.37 68.666 0.114 7.32 18.29 10.7
9/14/2021 1:30:00 PM 20.5 68.9 0.114 7.42 18.2 10.77
9/14/2021 1:45:00 PM 20.62 69.116 0.114 7.44 18.41 10.81
9/14/2021 2:00:00 PM 20.76 69.368 0.114 7.46 18.24 10.85
9/14/2021 2:15:00 PM 20.94 69.692 0.114 7.49 18.27 10.87
9/14/2021 2:30:00 PM 21.01 69.818 0.115 7.48 18.29 10.87
9/14/2021 2:45:00 PM 21.15 70.07 0.114 7.54 18.16 10.89
9/14/2021 3:00:00 PM 21.19 70.142 0.114 7.56 18.28 10.89
9/14/2021 3:15:00 PM 21.26 70.268 0.115 7.58 18.86 10.87
9/14/2021 3:30:00 PM 21.32 70.376 0.115 7.53 18.22 10.85
9/14/2021 3:45:00 PM 21.35 70.43 0.115 7.54 18.16 10.82
9/14/2021 4:00:00 PM 21.38 70.484 0.115 7.59 18.11 10.77
9/14/2021 4:15:00 PM 21.43 70.574 0.115 7.52 18.09 10.73
9/14/2021 4:30:00 PM 21.45 70.61 0.115 7.53 18.08 10.68
9/14/2021 4:45:00 PM 21.46 70.628 0.115 7.56 18.13 10.63
9/14/2021 5:00:00 PM 21.42 70.556 0.115 7.48 18.29 10.54
9/14/2021 5:15:00 PM 21.37 70.466 0.115 7.52 18.18 10.43
9/14/2021 5:30:00 PM 21.3 70.34 0.115 7.51 18.07 10.28
9/14/2021 5:45:00 PM 21.22 70.196 0.115 7.38 18.11 10.14
9/14/2021 6:00:00 PM 21.16 70.088 0.115 7.43 18.31 10.05
9/14/2021 6:15:00 PM 21.1 69.98 0.115 7.33 18.14 9.96
9/14/2021 6:30:00 PM 21.04 69.872 0.115 7.33 18.49 9.85
9/14/2021 6:45:00 PM 20.98 69.764 0.115 7.35 18.46 9.71
9/14/2021 7:00:00 PM 20.9 69.62 0.116 7.3 18.54 9.56
9/14/2021 7:15:00 PM 20.82 69.476 0.116 7.27 18.45 9.4
9/14/2021 7:30:00 PM 20.75 69.35 0.116 7.19 18.57 9.27
9/14/2021 7:45:00 PM 20.68 69.224 0.116 7.14 18.33 9.15
9/14/2021 8:00:00 PM 20.62 69.116 0.116 7.1 18.66 9.05
9/14/2021 8:15:00 PM 20.57 69.026 0.116 7.06 18.65 8.96
9/14/2021 8:30:00 PM 20.52 68.936 0.117 7.07 19.24 8.89
9/14/2021 8:45:00 PM 20.47 68.846 0.116 7.12 18.87 8.82
9/14/2021 9:00:00 PM 20.43 68.774 0.117 7.03 18.74 8.75
9/14/2021 9:15:00 PM 20.39 68.702 0.117 7.08 19.27 8.69
9/14/2021 9:30:00 PM 20.36 68.648 0.117 7.02 18.81 8.64
9/14/2021 9:45:00 PM 20.32 68.576 0.117 7 19.09 8.59
9/14/2021 10:00:00 PM 20.29 68.522 0.117 6.97 18.51 8.55
9/14/2021 10:15:00 PM 20.26 68.468 0.117 6.98 18.73 8.52
9/14/2021 10:30:00 PM 20.24 68.432 0.117 7.03 18.74 8.48
9/14/2021 10:45:00 PM 20.21 68.378 0.117 6.98 18.72 8.45
9/14/2021 11:00:00 PM 20.19 68.342 0.117 7 19.21 8.42
9/14/2021 11:15:00 PM 20.17 68.306 0.117 7.01 21.3 8.4
9/14/2021 11:30:00 PM 20.15 68.27 0.117 6.93 19.13 8.4
9/14/2021 11:45:00 PM 20.13 68.234 0.117 6.97 18.67 8.38
9/15/2021 12:00:00 AM 20.11 68.198 0.118 6.93 18.87 8.37
9/15/2021 12:15:00 AM 20.09 68.162 0.118 6.99 19.38 8.34
9/15/2021 12:30:00 AM 20.07 68.126 0.118 6.97 19.39 8.32
9/15/2021 12:45:00 AM 20.06 68.108 0.118 6.92 19.36 8.3
9/15/2021 1:00:00 AM 20.04 68.07201 0.118 6.98 19.68 8.29
9/15/2021 1:15:00 AM 20.02 68.036 0.118 6.96 19.04 8.28
9/15/2021 1:30:00 AM 20 68 0.118 6.97 18.91 8.25
9/15/2021 1:45:00 AM 19.98 67.964 0.118 6.93 19.4 8.24
9/15/2021 2:00:00 AM 19.96 67.92799 0.118 6.97 22.67 8.22
9/15/2021 2:15:00 AM 19.94 67.892 0.119 6.9 19.58 8.2
9/15/2021 2:30:00 AM 19.92 67.856 0.119 6.95 19.2 8.18
9/15/2021 2:45:00 AM 19.9 67.82 0.119 6.91 19.51 8.18
9/15/2021 3:00:00 AM 19.87 67.766 0.119 6.91 19.78 8.17
9/15/2021 3:15:00 AM 19.84 67.712 0.119 6.94 19.64 8.15
9/15/2021 3:30:00 AM 19.82 67.676 0.119 6.95 21.23 8.13
9/15/2021 3:45:00 AM 19.79 67.622 0.119 6.94 19.92 8.14
9/15/2021 4:00:00 AM 19.76 67.568 0.119 6.87 20.28 8.13
9/15/2021 4:15:00 AM 19.74 67.532 0.119 6.87 20.42 8.11
9/15/2021 4:30:00 AM 19.71 67.478 0.119 6.87 20.6 8.09
9/15/2021 4:45:00 AM 19.69 67.442 0.119 6.93 20.29 8.06
9/15/2021 5:00:00 AM 19.65 67.37 0.119 6.93 20.52 8.05
9/15/2021 5:15:00 AM 19.62 67.316 0.119 6.92 21.29 8.04
9/15/2021 5:30:00 AM 19.59 67.262 0.119 6.88 21.15 8.05
9/15/2021 5:45:00 AM 19.55 67.19 0.118 6.93 20.56 8.02
9/15/2021 6:00:00 AM 19.52 67.136 0.118 6.93 20.88 8.03
9/15/2021 6:15:00 AM 19.49 67.082 0.118 6.91 20.74 8.06
9/15/2021 6:30:00 AM 19.46 67.028 0.118 6.86 24.12 8.04
9/15/2021 6:45:00 AM 19.43 66.974 0.118 6.92 20.44 8.05
9/15/2021 7:00:00 AM 19.41 66.938 0.118 6.91 20.53 8.05
9/15/2021 7:15:00 AM 19.39 66.902 0.118 6.84 20.5 8.08
9/15/2021 7:30:00 AM 19.38 66.884 0.118 6.91 20.91 8.14
9/15/2021 7:45:00 AM 19.37 66.866 0.118 6.92 21.31 8.23
9/15/2021 8:00:00 AM 19.37 66.866 0.118 6.93 20.93 8.34
9/15/2021 8:15:00 AM 19.38 66.884 0.118 6.89 20.68 8.43
9/15/2021 8:30:00 AM 19.39 66.902 0.118 6.97 20.34 8.48
9/15/2021 8:45:00 AM 19.43 66.974 0.118 6.98 20.62 8.62
9/15/2021 9:00:00 AM 19.47 67.046 0.118 6.96 20.42 8.75
9/15/2021 9:15:00 AM 19.55 67.19 0.117 7.01 20.39 8.88
9/15/2021 9:30:00 AM 19.62 67.316 0.117 6.99 20.78 8.99
9/15/2021 9:45:00 AM 19.68 67.424 0.117 6.98 20.61 9.1
9/15/2021 10:00:00 AM 19.76 67.568 0.117 7.05 20.9 9.21
9/15/2021 10:15:00 AM 19.89 67.802 0.117 7.02 20.51 9.38
9/15/2021 10:30:00 AM 20 68 0.117 7.09 20.41 9.52
9/15/2021 10:45:00 AM 20.06 68.108 0.117 7.12 20.4 9.59
9/15/2021 11:00:00 AM 20.23 68.414 0.117 7.14 20.42 9.73
9/15/2021 11:15:00 AM 20.29 68.522 0.117 7.15 20.4 9.81
9/15/2021 11:30:00 AM 20.42 68.756 0.116 7.2 20.7 9.92
9/15/2021 11:45:00 AM 20.63 69.134 0.116 7.22 20.35 10.05
9/15/2021 12:00:00 PM 20.76 69.368 0.116 7.22 20.44 10.11
9/15/2021 12:15:00 PM 20.88 69.584 0.116 7.27 20.33 10.19
9/15/2021 12:30:00 PM 21.15 70.07 0.116 7.32 23.28 10.35
9/15/2021 12:45:00 PM 21.26 70.268 0.116 7.33 17.29 10.36
9/15/2021 1:00:00 PM 21.31 70.358 0.116 7.28 17.72 10.31
9/15/2021 1:15:00 PM 21.3 70.34 0.116 7.32 17.08 10.18
9/15/2021 1:30:00 PM 21.2 70.16 0.115 7.28 20.29 9.83
9/15/2021 1:45:00 PM 21.12 70.016 0.116 7.26 29.58 9.59
9/15/2021 2:00:00 PM 21.04 69.872 0.115 7.17 43.79 9.42
9/15/2021 2:15:00 PM 21.08 69.944 0.115 7.23 45.96 9.53
9/15/2021 2:30:00 PM 21.12 70.016 0.115 7.2 26.61 9.61
9/15/2021 2:45:00 PM 21.07 69.926 0.113 7.23 45.59 9.42
9/15/2021 3:00:00 PM 20.98 69.764 0.117 7.22 65.65 9.25
9/15/2021 3:15:00 PM 20.88 69.584 0.121 7.19 42.26 9.11
9/15/2021 3:30:00 PM 20.73 69.314 0.124 7.16 40.22 8.98
9/15/2021 3:45:00 PM 20.45 68.81 0.126 7.13 71.92 8.88
9/15/2021 4:00:00 PM 20.3 68.54 0.12 7.08 94.52 8.93
9/15/2021 4:15:00 PM 20.14 68.252 0.109 7.1 130.41 9.14
9/15/2021 4:30:00 PM 19.85 67.73 0.089 7.05 226.68 9.21
9/15/2021 4:45:00 PM 19.61 67.298 0.08 6.96 154.75 9.03
9/15/2021 5:00:00 PM 19.47 67.046 0.073 6.91 152.38 9.08
9/15/2021 5:15:00 PM 19.42 66.956 0.073 6.93 185.65 9.1
9/15/2021 5:30:00 PM 19.47 67.046 0.072 6.92 190.55 9.05
9/15/2021 5:45:00 PM 19.4 66.92 0.068 6.85 169.5 9.03
9/15/2021 6:00:00 PM 19.25 66.65 0.066 6.76 154.29 9.02
9/15/2021 6:15:00 PM 19.2 66.56 0.068 6.73 141.94 8.99
9/15/2021 6:30:00 PM 19.21 66.578 0.07 6.77 134.97 8.94
9/15/2021 6:45:00 PM 19.21 66.578 0.071 6.73 121 8.91
9/15/2021 7:00:00 PM 19.17 66.506 0.071 6.74 117.05 8.9
9/15/2021 7:15:00 PM 19.11 66.398 0.071 6.74 99.15 8.91
9/15/2021 7:30:00 PM 19.05 66.29 0.071 6.76 86.43 8.92
9/15/2021 7:45:00 PM 19 66.2 0.071 6.75 84.24 8.94
9/15/2021 8:00:00 PM 18.95 66.11 0.071 6.7 83.87 8.95
9/15/2021 8:15:00 PM 18.91 66.038 0.071 6.7 70.73 8.97
9/15/2021 8:30:00 PM 18.87 65.966 0.071 6.75 74.72 8.98
9/15/2021 8:45:00 PM 18.83 65.894 0.072 6.49 64.49 8.99
9/15/2021 9:00:00 PM 18.79 65.82201 0.072 6.7 57.39 9.01
9/15/2021 9:15:00 PM 18.75 65.75 0.071 6.73 63.46 9.02
9/15/2021 9:30:00 PM 18.71 65.67799 0.072 6.65 57.13 9.02
9/15/2021 9:45:00 PM 18.67 65.606 0.072 6.74 57.79 9.03
9/15/2021 10:00:00 PM 18.64 65.552 0.072 6.65 57.82 9.03
9/15/2021 10:15:00 PM 18.61 65.498 0.073 6.54 54.5 9.04
9/15/2021 10:30:00 PM 18.58 65.444 0.072 6.71 52.36 9.04
9/15/2021 10:45:00 PM 18.54 65.372 0.073 6.74 49.87 9.05
9/15/2021 11:00:00 PM 18.51 65.318 0.073 6.67 57.32 9.06
9/15/2021 11:15:00 PM 18.47 65.246 0.074 6.7 48.58 9.07
9/15/2021 11:30:00 PM 18.43 65.174 0.074 6.66 46.83 9.09
9/15/2021 11:45:00 PM 18.4 65.12 0.074 6.7 50.28 9.1
9/16/2021 12:00:00 AM 18.37 65.066 0.074 6.75 48.14 9.11
9/16/2021 12:15:00 AM 18.33 64.994 0.074 6.75 48.27 9.13
9/16/2021 12:30:00 AM 18.3 64.94 0.074 6.75 45.49 9.14
9/16/2021 12:45:00 AM 18.26 64.868 0.075 6.77 45.66 9.15
9/16/2021 1:00:00 AM 18.23 64.814 0.074 6.69 44 9.16
9/16/2021 1:15:00 AM 18.19 64.742 0.074 6.75 43.94 9.17
9/16/2021 1:30:00 AM 18.16 64.688 0.074 6.77 42.57 9.17
9/16/2021 1:45:00 AM 18.13 64.634 0.074 6.76 46.4 9.17
9/16/2021 2:00:00 AM 18.1 64.58 0.074 6.75 43.48 9.17
9/16/2021 2:15:00 AM 18.07 64.526 0.074 6.74 40.22 9.17
9/16/2021 2:30:00 AM 18.04 64.472 0.074 6.76 39.23 9.18
9/16/2021 2:45:00 AM 18.01 64.418 0.074 6.76 41.75 9.18
9/16/2021 3:00:00 AM 17.98 64.364 0.074 6.72 39.26 9.18
9/16/2021 3:15:00 AM 17.95 64.31 0.074 6.76 39.01 9.18
9/16/2021 3:30:00 AM 17.93 64.274 0.075 6.73 36.85 9.18
9/16/2021 3:45:00 AM 17.9 64.22 0.075 6.74 39.7 9.18
9/16/2021 4:00:00 AM 17.87 64.166 0.075 6.75 39.22 9.19
9/16/2021 4:15:00 AM 17.85 64.13 0.062 6.64 37.93 9.18
9/16/2021 4:30:00 AM 17.82 64.076 0.076 6.63 40.78 9.19
9/16/2021 4:45:00 AM 17.8 64.04 0.075 6.73 38.97 9.19
9/16/2021 5:00:00 AM 17.78 64.004 0.076 6.73 38.33 9.19
9/16/2021 5:15:00 AM 17.75 63.95 0.076 6.69 37.5 9.2
9/16/2021 5:30:00 AM 17.71 63.878 0.076 6.73 36.8 9.2
9/16/2021 5:45:00 AM 17.69 63.842 0.076 6.69 36.86 9.21
9/16/2021 6:00:00 AM 17.67 63.806 0.077 6.66 38.34 9.21
9/16/2021 6:15:00 AM 17.64 63.752 0.077 6.63 35.27 9.22
9/16/2021 6:30:00 AM 17.62 63.716 0.077 6.72 39.26 9.23
9/16/2021 6:45:00 AM 17.59 63.662 0.077 6.73 35.87 9.23
9/16/2021 7:00:00 AM 17.57 63.626 0.077 6.73 35.29 9.23
9/16/2021 7:15:00 AM 17.55 63.59 0.077 6.73 32.54 9.24
9/16/2021 7:30:00 AM 17.53 63.554 0.078 6.71 33.15 9.25
9/16/2021 7:45:00 AM 17.51 63.518 0.078 6.72 32.53 9.26
9/16/2021 8:00:00 AM 17.5 63.5 0.078 6.74 35.68 9.27
9/16/2021 8:15:00 AM 17.49 63.482 0.078 6.75 32.57 9.28
9/16/2021 8:30:00 AM 17.48 63.464 0.078 6.71 35.35 9.3
9/16/2021 8:45:00 AM 17.47 63.446 0.078 6.75 32.77 9.31
9/16/2021 9:00:00 AM 17.46 63.428 0.079 6.75 33.03 9.33
9/16/2021 9:15:00 AM 17.47 63.446 0.079 6.76 30.6 9.36
9/16/2021 9:30:00 AM 17.48 63.464 0.079 6.77 31.1 9.39
9/16/2021 9:45:00 AM 17.5 63.5 0.079 6.72 31.89 9.44
9/16/2021 10:00:00 AM 17.52 63.536 0.079 6.75 35.63 9.47
9/16/2021 10:15:00 AM 17.55 63.59 0.079 6.79 29.16 9.51
9/16/2021 10:30:00 AM 17.57 63.626 0.079 6.78 30.06 9.55
9/16/2021 10:45:00 AM 17.6 63.68 0.08 6.8 29.99 9.58
9/16/2021 11:00:00 AM 17.62 63.716 0.08 6.81 29.49 9.61
9/16/2021 11:15:00 AM 17.67 63.806 0.08 6.8 30.13 9.67
9/16/2021 11:30:00 AM 17.72 63.896 0.08 6.83 29.13 9.71
9/16/2021 11:45:00 AM 17.79 64.022 0.079 6.84 29.64 9.75
9/16/2021 12:00:00 PM 17.84 64.112 0.08 6.85 28.68 9.79
9/16/2021 12:15:00 PM 17.95 64.31 0.079 6.83 27.9 9.84
9/16/2021 12:30:00 PM 18.12 64.616 0.08 6.88 29.34 9.87
9/16/2021 12:45:00 PM 18.16 64.688 0.08 6.88 29.78 9.85
9/16/2021 1:00:00 PM 18.31 64.958 0.08 6.89 29.97 9.89
9/16/2021 1:15:00 PM 18.53 65.354 0.08 6.9 28.37 9.94
9/16/2021 1:30:00 PM 18.6 65.48 0.081 6.91 28.75 9.92
9/16/2021 1:45:00 PM 18.78 65.804 0.081 6.91 28.44 9.97
9/16/2021 2:00:00 PM 18.88 65.984 0.081 6.86 122.13 9.96
9/16/2021 2:15:00 PM 18.94 66.092 0.088 6.87 191.84 9.93
9/16/2021 2:30:00 PM 19.12 66.416 0.086 6.94 60.71 9.97
9/16/2021 2:45:00 PM 19.28 66.704 0.07 6.91 25.22 9.97
9/16/2021 3:00:00 PM 19.35 66.83 0.058 6.96 23.02 9.96
9/16/2021 3:15:00 PM 19.38 66.884 0.056 6.93 23.57 9.95
9/16/2021 3:30:00 PM 19.38 66.884 0.058 6.95 22.38 9.92
9/16/2021 3:45:00 PM 19.42 66.956 0.065 6.89 20.09 9.9
9/16/2021 4:00:00 PM 19.45 67.01 0.081 6.95 20.84 9.87
9/16/2021 4:15:00 PM 19.5 67.1 0.081 6.95 19.99 9.85
9/16/2021 4:30:00 PM 19.52 67.136 0.082 6.96 20.05 9.8
9/16/2021 4:45:00 PM 19.56 67.208 0.081 6.95 19.31 9.77
9/16/2021 5:00:00 PM 19.6 67.28 0.081 6.89 20.32 9.71
9/16/2021 5:15:00 PM 19.65 67.37 0.081 6.96 19.52 9.67
9/16/2021 5:30:00 PM 19.69 67.442 0.082 6.91 20.11 9.62
9/16/2021 5:45:00 PM 19.68 67.424 0.082 6.91 20.77 9.55
9/16/2021 6:00:00 PM 19.66 67.388 0.082 6.85 19.78 9.51
9/16/2021 6:15:00 PM 19.62 67.316 0.082 6.82 20.59 9.45
9/16/2021 6:30:00 PM 19.58 67.244 0.082 6.87 19.77 9.39
9/16/2021 6:45:00 PM 19.55 67.19 0.082 6.86 19.99 9.34
9/16/2021 7:00:00 PM 19.52 67.136 0.082 6.85 20.14 9.29
9/16/2021 7:15:00 PM 19.48 67.064 0.082 6.84 20.5 9.24
9/16/2021 7:30:00 PM 19.43 66.974 0.082 6.84 20.69 9.2
9/16/2021 7:45:00 PM 19.38 66.884 0.083 6.82 20.44 9.16
9/16/2021 8:00:00 PM 19.33 66.794 0.083 6.82 21.59 9.14
9/16/2021 8:15:00 PM 19.28 66.704 0.083 6.82 25.85 9.11
9/16/2021 8:30:00 PM 19.24 66.632 0.083 6.82 22.61 9.09
9/16/2021 8:45:00 PM 19.19 66.542 0.083 6.81 22.09 9.06
9/16/2021 9:00:00 PM 19.13 66.434 0.083 6.81 22.17 9.04
9/16/2021 9:15:00 PM 19.08 66.344 0.084 6.88 22.13 9.02
9/16/2021 9:30:00 PM 19.02 66.236 0.084 6.8 21.9 9.01
9/16/2021 9:45:00 PM 18.97 66.146 0.084 6.75 22.79 8.99
9/16/2021 10:00:00 PM 18.91 66.038 0.084 6.75 21.99 8.99
9/16/2021 10:15:00 PM 18.86 65.948 0.084 6.74 23.08 8.98
9/16/2021 10:30:00 PM 18.82 65.876 0.084 6.76 23.05 8.98
9/16/2021 10:45:00 PM 18.77 65.786 0.084 6.79 21.98 8.98
9/16/2021 11:00:00 PM 18.72 65.696 0.084 6.76 22.59 8.97
9/16/2021 11:15:00 PM 18.67 65.606 0.084 6.78 22.93 8.97
9/16/2021 11:30:00 PM 18.62 65.516 0.085 6.79 21.91 8.98
9/16/2021 11:45:00 PM 18.58 65.444 0.085 6.79 22.75 8.98
9/17/2021 12:00:00 AM 18.54 65.372 0.085 6.79 23.35 8.98
9/17/2021 12:15:00 AM 18.5 65.3 0.085 6.75 23.35 8.98
9/17/2021 12:30:00 AM 18.46 65.228 0.085 6.78 22.1 8.99
9/17/2021 12:45:00 AM 18.43 65.174 0.085 6.79 22.27 8.99
9/17/2021 1:00:00 AM 18.38 65.084 0.085 6.79 23.35 9
9/17/2021 1:15:00 AM 18.34 65.012 0.085 6.8 22.46 9
9/17/2021 1:30:00 AM 18.29 64.922 0.085 6.8 23.79 9.01
9/17/2021 1:45:00 AM 18.24 64.832 0.085 6.73 23.73 9.01
9/17/2021 2:00:00 AM 18.21 64.778 0.085 6.72 22.68 9.02
9/17/2021 2:15:00 AM 18.16 64.688 0.085 6.79 23.08 9.03
9/17/2021 2:30:00 AM 18.14 64.652 0.086 6.79 22.78 9.03
9/17/2021 2:45:00 AM 18.11 64.598 0.086 6.77 22.51 9.04
9/17/2021 3:00:00 AM 18.09 64.562 0.086 6.78 23.82 9.04
9/17/2021 3:15:00 AM 18.06 64.508 0.086 6.79 22.28 9.05
9/17/2021 3:30:00 AM 18.04 64.472 0.086 6.74 22.91 9.03
9/17/2021 3:45:00 AM 18.01 64.418 0.086 6.74 22.8 9.03
9/17/2021 4:00:00 AM 17.99 64.382 0.086 6.72 23.08 9.03
9/17/2021 4:15:00 AM 17.96 64.328 0.086 6.73 23.5 9.03
9/17/2021 4:30:00 AM 17.94 64.292 0.086 6.74 24.16 9.06
9/17/2021 4:45:00 AM 17.92 64.256 0.086 6.77 25.42 9.06
9/17/2021 5:00:00 AM 17.9 64.22 0.086 6.76 24.74 9.07
9/17/2021 5:15:00 AM 17.88 64.184 0.086 6.74 26.83 9.07
9/17/2021 5:30:00 AM 17.87 64.166 0.087 6.77 24.94 9.08
9/17/2021 5:45:00 AM 17.86 64.148 0.086 6.76 25.53 9.08
9/17/2021 6:00:00 AM 17.84 64.112 0.086 6.78 24.67 9.08
9/17/2021 6:15:00 AM 17.83 64.094 0.086 6.72 26.99 9.09
9/17/2021 6:30:00 AM 17.82 64.076 0.087 6.67 25.86 9.09
9/17/2021 6:45:00 AM 17.81 64.058 0.087 6.78 29.91 9.08
9/17/2021 7:00:00 AM 17.8 64.04 0.087 6.78 27.35 9.09
9/17/2021 7:15:00 AM 17.8 64.04 0.087 6.69 32.57 9.1
9/17/2021 7:30:00 AM 17.79 64.022 0.087 6.78 24.65 9.12
9/17/2021 7:45:00 AM 17.79 64.022 0.087 6.79 25.92 9.14
9/17/2021 8:00:00 AM 17.8 64.04 0.087 6.77 26.27 9.17
9/17/2021 8:15:00 AM 17.8 64.04 0.087 6.78 24.66 9.19
9/17/2021 8:30:00 AM 17.81 64.058 0.088 6.8 25.61 9.24
9/17/2021 8:45:00 AM 17.83 64.094 0.087 6.79 25.04 9.26
9/17/2021 9:00:00 AM 17.83 64.094 0.087 6.8 24.87 9.26
9/17/2021 9:15:00 AM 17.84 64.112 0.087 6.81 23.88 9.27
9/17/2021 9:30:00 AM 17.85 64.13 0.087 6.81 24 9.3
9/17/2021 9:45:00 AM 17.87 64.166 0.087 6.8 23.55 9.33
9/17/2021 10:00:00 AM 17.91 64.238 0.087 6.81 24.1 9.44
9/17/2021 10:15:00 AM 17.94 64.292 0.088 6.84 23.71 9.47
9/17/2021 10:30:00 AM 17.96 64.328 0.088 6.83 24.5 9.5
9/17/2021 10:45:00 AM 18.01 64.418 0.087 6.86 23.89 9.6
9/17/2021 11:00:00 AM 18.1 64.58 0.087 6.85 24.25 9.73
9/17/2021 11:15:00 AM 18.17 64.706 0.088 6.88 23.11 9.79
9/17/2021 11:30:00 AM 18.22 64.796 0.088 6.9 23.56 9.85
9/17/2021 11:45:00 AM 18.28 64.904 0.088 6.89 23.83 9.91
9/17/2021 12:00:00 PM 18.34 65.012 0.088 6.92 23.31 9.96
9/17/2021 12:15:00 PM 18.38 65.084 0.088 6.92 23.06 9.97
9/17/2021 12:30:00 PM 18.4 65.12 0.088 6.92 23.12 9.96
9/17/2021 12:45:00 PM 18.45 65.21 0.088 6.93 22.96 10.02
9/17/2021 1:00:00 PM 18.47 65.246 0.088 6.9 23.02 9.99
9/17/2021 1:15:00 PM 18.5 65.3 0.088 6.93 23.12 9.98
9/17/2021 1:30:00 PM 18.54 65.372 0.087 6.94 22.63 10.04
9/17/2021 1:45:00 PM 18.59 65.462 0.087 6.95 23.8 10.06
9/17/2021 2:00:00 PM 18.62 65.516 0.088 6.96 22.75 10.06
9/17/2021 2:15:00 PM 18.66 65.588 0.088 6.91 23.38 10.08
9/17/2021 2:30:00 PM 18.73 65.714 0.088 6.98 22.53 10.16
9/17/2021 2:45:00 PM 18.85 65.93 0.088 6.99 23.17 10.25
9/17/2021 3:00:00 PM 18.89 66.002 0.088 6.92 23.3 10.22
9/17/2021 3:15:00 PM 18.96 66.128 0.088 7 23.75 10.27
9/17/2021 3:30:00 PM 19.04 66.272 0.088 7.03 23.2 10.31
9/17/2021 3:45:00 PM 19.07 66.326 0.088 7 23.12 10.29
9/17/2021 4:00:00 PM 19.11 66.398 0.088 6.96 23.43 10.28
9/17/2021 4:15:00 PM 19.14 66.452 0.088 7.03 23.2 10.27
9/17/2021 4:30:00 PM 19.14 66.452 0.088 7.04 23.2 10.21
9/17/2021 4:45:00 PM 19.18 66.524 0.088 6.99 23.36 10.2
9/17/2021 5:00:00 PM 19.21 66.578 0.093 7.13 25.39 10.17
9/17/2021 5:15:00 PM 19.2 66.56 0.088 7.02 22.86 10.08
9/17/2021 5:30:00 PM 19.23 66.614 0.088 6.95 23.74 10.02
9/17/2021 5:45:00 PM 19.26 66.668 0.088 7.01 22.47 10.03
9/17/2021 6:00:00 PM 19.27 66.686 0.088 7 23.33 9.92
9/17/2021 6:15:00 PM 19.25 66.65 0.088 6.99 30.91 9.83
9/17/2021 6:30:00 PM 19.23 66.614 0.088 6.97 22.32 9.76
9/17/2021 6:45:00 PM 19.21 66.578 0.088 6.95 21.23 9.66
9/17/2021 7:00:00 PM 19.19 66.542 0.088 6.94 21.06 9.58
9/17/2021 7:15:00 PM 19.17 66.506 0.088 6.93 21.58 9.51
9/17/2021 7:30:00 PM 19.16 66.488 0.088 6.9 21.08 9.45
9/17/2021 7:45:00 PM 19.16 66.488 0.088 6.89 21.6 9.38
9/17/2021 8:00:00 PM 19.16 66.488 0.088 6.87 21.72 9.33
9/17/2021 8:15:00 PM 19.16 66.488 0.088 6.8 21.1 9.27
9/17/2021 8:30:00 PM 19.15 66.47 0.089 6.85 21.42 9.22
9/17/2021 8:45:00 PM 19.15 66.47 0.089 6.87 21.48 9.17
9/17/2021 9:00:00 PM 19.14 66.452 0.089 6.84 20.71 9.13
9/17/2021 9:15:00 PM 19.12 66.416 0.089 6.83 20.85 9.1
9/17/2021 9:30:00 PM 19.1 66.38 0.089 6.83 20.67 9.04
9/17/2021 9:45:00 PM 19.07 66.326 0.089 6.84 21.01 9.01
9/17/2021 10:00:00 PM 19.03 66.254 0.089 6.82 21.27 8.98
9/17/2021 10:15:00 PM 18.99 66.182 0.089 6.81 21.01 8.98
9/17/2021 10:30:00 PM 18.94 66.092 0.089 6.8 21.66 8.95
9/17/2021 10:45:00 PM 18.9 66.02 0.089 6.81 22.13 8.94
9/17/2021 11:00:00 PM 18.85 65.93 0.09 6.81 21.23 8.93
9/17/2021 11:15:00 PM 18.8 65.84 0.09 6.79 23.64 8.93
9/17/2021 11:30:00 PM 18.75 65.75 0.09 6.81 21.3 8.92
9/17/2021 11:45:00 PM 18.7 65.66 0.09 6.74 21.54 8.91
9/18/2021 12:00:00 AM 18.65 65.57 0.09 6.8 21.99 8.91
9/18/2021 12:15:00 AM 18.61 65.498 0.09 6.8 21.61 8.91
9/18/2021 12:30:00 AM 18.58 65.444 0.09 6.8 21.28 8.91
9/18/2021 12:45:00 AM 18.54 65.372 0.09 6.8 21.38 8.9
9/18/2021 1:00:00 AM 18.5 65.3 0.091 6.8 21.44 8.9
9/18/2021 1:15:00 AM 18.47 65.246 0.091 6.77 21.76 8.9
9/18/2021 1:30:00 AM 18.44 65.192 0.091 6.73 21.37 8.9
9/18/2021 1:45:00 AM 18.39 65.102 0.091 6.79 21.38 8.9
9/18/2021 2:00:00 AM 18.34 65.012 0.091 6.75 21.29 8.9
9/18/2021 2:15:00 AM 18.3 64.94 0.091 6.8 21.39 8.91
9/18/2021 2:30:00 AM 18.26 64.868 0.091 6.77 22.1 8.92
9/18/2021 2:45:00 AM 18.21 64.778 0.091 6.8 21.58 8.93
9/18/2021 3:00:00 AM 18.17 64.706 0.091 6.8 21.84 8.93
9/18/2021 3:15:00 AM 18.14 64.652 0.091 6.77 21.82 8.94
9/18/2021 3:30:00 AM 18.11 64.598 0.091 6.77 21.7 8.94
9/18/2021 3:45:00 AM 18.09 64.562 0.091 6.8 22.02 8.95
9/18/2021 4:00:00 AM 18.07 64.526 0.091 6.8 21.69 8.95
9/18/2021 4:15:00 AM 18.05 64.49 0.091 6.8 21.64 8.96
9/18/2021 4:30:00 AM 18.04 64.472 0.091 6.73 21.71 8.96
9/18/2021 4:45:00 AM 18.02 64.436 0.091 6.8 21.71 8.95
9/18/2021 5:00:00 AM 18.01 64.418 0.091 6.82 21.57 8.97
9/18/2021 5:15:00 AM 17.99 64.382 0.091 6.79 22.29 8.97
9/18/2021 5:30:00 AM 17.97 64.346 0.092 6.83 22.26 8.97
9/18/2021 5:45:00 AM 17.94 64.292 0.092 6.81 22.04 8.98
9/18/2021 6:00:00 AM 17.93 64.274 0.092 6.81 21.81 8.98
9/18/2021 6:15:00 AM 17.91 64.238 0.092 6.72 21.48 8.98
9/18/2021 6:30:00 AM 17.89 64.202 0.092 6.81 21.69 8.99
9/18/2021 6:45:00 AM 17.87 64.166 0.092 6.82 21.99 8.99
9/18/2021 7:00:00 AM 17.85 64.13 0.092 6.76 21.89 9
9/18/2021 7:15:00 AM 17.84 64.112 0.092 6.83 21.6 9.01
9/18/2021 7:30:00 AM 17.84 64.112 0.092 6.82 21.77 9.03
9/18/2021 7:45:00 AM 17.84 64.112 0.092 6.83 21.4 9.09
9/18/2021 8:00:00 AM 17.85 64.13 0.092 6.86 21.26 9.15
9/18/2021 8:15:00 AM 17.86 64.148 0.092 6.83 21.73 9.18
9/18/2021 8:30:00 AM 17.88 64.184 0.092 6.79 21.53 9.25
9/18/2021 8:45:00 AM 17.9 64.22 0.092 6.88 21.34 9.32
9/18/2021 9:00:00 AM 17.93 64.274 0.092 6.87 21.4 9.41
9/18/2021 9:15:00 AM 17.96 64.328 0.092 6.89 21.31 9.5
9/18/2021 9:30:00 AM 18.01 64.418 0.092 6.89 22.17 9.57
9/18/2021 9:45:00 AM 18.05 64.49 0.092 6.9 21.56 9.64
9/18/2021 10:00:00 AM 18.09 64.562 0.092 6.92 21.88 9.71
9/18/2021 10:15:00 AM 18.19 64.742 0.092 6.91 20.96 9.83
9/18/2021 10:30:00 AM 18.26 64.868 0.092 6.87 21.09 9.9
9/18/2021 10:45:00 AM 18.32 64.976 0.092 6.9 21 9.95
9/18/2021 11:00:00 AM 18.38 65.084 0.092 6.98 20.85 10.03
9/18/2021 11:15:00 AM 18.46 65.228 0.092 6.99 20.82 10.11
9/18/2021 11:30:00 AM 18.59 65.462 0.092 7.01 20.64 10.2
9/18/2021 11:45:00 AM 18.71 65.67799 0.092 7.02 20.72 10.26
9/18/2021 12:00:00 PM 18.91 66.038 0.092 7.04 20.83 10.36
9/18/2021 12:15:00 PM 19.14 66.452 0.092 7.06 20.65 10.46
9/18/2021 12:30:00 PM 19.34 66.812 0.092 7.09 20.84 10.52
9/18/2021 12:45:00 PM 19.52 67.136 0.091 7.11 20.66 10.55
9/18/2021 1:00:00 PM 19.72 67.496 0.092 7.12 20.54 10.61
9/18/2021 1:15:00 PM 19.87 67.766 0.091 7.14 20.66 10.62
9/18/2021 1:30:00 PM 20.04 68.07201 0.091 7.14 20.78 10.64
9/18/2021 1:45:00 PM 20.15 68.27 0.091 7.17 21.04 10.68
9/18/2021 2:00:00 PM 20.14 68.252 0.091 7.17 21.02 10.58
9/18/2021 2:15:00 PM 20.15 68.27 0.091 7.16 20.71 10.54
9/18/2021 2:30:00 PM 20.22 68.396 0.091 7.19 20.16 10.61
9/18/2021 2:45:00 PM 20.24 68.432 0.091 7.16 20.4 10.58
9/18/2021 3:00:00 PM 20.35 68.63 0.091 7.2 20.45 10.63
9/18/2021 3:15:00 PM 20.37 68.666 0.091 7.17 21.4 10.43
9/18/2021 3:30:00 PM 20.45 68.81 0.091 7.19 20.81 10.5
9/18/2021 3:45:00 PM 20.61 69.098 0.091 7.21 20.59 10.53
9/18/2021 4:00:00 PM 20.69 69.242 0.091 7.22 20.52 10.47
9/18/2021 4:15:00 PM 20.74 69.332 0.092 7.21 20.29 10.43
9/18/2021 4:30:00 PM 20.76 69.368 0.091 7.21 20.53 10.37
9/18/2021 4:45:00 PM 20.76 69.368 0.091 7.13 20.45 10.3
9/18/2021 5:00:00 PM 20.74 69.332 0.091 7.17 20.34 10.23
9/18/2021 5:15:00 PM 20.73 69.314 0.091 7.19 20.51 10.16
9/18/2021 5:30:00 PM 20.71 69.278 0.096 7.14 20.44 10.08
9/18/2021 5:45:00 PM 20.71 69.278 0.091 7.12 20.56 10
9/18/2021 6:00:00 PM 20.72 69.296 0.091 7.13 20.35 9.92
9/18/2021 6:15:00 PM 20.71 69.278 0.091 7.05 20.54 9.8
9/18/2021 6:30:00 PM 20.7 69.26 0.097 7.1 20.56 9.68
9/18/2021 6:45:00 PM 20.68 69.224 0.091 7.07 21.03 9.56
9/18/2021 7:00:00 PM 20.65 69.17 0.091 6.97 20.57 9.43
9/18/2021 7:15:00 PM 20.62 69.116 0.092 7.02 21.03 9.32
9/18/2021 7:30:00 PM 20.58 69.044 0.092 7.01 21.03 9.21
9/18/2021 7:45:00 PM 20.54 68.972 0.097 6.98 20.9 9.13
9/18/2021 8:00:00 PM 20.51 68.918 0.092 6.97 21.12 9.06
9/18/2021 8:15:00 PM 20.48 68.864 0.097 6.96 21.62 9
9/18/2021 8:30:00 PM 20.44 68.792 0.092 6.87 21.38 8.96
9/18/2021 8:45:00 PM 20.41 68.738 0.098 6.92 21.8 8.92
9/18/2021 9:00:00 PM 20.38 68.684 0.098 6.95 21.9 8.88
9/18/2021 9:15:00 PM 20.34 68.612 0.092 6.9 22.03 8.85
9/18/2021 9:30:00 PM 20.29 68.522 0.093 6.91 21.64 8.8
9/18/2021 9:45:00 PM 20.23 68.414 0.093 6.9 21.41 8.77
9/18/2021 10:00:00 PM 20.16 68.288 0.098 6.91 21.61 8.73
9/18/2021 10:15:00 PM 20.08 68.144 0.093 6.89 22.12 8.71
9/18/2021 10:30:00 PM 19.99 67.982 0.099 6.88 22.48 8.68
9/18/2021 10:45:00 PM 19.89 67.802 0.098 6.9 22.42 8.68
9/18/2021 11:00:00 PM 19.8 67.64 0.099 6.88 22.23 8.66
9/18/2021 11:15:00 PM 19.7 67.46 0.099 6.88 22.21 8.65
9/18/2021 11:30:00 PM 19.59 67.262 0.099 6.88 22.08 8.64
9/18/2021 11:45:00 PM 19.49 67.082 0.099 6.84 22.54 8.65
9/19/2021 12:00:00 AM 19.38 66.884 0.099 6.88 22.45 8.66
9/19/2021 12:15:00 AM 19.28 66.704 0.1 6.88 22.16 8.66
9/19/2021 12:30:00 AM 19.18 66.524 0.094 6.87 24.34 8.68
9/19/2021 12:45:00 AM 19.08 66.344 0.1 6.8 22.33 8.68
9/19/2021 1:00:00 AM 18.98 66.164 0.094 6.86 22.4 8.69
9/19/2021 1:15:00 AM 18.89 66.002 0.1 6.87 22.51 8.7
9/19/2021 1:30:00 AM 18.81 65.858 0.1 6.87 22.42 8.71
9/19/2021 1:45:00 AM 18.72 65.696 0.094 6.85 22.77 8.72
9/19/2021 2:00:00 AM 18.64 65.552 0.094 6.86 22.38 8.74
9/19/2021 2:15:00 AM 18.57 65.426 0.094 6.76 22.8 8.74
9/19/2021 2:30:00 AM 18.49 65.282 0.095 6.77 22.39 8.76
9/19/2021 2:45:00 AM 18.42 65.156 0.096 6.86 22.62 8.77
9/19/2021 3:00:00 AM 18.35 65.03 0.095 6.86 23.07 8.77
9/19/2021 3:15:00 AM 18.28 64.904 0.101 6.86 23.12 8.79
9/19/2021 3:30:00 AM 18.22 64.796 0.095 6.86 22.84 8.79
9/19/2021 3:45:00 AM 18.15 64.67 0.095 6.86 22.42 8.8
9/19/2021 4:00:00 AM 18.07 64.526 0.095 6.76 22.58 8.82
9/19/2021 4:15:00 AM 18 64.4 0.095 6.82 22.8 8.84
9/19/2021 4:30:00 AM 17.94 64.292 0.095 6.86 22.65 8.85
9/19/2021 4:45:00 AM 17.88 64.184 0.096 6.84 22.53 8.86
9/19/2021 5:00:00 AM 17.82 64.076 0.095 6.84 23.05 8.87
9/19/2021 5:15:00 AM 17.76 63.968 0.095 6.84 23.31 8.88
9/19/2021 5:30:00 AM 17.7 63.86 0.095 6.79 22.84 8.9
9/19/2021 5:45:00 AM 17.65 63.77 0.096 6.86 23.06 8.91
9/19/2021 6:00:00 AM 17.6 63.68 0.095 6.8 22.99 8.94
9/19/2021 6:15:00 AM 17.55 63.59 0.095 6.78 22.87 8.95
9/19/2021 6:30:00 AM 17.5 63.5 0.095 6.83 22.29 8.96
9/19/2021 6:45:00 AM 17.45 63.41 0.096 6.85 22.49 8.98
9/19/2021 7:00:00 AM 17.4 63.32 0.101 6.86 22.28 9
9/19/2021 7:15:00 AM 17.35 63.23 0.096 6.78 22.39 9.03
9/19/2021 7:30:00 AM 17.31 63.158 0.096 6.87 22.09 9.07
9/19/2021 7:45:00 AM 17.27 63.086 0.096 6.82 21.96 9.12
9/19/2021 8:00:00 AM 17.24 63.032 0.096 6.87 22.09 9.17
9/19/2021 8:15:00 AM 17.21 62.978 0.095 6.89 21.7 9.24
9/19/2021 8:30:00 AM 17.17 62.906 0.096 6.89 21.79 9.32
9/19/2021 8:45:00 AM 17.14 62.852 0.095 6.9 21.9 9.39
9/19/2021 9:00:00 AM 17.15 62.87 0.096 6.92 22 9.54
9/19/2021 9:15:00 AM 17.14 62.852 0.096 6.92 21.92 9.61
9/19/2021 9:30:00 AM 17.13 62.834 0.096 6.96 21.99 9.66
9/19/2021 9:45:00 AM 17.15 62.87 0.096 6.97 21.85 9.73
9/19/2021 10:00:00 AM 17.18 62.924 0.096 6.93 21.89 9.82
9/19/2021 10:15:00 AM 17.21 62.978 0.096 6.98 21.91 9.88
9/19/2021 10:30:00 AM 17.27 63.086 0.097 6.99 21.93 9.94
9/19/2021 10:45:00 AM 17.34 63.212 0.096 6.95 23.11 10.01
9/19/2021 11:00:00 AM 17.42 63.356 0.096 7.06 20.97 10.09
9/19/2021 11:15:00 AM 17.52 63.536 0.096 7.03 23.38 10.16
9/19/2021 11:30:00 AM 17.66 63.788 0.096 7.04 21.86 10.25
9/19/2021 11:45:00 AM 17.82 64.076 0.096 7.09 20.98 10.36
9/19/2021 12:00:00 PM 18 64.4 0.096 7.07 20.72 10.49
9/19/2021 12:15:00 PM 18.2 64.76 0.102 7.16 20.66 10.59
9/19/2021 12:30:00 PM 18.38 65.084 0.102 7.2 21.28 10.67
9/19/2021 12:45:00 PM 18.57 65.426 0.097 7.17 21.14 10.75
9/19/2021 1:00:00 PM 18.76 65.768 0.102 7.21 21.64 10.82
9/19/2021 1:15:00 PM 18.95 66.11 0.102 7.19 22.23 10.86
9/19/2021 1:30:00 PM 19.12 66.416 0.102 7.21 21.72 10.91
9/19/2021 1:45:00 PM 19.28 66.704 0.102 7.22 21.62 10.93
9/19/2021 2:00:00 PM 19.43 66.974 0.102 7.22 21.79 10.95
9/19/2021 2:15:00 PM 19.56 67.208 0.102 7.2 21.36 10.95
9/19/2021 2:30:00 PM 19.68 67.424 0.101 7.26 21.08 10.96
9/19/2021 2:45:00 PM 19.76 67.568 0.101 7.29 20.98 10.94
9/19/2021 3:00:00 PM 19.83 67.694 0.101 7.34 21.01 10.92
9/19/2021 3:15:00 PM 19.86 67.748 0.102 7.31 20.78 10.89
9/19/2021 3:30:00 PM 19.87 67.766 0.101 7.24 20.73 10.85
9/19/2021 3:45:00 PM 19.86 67.748 0.102 7.26 20.7 10.8
9/19/2021 4:00:00 PM 19.81 67.658 0.101 7.24 20.76 10.73
9/19/2021 4:15:00 PM 19.75 67.55 0.102 7.21 21.06 10.65
9/19/2021 4:30:00 PM 19.67 67.406 0.101 7.22 20.76 10.55
9/19/2021 4:45:00 PM 19.61 67.298 0.102 7.2 20.57 10.46
9/19/2021 5:00:00 PM 19.54 67.172 0.102 7.18 20.64 10.35
9/19/2021 5:15:00 PM 19.48 67.064 0.102 7.15 20.7 10.25
9/19/2021 5:30:00 PM 19.43 66.974 0.102 7.11 20.71 10.15
9/19/2021 5:45:00 PM 19.39 66.902 0.096 7 23.46 10.06
9/19/2021 6:00:00 PM 19.35 66.83 0.102 7.12 20.99 9.97
9/19/2021 6:15:00 PM 19.31 66.758 0.096 7.1 20.2 9.87
9/19/2021 6:30:00 PM 19.26 66.668 0.102 7.08 21.95 9.78
9/19/2021 6:45:00 PM 19.21 66.578 0.102 7.09 21.64 9.68
9/19/2021 7:00:00 PM 19.15 66.47 0.096 6.97 21.56 9.59
9/19/2021 7:15:00 PM 19.09 66.362 0.102 6.99 21.4 9.5
9/19/2021 7:30:00 PM 19.03 66.254 0.102 7.03 21.78 9.42
9/19/2021 7:45:00 PM 18.97 66.146 0.103 6.97 21.56 9.35
9/19/2021 8:00:00 PM 18.91 66.038 0.102 6.99 21.79 9.29
9/19/2021 8:15:00 PM 18.85 65.93 0.103 6.97 21.74 9.24
9/19/2021 8:30:00 PM 18.8 65.84 0.097 6.97 21.89 9.19
9/19/2021 8:45:00 PM 18.74 65.732 0.102 6.93 22.04 9.15
9/19/2021 9:00:00 PM 18.69 65.642 0.103 6.88 22.39 9.1
9/19/2021 9:15:00 PM 18.64 65.552 0.103 6.93 20.13 9.08
9/19/2021 9:30:00 PM 18.59 65.462 0.103 6.93 19.27 9.05
9/19/2021 9:45:00 PM 18.54 65.372 0.103 6.96 20.22 9.02
9/19/2021 10:00:00 PM 18.49 65.282 0.103 6.92 19.34 9
9/19/2021 10:15:00 PM 18.44 65.192 0.098 6.86 19.56 8.98
9/19/2021 10:30:00 PM 18.39 65.102 0.103 6.9 19.62 8.95
9/19/2021 10:45:00 PM 18.34 65.012 0.103 6.9 19.41 8.94
9/19/2021 11:00:00 PM 18.28 64.904 0.103 6.89 19.42 8.92
9/19/2021 11:15:00 PM 18.21 64.778 0.103 6.88 19.46 8.92
9/19/2021 11:30:00 PM 18.14 64.652 0.103 6.88 19.79 8.91
9/19/2021 11:45:00 PM 18.07 64.526 0.104 6.91 19.94 8.91
9/20/2021 12:00:00 AM 17.99 64.382 0.098 6.9 19.98 8.9
9/20/2021 12:15:00 AM 17.91 64.238 0.104 6.87 19.61 8.9
9/20/2021 12:30:00 AM 17.83 64.094 0.104 6.89 20.16 8.9
9/20/2021 12:45:00 AM 17.74 63.932 0.104 6.89 19.86 8.91
9/20/2021 1:00:00 AM 17.65 63.77 0.104 6.91 20.01 8.92
9/20/2021 1:15:00 AM 17.55 63.59 0.105 6.91 19.89 8.93
9/20/2021 1:30:00 AM 17.45 63.41 0.105 6.84 19.73 8.95
9/20/2021 1:45:00 AM 17.35 63.23 0.105 6.87 19.89 8.97
9/20/2021 2:00:00 AM 17.24 63.032 0.105 6.9 19.81 8.98
9/20/2021 2:15:00 AM 17.14 62.852 0.105 6.82 19.68 8.99
9/20/2021 2:30:00 AM 17.04 62.672 0.105 6.9 20.03 9.01
9/20/2021 2:45:00 AM 16.94 62.492 0.105 6.9 20.28 9.03
9/20/2021 3:00:00 AM 16.83 62.294 0.105 6.9 20.26 9.06
9/20/2021 3:15:00 AM 16.73 62.114 0.099 6.88 20.38 9.08
9/20/2021 3:30:00 AM 16.63 61.934 0.099 6.83 20.25 9.1
9/20/2021 3:45:00 AM 16.53 61.754 0.106 6.83 20.34 9.11
9/20/2021 4:00:00 AM 16.44 61.592 0.106 6.91 20.59 9.13
9/20/2021 4:15:00 AM 16.34 61.412 0.1 6.9 20.13 9.16
9/20/2021 4:30:00 AM 16.25 61.25 0.105 6.9 20.54 9.18
9/20/2021 4:45:00 AM 16.16 61.088 0.105 6.9 20.64 9.2
9/20/2021 5:00:00 AM 16.07 60.926 0.1 6.88 20.42 9.22
9/20/2021 5:15:00 AM 15.98 60.764 0.1 6.84 21.08 9.24
9/20/2021 5:30:00 AM 15.9 60.62 0.1 6.87 20.91 9.25
9/20/2021 5:45:00 AM 15.82 60.476 0.106 6.87 21.03 9.27
9/20/2021 6:00:00 AM 15.73 60.314 0.1 6.9 20.83 9.29
9/20/2021 6:15:00 AM 15.65 60.17 0.101 6.9 22.14 9.31
9/20/2021 6:30:00 AM 15.58 60.044 0.1 6.86 21.96 9.34
9/20/2021 6:45:00 AM 15.5 59.9 0.106 6.7 22.18 9.35
9/20/2021 7:00:00 AM 15.43 59.774 0.106 6.72 22.41 9.39
9/20/2021 7:15:00 AM 15.36 59.648 0.1 6.77 22.3 9.42
9/20/2021 7:30:00 AM 15.29 59.522 0.1 6.82 21.97 9.47
9/20/2021 7:45:00 AM 15.22 59.396 0.1 6.84 22.02 9.52
9/20/2021 8:00:00 AM 15.17 59.306 0.1 6.87 22.03 9.56
9/20/2021 8:15:00 AM 15.13 59.234 0.1 6.88 22.08 9.63
9/20/2021 8:30:00 AM 15.1 59.18 0.1 6.89 21.78 9.71
9/20/2021 8:45:00 AM 15.08 59.144 0.1 6.91 21.77 9.78
9/20/2021 9:00:00 AM 15.08 59.144 0.1 6.93 21.88 9.86
9/20/2021 9:15:00 AM 15.09 59.162 0.1 6.95 21.69 9.95
9/20/2021 9:30:00 AM 15.12 59.216 0.1 6.96 21.91 10.04
9/20/2021 9:45:00 AM 15.17 59.306 0.1 6.98 21.7 10.11
9/20/2021 10:00:00 AM 15.24 59.432 0.1 6.89 21.7 10.19
9/20/2021 10:15:00 AM 15.31 59.558 0.1 6.94 21.64 10.27
9/20/2021 10:30:00 AM 15.4 59.72 0.1 7 21.98 10.35
9/20/2021 10:45:00 AM 15.5 59.9 0.1 7.03 21.73 10.43
9/20/2021 11:00:00 AM 15.61 60.098 0.1 6.99 21.7 10.52
9/20/2021 11:15:00 AM 15.75 60.35 0.1 7.07 21.75 10.6
9/20/2021 11:30:00 AM 15.91 60.638 0.1 7.09 21.76 10.71
9/20/2021 11:45:00 AM 16.1 60.98 0.1 7.11 21.58 10.84
9/20/2021 12:00:00 PM 16.29 61.322 0.106 7.14 21.69 10.97
9/20/2021 12:15:00 PM 16.47 61.646 0.106 7.15 21.73 11.06
9/20/2021 12:30:00 PM 16.68 62.024 0.106 7.12 21.63 11.17
9/20/2021 12:45:00 PM 16.9 62.42 0.106 7.2 21.65 11.24
9/20/2021 1:00:00 PM 17.12 62.816 0.106 7.17 21.5 11.28
9/20/2021 1:15:00 PM 17.34 63.212 0.106 7.23 21.43 11.33
9/20/2021 1:30:00 PM 17.56 63.608 0.106 7.26 21.2 11.37
9/20/2021 1:45:00 PM 17.77 63.986 0.105 7.21 21.29 11.39
9/20/2021 2:00:00 PM 17.99 64.382 0.106 7.29 21.45 11.43
9/20/2021 2:15:00 PM 18.18 64.724 0.105 7.3 21.36 11.43
9/20/2021 2:30:00 PM 18.36 65.048 0.105 7.29 21.55 11.42
9/20/2021 2:45:00 PM 18.51 65.318 0.105 7.33 21.27 11.41
9/20/2021 3:00:00 PM 18.63 65.534 0.105 7.33 21.87 11.39
9/20/2021 3:15:00 PM 18.72 65.696 0.105 7.33 20.89 11.36
9/20/2021 3:30:00 PM 18.78 65.804 0.105 7.35 20.63 11.32
9/20/2021 3:45:00 PM 18.81 65.858 0.105 7.29 20.94 11.28
9/20/2021 4:00:00 PM 18.8 65.84 0.105 7.34 20.8 11.23
9/20/2021 4:15:00 PM 18.77 65.786 0.105 7.35 20.85 11.17
9/20/2021 4:30:00 PM 18.71 65.67799 0.105 7.32 20.94 11.09
9/20/2021 4:45:00 PM 18.63 65.534 0.105 7.25 20.96 11
9/20/2021 5:00:00 PM 18.56 65.408 0.106 7.22 21.08 10.89
9/20/2021 5:15:00 PM 18.5 65.3 0.106 7.23 21.29 10.77
9/20/2021 5:30:00 PM 18.44 65.192 0.106 7.23 21.19 10.65
9/20/2021 5:45:00 PM 18.4 65.12 0.106 7.2 21.14 10.53
9/20/2021 6:00:00 PM 18.37 65.066 0.106 7.11 21.28 10.42
9/20/2021 6:15:00 PM 18.35 65.03 0.106 7.18 21.4 10.32
9/20/2021 6:30:00 PM 18.33 64.994 0.106 7.09 21.12 10.22
9/20/2021 6:45:00 PM 18.32 64.976 0.106 7.11 21.36 10.13
9/20/2021 7:00:00 PM 18.3 64.94 0.107 7.07 21.29 10
9/20/2021 7:15:00 PM 18.28 64.904 0.107 7.06 21.21 9.87
9/20/2021 7:30:00 PM 18.26 64.868 0.107 7.04 21.06 9.77
9/20/2021 7:45:00 PM 18.24 64.832 0.107 7.08 27.27 9.68
9/20/2021 8:00:00 PM 18.21 64.778 0.107 6.84 26.81 9.61
9/20/2021 8:15:00 PM 18.18 64.724 0.107 7 24.71 9.53
9/20/2021 8:30:00 PM 18.15 64.67 0.103 6.99 24.21 9.47
9/20/2021 8:45:00 PM 18.12 64.616 0.107 7 26.04 9.41
9/20/2021 9:00:00 PM 18.08 64.544 0.107 6.96 26.5 9.36
9/20/2021 9:15:00 PM 18.05 64.49 0.107 6.94 26.09 9.32
9/20/2021 9:30:00 PM 18.01 64.418 0.107 6.94 26.47 9.28
9/20/2021 9:45:00 PM 17.98 64.364 0.107 6.97 25.51 9.24
9/20/2021 10:00:00 PM 17.96 64.328 0.107 6.96 25.6 9.21
9/20/2021 10:15:00 PM 17.93 64.274 0.107 6.94 24.78 9.17
9/20/2021 10:30:00 PM 17.91 64.238 0.108 6.95 23.25 9.13
9/20/2021 10:45:00 PM 17.89 64.202 0.108 6.94 24.18 9.11
9/20/2021 11:00:00 PM 17.88 64.184 0.108 6.96 24.63 9.08
9/20/2021 11:15:00 PM 17.87 64.166 0.107 6.93 22.37 9.05
9/20/2021 11:30:00 PM 17.86 64.148 0.108 6.94 23.69 9.01
9/20/2021 11:45:00 PM 17.84 64.112 0.108 6.91 21.82 9
9/21/2021 12:00:00 AM 17.82 64.076 0.108 6.87 22.79 8.98
9/21/2021 12:15:00 AM 17.8 64.04 0.108 6.91 24.82 8.95
9/21/2021 12:30:00 AM 17.77 63.986 0.108 6.91 22.62 8.94
9/21/2021 12:45:00 AM 17.75 63.95 0.108 6.9 22.8 8.89
9/21/2021 1:00:00 AM 17.72 63.896 0.108 6.83 21.48 8.89
9/21/2021 1:15:00 AM 17.68 63.824 0.108 6.81 21.54 8.88
9/21/2021 1:30:00 AM 17.64 63.752 0.108 6.82 21.77 8.87
9/21/2021 1:45:00 AM 17.59 63.662 0.108 6.89 21.8 8.88
9/21/2021 2:00:00 AM 17.55 63.59 0.108 6.88 22.49 8.87
9/21/2021 2:15:00 AM 17.5 63.5 0.108 6.81 22.02 8.88
9/21/2021 2:30:00 AM 17.45 63.41 0.108 6.88 18.45 8.9
9/21/2021 2:45:00 AM 17.4 63.32 0.109 6.81 19.7 8.91
9/21/2021 3:00:00 AM 17.34 63.212 0.109 6.88 20.02 8.9
9/21/2021 3:15:00 AM 17.28 63.104 0.108 6.83 24.7 8.92
9/21/2021 3:30:00 AM 17.22 62.996 0.109 6.87 22.46 8.92
9/21/2021 3:45:00 AM 17.17 62.906 0.109 6.87 20.85 8.94
9/21/2021 4:00:00 AM 17.11 62.798 0.109 6.88 21.58 8.94
9/21/2021 4:15:00 AM 17.07 62.726 0.109 6.8 21.68 8.94
9/21/2021 4:30:00 AM 17.02 62.636 0.109 6.81 22.06 8.95
9/21/2021 4:45:00 AM 16.97 62.546 0.109 6.82 19.76 8.95
9/21/2021 5:00:00 AM 16.91 62.438 0.109 6.87 19.47 8.97
9/21/2021 5:15:00 AM 16.85 62.33 0.109 6.84 20.09 8.99
9/21/2021 5:30:00 AM 16.79 62.222 0.109 6.82 20.8 9.01
9/21/2021 5:45:00 AM 16.74 62.132 0.109 6.78 19.94 9.03
9/21/2021 6:00:00 AM 16.69 62.042 0.11 6.78 20.66 9.04
9/21/2021 6:15:00 AM 16.63 61.934 0.11 6.87 20.47 9.04
9/21/2021 6:30:00 AM 16.56 61.808 0.109 6.85 21.25 9.05
9/21/2021 6:45:00 AM 16.49 61.682 0.109 6.8 21.39 9.07
9/21/2021 7:00:00 AM 16.42 61.556 0.104 6.79 21 9.11
9/21/2021 7:15:00 AM 16.36 61.448 0.11 6.79 20.94 9.14
9/21/2021 7:30:00 AM 16.3 61.34 0.109 6.79 20.99 9.18
9/21/2021 7:45:00 AM 16.25 61.25 0.11 6.81 21.28 9.22
9/21/2021 8:00:00 AM 16.21 61.178 0.11 6.88 21.36 9.31
9/21/2021 8:15:00 AM 16.18 61.124 0.11 6.9 21.31 9.39
9/21/2021 8:30:00 AM 16.15 61.07 0.11 6.86 21.46 9.44
9/21/2021 8:45:00 AM 16.16 61.088 0.11 6.86 22.76 9.54
9/21/2021 9:00:00 AM 16.16 61.088 0.11 6.88 21.5 9.68
9/21/2021 9:15:00 AM 16.19 61.142 0.104 6.86 21.65 9.79
9/21/2021 9:30:00 AM 16.23 61.214 0.11 6.95 21.65 9.85
9/21/2021 9:45:00 AM 16.32 61.376 0.11 6.92 21.67 10.08
9/21/2021 10:00:00 AM 16.39 61.502 0.11 7 21.77 10.27
9/21/2021 10:15:00 AM 16.39 61.502 0.11 7.02 21.91 10.35
9/21/2021 10:30:00 AM 16.44 61.592 0.11 6.96 21.82 10.45
9/21/2021 10:45:00 AM 16.54 61.772 0.11 7.02 22.19 10.58
9/21/2021 11:00:00 AM 16.6 61.88 0.11 7.09 21.87 10.71
9/21/2021 11:15:00 AM 16.72 62.096 0.109 7.11 21.81 10.87
9/21/2021 11:30:00 AM 16.78 62.204 0.109 7.13 21.77 10.96
9/21/2021 11:45:00 AM 16.83 62.294 0.109 7.15 21.83 11
9/21/2021 12:00:00 PM 16.89 62.402 0.109 7.17 21.63 11.09
9/21/2021 12:15:00 PM 17.01 62.618 0.109 7.21 21.44 11.2
9/21/2021 12:30:00 PM 17.2 62.96 0.109 7.17 21.61 11.31
9/21/2021 12:45:00 PM 17.38 63.284 0.109 7.26 21.63 11.4
9/21/2021 1:00:00 PM 17.47 63.446 0.109 7.23 21.64 11.45
9/21/2021 1:15:00 PM 17.55 63.59 0.109 7.31 21.61 11.5
9/21/2021 1:30:00 PM 17.62 63.716 0.109 7.25 21.43 11.52
9/21/2021 1:45:00 PM 17.72 63.896 0.109 7.35 21.38 11.57
9/21/2021 2:00:00 PM 17.8 64.04 0.109 7.34 21.32 11.61
9/21/2021 2:15:00 PM 17.89 64.202 0.109 7.33 21.46 11.65
9/21/2021 2:30:00 PM 17.9 64.22 0.109 7.4 21.49 11.53
9/21/2021 2:45:00 PM 17.93 64.274 0.109 7.4 21.41 11.48
9/21/2021 3:00:00 PM 17.95 64.31 0.109 7.38 21.5 11.48
9/21/2021 3:15:00 PM 18.01 64.418 0.109 7.42 21.34 11.55
9/21/2021 3:30:00 PM 18.06 64.508 0.109 7.41 21.7 11.6
9/21/2021 3:45:00 PM 18.08 64.544 0.109 7.45 21.44 11.57
9/21/2021 4:00:00 PM 18.08 64.544 0.109 7.4 21.41 11.48
9/21/2021 4:15:00 PM 18.08 64.544 0.109 7.39 21.51 11.43
9/21/2021 4:30:00 PM 18.08 64.544 0.109 7.31 21.47 11.32
9/21/2021 4:45:00 PM 18.08 64.544 0.109 7.35 21.48 11.26
9/21/2021 5:00:00 PM 18.09 64.562 0.109 7.33 21.29 11.19
9/21/2021 5:15:00 PM 18.11 64.598 0.109 7.26 21.4 11.14
9/21/2021 5:30:00 PM 18.12 64.616 0.109 7.37 21.53 11.06
9/21/2021 5:45:00 PM 18.13 64.634 0.109 7.23 21.41 10.98
9/21/2021 6:00:00 PM 18.13 64.634 0.109 7.25 21.6 10.89
9/21/2021 6:15:00 PM 18.12 64.616 0.109 7.28 21.53 10.67
9/21/2021 6:30:00 PM 18.11 64.598 0.109 7.24 21.71 10.48
9/21/2021 6:45:00 PM 18.1 64.58 0.11 7.22 21.77 10.34
9/21/2021 7:00:00 PM 18.1 64.58 0.11 7.17 21.65 10.22
9/21/2021 7:15:00 PM 18.09 64.562 0.11 7.15 21.75 10.09
9/21/2021 7:30:00 PM 18.08 64.544 0.11 7.12 26.1 9.96
9/21/2021 7:45:00 PM 18.06 64.508 0.11 7.1 21.21 9.85
9/21/2021 8:00:00 PM 18.04 64.472 0.11 7.08 19.97 9.74
9/21/2021 8:15:00 PM 18.03 64.454 0.111 6.99 17.28 9.67
9/21/2021 8:30:00 PM 18.01 64.418 0.111 6.9 18.04 9.59
9/21/2021 8:45:00 PM 18 64.4 0.111 6.94 17.29 9.53
9/21/2021 9:00:00 PM 17.99 64.382 0.11 7 17.04 9.48
9/21/2021 9:15:00 PM 17.97 64.346 0.11 6.97 17.64 9.43
9/21/2021 9:30:00 PM 17.96 64.328 0.111 6.98 17.1 9.39
9/21/2021 9:45:00 PM 17.94 64.292 0.11 6.99 17.76 9.35
9/21/2021 10:00:00 PM 17.91 64.238 0.11 6.97 17.41 9.33
9/21/2021 10:15:00 PM 17.89 64.202 0.11 6.94 17.7 9.28
9/21/2021 10:30:00 PM 17.87 64.166 0.11 6.96 17.99 9.26
9/21/2021 10:45:00 PM 17.85 64.13 0.11 6.97 17.91 9.22
9/21/2021 11:00:00 PM 17.83 64.094 0.11 6.9 17.94 9.19
9/21/2021 11:15:00 PM 17.81 64.058 0.11 6.93 18.12 9.16
9/21/2021 11:30:00 PM 17.78 64.004 0.11 6.92 17.96 9.12
9/21/2021 11:45:00 PM 17.77 63.986 0.111 6.88 18.05 9.08
9/22/2021 12:00:00 AM 17.75 63.95 0.11 6.84 18.19 9.05
9/22/2021 12:15:00 AM 17.73 63.914 0.111 6.82 18.39 9.02
9/22/2021 12:30:00 AM 17.73 63.914 0.111 6.92 18.49 8.98
9/22/2021 12:45:00 AM 17.72 63.896 0.11 6.82 18.65 8.95
9/22/2021 1:00:00 AM 17.72 63.896 0.111 6.87 18.6 8.93
9/22/2021 1:15:00 AM 17.71 63.878 0.111 6.99 18.58 8.91
9/22/2021 1:30:00 AM 17.7 63.86 0.111 6.85 18.95 8.88
9/22/2021 1:45:00 AM 17.69 63.842 0.111 6.9 18.78 8.87
9/22/2021 2:00:00 AM 17.68 63.824 0.111 6.88 18.47 8.86
9/22/2021 2:15:00 AM 17.68 63.824 0.111 6.91 18.74 8.84
9/22/2021 2:30:00 AM 17.67 63.806 0.111 6.86 18.72 8.83
9/22/2021 2:45:00 AM 17.66 63.788 0.111 6.87 19.95 8.82
9/22/2021 3:00:00 AM 17.65 63.77 0.111 6.89 17.58 8.81
9/22/2021 3:15:00 AM 17.63 63.734 0.111 6.83 17.74 8.81
9/22/2021 3:30:00 AM 17.62 63.716 0.111 6.88 18.55 8.79
9/22/2021 3:45:00 AM 17.6 63.68 0.111 6.89 19.51 8.78
9/22/2021 4:00:00 AM 17.58 63.644 0.111 6.88 17.4 8.76
9/22/2021 4:15:00 AM 17.56 63.608 0.111 6.88 18.93 8.77
9/22/2021 4:30:00 AM 17.54 63.572 0.111 6.84 17.29 8.77
9/22/2021 4:45:00 AM 17.53 63.554 0.111 6.88 17.65 8.77
9/22/2021 5:00:00 AM 17.51 63.518 0.111 6.84 17.57 8.78
9/22/2021 5:15:00 AM 17.5 63.5 0.111 6.82 17.38 8.77
9/22/2021 5:30:00 AM 17.48 63.464 0.111 6.86 19.18 8.77
9/22/2021 5:45:00 AM 17.47 63.446 0.112 6.86 22.89 8.77
9/22/2021 6:00:00 AM 17.45 63.41 0.112 6.79 21.38 8.76
9/22/2021 6:15:00 AM 17.43 63.374 0.112 6.89 22.41 8.79
9/22/2021 6:30:00 AM 17.41 63.338 0.112 6.79 21.16 8.8
9/22/2021 6:45:00 AM 17.39 63.302 0.112 6.85 20.64 8.79
9/22/2021 7:00:00 AM 17.37 63.266 0.112 6.89 19.74 8.81
9/22/2021 7:15:00 AM 17.35 63.23 0.112 6.89 19.93 8.83
9/22/2021 7:30:00 AM 17.34 63.212 0.112 6.86 19.79 8.87
9/22/2021 7:45:00 AM 17.33 63.194 0.112 6.92 20.05 8.92
9/22/2021 8:00:00 AM 17.31 63.158 0.112 6.92 20.22 8.99
9/22/2021 8:15:00 AM 17.33 63.194 0.113 6.98 21.02 9.13
9/22/2021 8:30:00 AM 17.34 63.212 0.112 6.9 20.22 9.24
9/22/2021 8:45:00 AM 17.36 63.248 0.112 6.9 20.39 9.35
9/22/2021 9:00:00 AM 17.39 63.302 0.112 6.96 20.48 9.49
9/22/2021 9:15:00 AM 17.48 63.464 0.112 6.91 20.23 9.72
9/22/2021 9:30:00 AM 17.55 63.59 0.112 7.01 20.15 9.9
9/22/2021 9:45:00 AM 17.58 63.644 0.113 7.01 20.16 10
9/22/2021 10:00:00 AM 17.67 63.806 0.112 7.05 20.85 10.16
9/22/2021 10:15:00 AM 17.73 63.914 0.112 7.07 96.67 10.3
9/22/2021 10:30:00 AM 17.78 64.004 0.112 7.08 21.97 10.4
9/22/2021 10:45:00 AM 17.81 64.058 0.112 7.02 22.28 10.38
9/22/2021 11:00:00 AM 17.84 64.112 0.112 7.1 21.64 10.39
9/22/2021 11:15:00 AM 17.86 64.148 0.112 7.11 21.64 10.36
9/22/2021 11:30:00 AM 17.93 64.274 0.112 7.05 21.56 10.55
9/22/2021 11:45:00 AM 18.02 64.436 0.112 7.16 21.36 10.74
9/22/2021 12:00:00 PM 18.1 64.58 0.112 7.17 21.58 10.86
9/22/2021 12:15:00 PM 18.15 64.67 0.112 7.22 21.39 10.9
9/22/2021 12:30:00 PM 18.21 64.778 0.112 7.24 21.38 10.97
9/22/2021 12:45:00 PM 18.25 64.85 0.112 7.18 21.65 11.03
9/22/2021 1:00:00 PM 18.3 64.94 0.112 7.3 21.42 11.09
9/22/2021 1:15:00 PM 18.38 65.084 0.112 7.31 21.38 11.2
9/22/2021 1:30:00 PM 18.51 65.318 0.111 7.31 21.4 11.34
9/22/2021 1:45:00 PM 18.64 65.552 0.111 7.38 21.64 11.45
9/22/2021 2:00:00 PM 18.73 65.714 0.111 7.44 22.49 11.44
9/22/2021 2:15:00 PM 18.77 65.786 0.111 7.25 22.62 11.43
9/22/2021 2:30:00 PM 18.93 66.074 0.111 7.47 22.52 11.51
9/22/2021 2:45:00 PM 18.99 66.182 0.111 7.23 22.42 11.5
9/22/2021 3:00:00 PM 19.03 66.254 0.111 7.48 22.49 11.44
9/22/2021 3:15:00 PM 19.06 66.308 0.111 7.5 22.47 11.41
9/22/2021 3:30:00 PM 19.08 66.344 0.111 7.34 22.21 11.34
9/22/2021 3:45:00 PM 19.1 66.38 0.111 7.49 22.38 11.25
9/22/2021 4:00:00 PM 19.15 66.47 0.111 7.52 22.33 11.3
9/22/2021 4:15:00 PM 19.18 66.524 0.111 7.55 22.09 11.29
9/22/2021 4:30:00 PM 19.21 66.578 0.111 7.52 22.64 11.24
9/22/2021 4:45:00 PM 19.19 66.542 0.111 7.33 22.6 11
9/22/2021 5:00:00 PM 19.17 66.506 0.111 7.42 22.3 10.87
9/22/2021 5:15:00 PM 19.15 66.47 0.111 7.34 22.76 10.7
9/22/2021 5:30:00 PM 19.13 66.434 0.111 7.35 23.66 10.52
9/22/2021 5:45:00 PM 19.13 66.434 0.111 7.29 23.03 10.39
9/22/2021 6:00:00 PM 19.12 66.416 0.111 7.27 23.24 10.21
9/22/2021 6:15:00 PM 19.12 66.416 0.111 7.24 23.39 10.12
9/22/2021 6:30:00 PM 19.11 66.398 0.111 7.24 23.55 9.93
9/22/2021 6:45:00 PM 19.1 66.38 0.112 7.21 23.85 9.81
9/22/2021 7:00:00 PM 19.09 66.362 0.111 7.04 24 9.68
9/22/2021 7:15:00 PM 19.08 66.344 0.111 7.14 24.32 9.52
9/22/2021 7:30:00 PM 19.07 66.326 0.112 7.12 24.88 9.41
9/22/2021 7:45:00 PM 19.06 66.308 0.111 7.11 24.9 9.33
9/22/2021 8:00:00 PM 19.04 66.272 0.112 7.08 25.72 9.23
9/22/2021 8:15:00 PM 19.03 66.254 0.112 7.07 25.07 9.2
9/22/2021 8:30:00 PM 19.03 66.254 0.112 7.01 26.03 9.15
9/22/2021 8:45:00 PM 19.02 66.236 0.111 7.03 25.61 9.1
9/22/2021 9:00:00 PM 19.02 66.236 0.111 6.87 25.42 9.03
9/22/2021 9:15:00 PM 19.03 66.254 0.112 7.12 27.95 9
9/22/2021 9:30:00 PM 19.02 66.236 0.111 7 25.42 8.93
9/22/2021 9:45:00 PM 19.02 66.236 0.111 6.98 25.36 8.83
9/22/2021 10:00:00 PM 19.01 66.218 0.111 6.95 25.57 8.82
9/22/2021 10:15:00 PM 19.01 66.218 0.112 6.96 25.15 8.78
9/22/2021 10:30:00 PM 19 66.2 0.111 6.96 25.02 8.79
9/22/2021 10:45:00 PM 19 66.2 0.111 6.88 24.87 8.73
9/22/2021 11:00:00 PM 18.99 66.182 0.112 6.89 24.74 8.67
9/22/2021 11:15:00 PM 18.98 66.164 0.112 6.9 24.86 8.62
9/22/2021 11:30:00 PM 18.97 66.146 0.112 6.93 25.3 8.71
9/22/2021 11:45:00 PM 18.95 66.11 0.112 6.83 25.49 8.68
9/23/2021 12:00:00 AM 18.93 66.074 0.112 6.87 25.49 8.64
9/23/2021 12:15:00 AM 18.92 66.056 0.112 6.92 25.15 8.58
9/23/2021 12:30:00 AM 18.9 66.02 0.112 6.91 25.42 8.57
9/23/2021 12:45:00 AM 18.88 65.984 0.112 6.95 25.77 8.54
9/23/2021 1:00:00 AM 18.86 65.948 0.112 6.93 25.85 8.52
9/23/2021 1:15:00 AM 18.85 65.93 0.111 6.87 25.6 8.47
9/23/2021 1:30:00 AM 18.83 65.894 0.112 6.73 25.47 8.47
9/23/2021 1:45:00 AM 18.81 65.858 0.112 6.75 25.99 8.46
9/23/2021 2:00:00 AM 18.8 65.84 0.112 6.89 26.25 8.45
9/23/2021 2:15:00 AM 18.79 65.82201 0.111 6.89 26.37 8.43
9/23/2021 2:30:00 AM 18.78 65.804 0.111 6.85 26.44 8.39
9/23/2021 2:45:00 AM 18.77 65.786 0.112 6.81 26.17 8.32
9/23/2021 3:00:00 AM 18.75 65.75 0.111 6.89 26.05 8.36
9/23/2021 3:15:00 AM 18.75 65.75 0.111 6.84 25.24 8.35
9/23/2021 3:30:00 AM 18.74 65.732 0.111 6.9 25.31 8.34
9/23/2021 3:45:00 AM 18.74 65.732 0.111 6.8 25.41 8.35
9/23/2021 4:00:00 AM 18.73 65.714 0.111 6.81 25.48 8.3
9/23/2021 4:15:00 AM 18.73 65.714 0.111 6.85 25.6 8.3
9/23/2021 4:30:00 AM 18.72 65.696 0.111 6.83 25.86 8.27
9/23/2021 4:45:00 AM 18.7 65.66 0.111 6.88 25.74 8.28
9/23/2021 5:00:00 AM 18.69 65.642 0.111 6.87 25.89 8.28
9/23/2021 5:15:00 AM 18.68 65.624 0.112 6.87 25.39 8.31
9/23/2021 5:30:00 AM 18.67 65.606 0.111 6.88 25.63 8.28
9/23/2021 5:45:00 AM 18.66 65.588 0.112 6.87 26.16 8.29
9/23/2021 6:00:00 AM 18.64 65.552 0.112 6.88 25.91 8.28
9/23/2021 6:15:00 AM 18.63 65.534 0.112 6.89 25.86 8.26
9/23/2021 6:30:00 AM 18.6 65.48 0.112 6.82 26.3 8.32
9/23/2021 6:45:00 AM 18.58 65.444 0.112 6.79 26.41 8.3
9/23/2021 7:00:00 AM 18.56 65.408 0.112 6.71 24.61 8.32
9/23/2021 7:15:00 AM 18.54 65.372 0.112 6.96 24.89 8.34
9/23/2021 7:30:00 AM 18.53 65.354 0.112 6.95 21.32 8.39
9/23/2021 7:45:00 AM 18.55 65.39 0.112 6.8 20.98 8.51
9/23/2021 8:00:00 AM 18.55 65.39 0.112 7.02 20.99 8.6
9/23/2021 8:15:00 AM 18.56 65.408 0.112 7 21.93 8.75
9/23/2021 8:30:00 AM 18.58 65.444 0.112 7.04 22.17 8.88
9/23/2021 8:45:00 AM 18.59 65.462 0.113 6.99 22.6 8.93
9/23/2021 9:00:00 AM 18.6 65.48 0.113 7.07 22.51 9.08
9/23/2021 9:15:00 AM 18.6 65.48 0.113 7.06 22.7 9.03
9/23/2021 9:30:00 AM 18.59 65.462 0.113 7.06 22.91 9.02
9/23/2021 9:45:00 AM 18.59 65.462 0.113 6.85 22.99 9.03
9/23/2021 10:00:00 AM 18.6 65.48 0.112 6.94 22.68 9.14
9/23/2021 10:15:00 AM 18.63 65.534 0.113 6.9 22.85 9.27
9/23/2021 10:30:00 AM 18.64 65.552 0.112 7.05 21.26 9.43
9/23/2021 10:45:00 AM 18.65 65.57 0.112 7.1 22.98 9.41
9/23/2021 11:00:00 AM 18.64 65.552 0.112 6.99 22.88 9.36
9/23/2021 11:15:00 AM 18.64 65.552 0.112 7.02 23.29 9.36
9/23/2021 11:30:00 AM 18.63 65.534 0.112 7.01 24.46 9.34
9/23/2021 11:45:00 AM 18.62 65.516 0.111 7.04 27.47 9.25
9/23/2021 12:00:00 PM 18.61 65.498 0.111 7.05 81.24 9.16
9/23/2021 12:15:00 PM 18.57 65.426 0.11 7.1 95.79 9.29
9/23/2021 12:30:00 PM 18.52 65.336 0.109 6.97 115.73 9.32
9/23/2021 12:45:00 PM 18.57 65.426 0.123 7.05 65.3 9.21
9/23/2021 1:00:00 PM 18.54 65.372 0.119 7.09 146.09 9.19
9/23/2021 1:15:00 PM 18.41 65.138 0.117 7.1 160.65 9.2
9/23/2021 1:30:00 PM 18.15 64.67 0.113 6.98 177.76 9.38
9/23/2021 1:45:00 PM 18.05 64.49 0.097 7.09 239.46 9.44
9/23/2021 2:00:00 PM 18.03 64.454 0.086 7 163.77 9.52
9/23/2021 2:15:00 PM 17.99 64.382 0.08 6.88 139.57 9.46
9/23/2021 2:30:00 PM 17.94 64.292 0.076 6.79 176.91 9.46
9/23/2021 2:45:00 PM 17.93 64.274 0.073 6.92 173.44 9.46
9/23/2021 3:00:00 PM 17.91 64.238 0.07 6.87 180.66 9.41
9/23/2021 3:15:00 PM 17.89 64.202 0.068 6.75 222.74 9.33
9/23/2021 3:30:00 PM 17.88 64.184 0.065 6.78 262.88 9.3
9/23/2021 3:45:00 PM 17.86 64.148 0.061 6.73 224.49 9.28
9/23/2021 4:00:00 PM 17.85 64.13 0.059 6.74 250.57 9.26
9/23/2021 4:15:00 PM 17.85 64.13 0.058 6.74 311.59 9.27
9/23/2021 4:30:00 PM 17.84 64.112 0.057 6.72 202.69 9.28
9/23/2021 4:45:00 PM 17.84 64.112 0.057 6.71 187.31 9.27
9/23/2021 5:00:00 PM 17.85 64.13 0.059 6.76 162.34 9.27
9/23/2021 5:15:00 PM 17.85 64.13 0.058 6.7 153.5 9.26
9/23/2021 5:30:00 PM 17.85 64.13 0.057 6.6 140.22 9.24
9/23/2021 5:45:00 PM 17.85 64.13 0.058 6.69 176.92 9.22
9/23/2021 6:00:00 PM 17.84 64.112 0.059 6.65 119.64 9.2
9/23/2021 6:15:00 PM 17.83 64.094 0.06 6.7 160.9 9.19
9/23/2021 6:30:00 PM 17.83 64.094 0.059 6.69 131.09 9.18
9/23/2021 6:45:00 PM 17.82 64.076 0.061 6.68 106 9.18
9/23/2021 7:00:00 PM 17.8 64.04 0.068 6.69 95.26 9.19
9/23/2021 7:15:00 PM 17.79 64.022 0.067 6.66 102.43 9.19
9/23/2021 7:30:00 PM 17.76 63.968 0.065 6.71 199.46 9.19
9/23/2021 7:45:00 PM 17.74 63.932 0.064 6.69 731.05 9.2
9/23/2021 8:00:00 PM 17.72 63.896 0.064 6.74 131.29 9.21
9/23/2021 8:15:00 PM 17.7 63.86 0.064 6.68 163.25 9.21
9/23/2021 8:30:00 PM 17.67 63.806 0.064 6.69 126.69 9.22
9/23/2021 8:45:00 PM 17.64 63.752 0.065 6.68 161.01 9.22
9/23/2021 9:00:00 PM 17.61 63.698 0.065 6.68 93.56 9.23
9/23/2021 9:15:00 PM 17.57 63.626 0.065 6.7 65.81 9.23
9/23/2021 9:30:00 PM 17.54 63.572 0.065 6.68 61.17 9.24
9/23/2021 9:45:00 PM 17.5 63.5 0.065 6.68 62.53 9.25
9/23/2021 10:00:00 PM 17.47 63.446 0.065 6.69 168.28 9.24
9/23/2021 10:15:00 PM 17.43 63.374 0.065 6.69 109.23 9.27
9/23/2021 10:30:00 PM 17.38 63.284 0.065 6.68 91.46 9.28
9/23/2021 10:45:00 PM 17.33 63.194 0.066 6.71 88.41 9.28
9/23/2021 11:00:00 PM 17.27 63.086 0.065 6.65 79.57 9.3
9/23/2021 11:15:00 PM 17.22 62.996 0.065 6.72 105.37 9.3
9/23/2021 11:30:00 PM 17.15 62.87 0.065 6.76 80.26 9.31
9/23/2021 11:45:00 PM 17.09 62.762 0.066 6.7 78.22 9.32
9/24/2021 12:00:00 AM 17.02 62.636 0.067 6.78 89.43 9.34
9/24/2021 12:15:00 AM 16.96 62.528 0.066 6.79 190.72 9.35
9/24/2021 12:30:00 AM 16.89 62.402 0.068 6.75 65.3 9.35
9/24/2021 12:45:00 AM 16.81 62.258 0.066 6.8 58.75 9.38
9/24/2021 1:00:00 AM 16.74 62.132 0.067 6.82 49.08 9.4
9/24/2021 1:15:00 AM 16.67 62.006 0.068 6.8 84.59 9.4
9/24/2021 1:30:00 AM 16.6 61.88 0.067 6.72 56.5 9.42
9/24/2021 1:45:00 AM 16.53 61.754 0.066 6.75 87.34 9.43
9/24/2021 2:00:00 AM 16.46 61.628 0.068 6.75 74.95 9.44
9/24/2021 2:15:00 AM 16.39 61.502 0.068 6.74 96.31 9.45
9/24/2021 2:30:00 AM 16.32 61.376 0.068 6.75 60.28 9.47
9/24/2021 2:45:00 AM 16.25 61.25 0.068 6.75 58.46 9.48
9/24/2021 3:00:00 AM 16.18 61.124 0.069 6.74 74.4 9.49
9/24/2021 3:15:00 AM 16.11 60.998 0.068 6.76 51.23 9.52
9/24/2021 3:30:00 AM 16.04 60.872 0.068 6.77 46.97 9.53
9/24/2021 3:45:00 AM 15.97 60.746 0.07 6.79 41.47 9.54
9/24/2021 4:00:00 AM 15.9 60.62 0.069 6.78 46.22 9.57
9/24/2021 4:15:00 AM 15.83 60.494 0.069 6.76 36.23 9.58
9/24/2021 4:30:00 AM 15.76 60.368 0.069 6.75 32.22 9.59
9/24/2021 4:45:00 AM 15.69 60.242 0.07 6.73 33.25 9.61
9/24/2021 5:00:00 AM 15.62 60.116 0.07 6.8 33.21 9.63
9/24/2021 5:15:00 AM 15.55 59.99 0.07 6.79 37.7 9.65
9/24/2021 5:30:00 AM 15.48 59.864 0.07 6.74 41.94 9.67
9/24/2021 5:45:00 AM 15.41 59.738 0.07 6.76 34.32 9.68
9/24/2021 6:00:00 AM 15.34 59.612 0.07 6.76 47.43 9.69
9/24/2021 6:15:00 AM 15.28 59.504 0.07 6.64 37.56 9.71
9/24/2021 6:30:00 AM 15.21 59.378 0.07 6.81 43.24 9.72
9/24/2021 6:45:00 AM 15.15 59.27 0.07 6.82 37.77 9.73
9/24/2021 7:00:00 AM 15.09 59.162 0.07 6.79 39.97 9.75
9/24/2021 7:15:00 AM 15.03 59.054 0.07 6.84 44.87 9.77
9/24/2021 7:30:00 AM 14.97 58.946 0.07 6.73 32.11 9.79
9/24/2021 7:45:00 AM 14.92 58.856 0.07 6.83 33.38 9.81
9/24/2021 8:00:00 AM 14.87 58.766 0.071 6.77 40.19 9.83
9/24/2021 8:15:00 AM 14.83 58.694 0.07 6.83 35.02 9.85
9/24/2021 8:30:00 AM 14.8 58.64 0.07 6.83 34.43 9.87
9/24/2021 8:45:00 AM 14.76 58.568 0.071 6.82 30.34 9.9
9/24/2021 9:00:00 AM 14.75 58.55 0.071 6.79 38.98 9.92
9/24/2021 9:15:00 AM 14.74 58.532 0.071 6.77 39.66 9.95
9/24/2021 9:30:00 AM 14.76 58.568 0.071 6.84 54.56 9.98
9/24/2021 9:45:00 AM 14.79 58.622 0.071 6.83 33.72 10.01
9/24/2021 10:00:00 AM 14.82 58.676 0.071 6.76 38.45 10.03
9/24/2021 10:15:00 AM 14.88 58.784 0.071 6.85 43.07 10.06
9/24/2021 10:30:00 AM 14.94 58.892 0.071 6.81 40.11 10.09
9/24/2021 10:45:00 AM 15.03 59.054 0.071 6.81 39.43 10.13
9/24/2021 11:00:00 AM 15.11 59.198 0.071 6.82 32.71 10.14
9/24/2021 11:15:00 AM 15.23 59.414 0.071 6.87 32.68 10.18
9/24/2021 11:30:00 AM 15.28 59.504 0.071 6.85 29.66 10.21
9/24/2021 11:45:00 AM 15.39 59.702 0.071 6.87 24.77 10.24
9/24/2021 12:00:00 PM 15.41 59.738 0.071 6.85 27.51 10.23
9/24/2021 12:15:00 PM 15.44 59.792 0.071 6.85 26.24 10.24
9/24/2021 12:30:00 PM 15.47 59.846 0.07 6.82 25.01 10.27
9/24/2021 12:45:00 PM 15.56 60.008 0.07 6.91 31.42 10.28
9/24/2021 1:00:00 PM 15.75 60.35 0.07 6.88 30.55 10.29
9/24/2021 1:15:00 PM 15.9 60.62 0.07 6.93 33.05 10.29
9/24/2021 1:30:00 PM 15.98 60.764 0.07 6.93 32.37 10.28
9/24/2021 1:45:00 PM 16.01 60.818 0.07 6.85 23.64 10.27
9/24/2021 2:00:00 PM 16.04 60.872 0.07 6.88 25 10.26
9/24/2021 2:15:00 PM 16.09 60.962 0.07 6.83 25.15 10.25
9/24/2021 2:30:00 PM 16.26 61.268 0.07 6.9 26.88 10.27
9/24/2021 2:45:00 PM 16.33 61.394 0.07 6.87 25.68 10.23
9/24/2021 3:00:00 PM 16.44 61.592 0.07 6.96 25.68 10.23
9/24/2021 3:15:00 PM 16.51 61.718 0.07 6.96 28.72 10.21
9/24/2021 3:30:00 PM 16.64 61.952 0.071 6.91 32.38 10.22
9/24/2021 3:45:00 PM 16.71 62.078 0.071 6.86 22.5 10.18
9/24/2021 4:00:00 PM 16.76 62.168 0.071 6.9 23.23 10.15
9/24/2021 4:15:00 PM 16.83 62.294 0.071 6.89 29.49 10.13
9/24/2021 4:30:00 PM 16.9 62.42 0.071 6.94 24.34 10.09
9/24/2021 4:45:00 PM 16.96 62.528 0.071 6.87 22.44 10.05
9/24/2021 5:00:00 PM 16.98 62.564 0.071 6.9 25.35 9.98
9/24/2021 5:15:00 PM 16.98 62.564 0.071 6.87 22.08 9.93
9/24/2021 5:30:00 PM 16.97 62.546 0.071 6.95 21.3 9.89
9/24/2021 5:45:00 PM 16.96 62.528 0.071 6.93 22.35 9.85
9/24/2021 6:00:00 PM 16.93 62.474 0.071 6.94 21.41 9.82
9/24/2021 6:15:00 PM 16.89 62.402 0.071 6.93 23.1 9.78
9/24/2021 6:30:00 PM 16.83 62.294 0.071 6.87 20.03 9.76
9/24/2021 6:45:00 PM 16.76 62.168 0.072 6.92 23.64 9.72
9/24/2021 7:00:00 PM 16.7 62.06 0.071 6.91 22.1 9.69
9/24/2021 7:15:00 PM 16.64 61.952 0.072 6.9 23.8 9.67
9/24/2021 7:30:00 PM 16.59 61.862 0.072 6.87 23.39 9.65
9/24/2021 7:45:00 PM 16.53 61.754 0.072 6.88 21.73 9.63
9/24/2021 8:00:00 PM 16.46 61.628 0.072 6.81 21.97 9.62
9/24/2021 8:15:00 PM 16.39 61.502 0.072 6.86 19.01 9.62
9/24/2021 8:30:00 PM 16.32 61.376 0.072 6.71 23.63 9.61
9/24/2021 8:45:00 PM 16.24 61.232 0.072 6.89 24.32 9.61
9/24/2021 9:00:00 PM 16.16 61.088 0.072 6.73 23.03 9.61
9/24/2021 9:15:00 PM 16.08 60.944 0.072 6.82 22.5 9.6
9/24/2021 9:30:00 PM 16.01 60.818 0.072 6.85 24.4 9.6
9/24/2021 9:45:00 PM 15.93 60.674 0.072 6.86 24.83 9.61
9/24/2021 10:00:00 PM 15.87 60.566 0.072 6.88 21.8 9.61
9/24/2021 10:15:00 PM 15.8 60.44 0.072 6.83 23.8 9.62
9/24/2021 10:30:00 PM 15.73 60.314 0.073 6.86 24.42 9.62
9/24/2021 10:45:00 PM 15.66 60.188 0.073 6.63 20.97 9.64
9/24/2021 11:00:00 PM 15.59 60.062 0.073 6.85 21.29 9.65
9/24/2021 11:15:00 PM 15.52 59.936 0.073 6.84 20.8 9.66
9/24/2021 11:30:00 PM 15.46 59.828 0.073 6.86 20.86 9.68
9/24/2021 11:45:00 PM 15.39 59.702 0.073 6.68 21.19 9.68
9/25/2021 12:00:00 AM 15.32 59.576 0.073 6.84 20.99 9.69
9/25/2021 12:15:00 AM 15.26 59.468 0.073 6.71 20.35 9.71
9/25/2021 12:30:00 AM 15.19 59.342 0.073 6.85 23.21 9.72
9/25/2021 12:45:00 AM 15.13 59.234 0.073 6.66 20.59 9.73
9/25/2021 1:00:00 AM 15.07 59.126 0.073 6.85 20.07 9.75
9/25/2021 1:15:00 AM 15 59 0.073 6.85 22.96 9.77
9/25/2021 1:30:00 AM 14.94 58.892 0.073 6.83 21.03 9.79
9/25/2021 1:45:00 AM 14.89 58.802 0.073 6.75 20.51 9.79
9/25/2021 2:00:00 AM 14.83 58.694 0.073 6.83 21.63 9.81
9/25/2021 2:15:00 AM 14.77 58.586 0.073 6.82 20.31 9.82
9/25/2021 2:30:00 AM 14.71 58.478 0.073 6.72 22.63 9.84
9/25/2021 2:45:00 AM 14.66 58.388 0.073 6.81 23.5 9.85
9/25/2021 3:00:00 AM 14.6 58.28 0.073 6.83 22.48 9.86
9/25/2021 3:15:00 AM 14.55 58.19 0.073 6.84 24.26 9.87
9/25/2021 3:30:00 AM 14.49 58.082 0.073 6.57 21.38 9.88
9/25/2021 3:45:00 AM 14.44 57.992 0.074 6.83 21.95 9.9
9/25/2021 4:00:00 AM 14.39 57.902 0.074 6.84 21.47 9.91
9/25/2021 4:15:00 AM 14.34 57.812 0.074 6.86 21.62 9.93
9/25/2021 4:30:00 AM 14.29 57.722 0.074 6.78 21.84 9.94
9/25/2021 4:45:00 AM 14.24 57.632 0.074 6.83 21.82 9.95
9/25/2021 5:00:00 AM 14.18 57.524 0.074 6.81 21.44 9.97
9/25/2021 5:15:00 AM 14.13 57.434 0.074 6.75 22.71 9.98
9/25/2021 5:30:00 AM 14.08 57.344 0.074 6.82 21.85 9.99
9/25/2021 5:45:00 AM 14.03 57.254 0.074 6.79 21.37 10
9/25/2021 6:00:00 AM 13.99 57.182 0.074 6.83 20.98 10.01
9/25/2021 6:15:00 AM 13.94 57.092 0.074 6.73 21.02 10.02
9/25/2021 6:30:00 AM 13.9 57.02 0.074 6.81 22.62 10.03
9/25/2021 6:45:00 AM 13.86 56.948 0.074 6.8 20.15 10.04
9/25/2021 7:00:00 AM 13.82 56.876 0.074 6.82 20.05 10.05
9/25/2021 7:15:00 AM 13.78 56.804 0.074 6.57 18.98 10.07
9/25/2021 7:30:00 AM 13.75 56.75 0.074 6.83 19.54 10.1
9/25/2021 7:45:00 AM 13.72 56.696 0.074 6.61 16.81 10.12
9/25/2021 8:00:00 AM 13.69 56.642 0.074 6.78 18.77 10.15
9/25/2021 8:15:00 AM 13.67 56.606 0.074 6.79 18.8 10.18
9/25/2021 8:30:00 AM 13.67 56.606 0.074 6.83 20.38 10.22
9/25/2021 8:45:00 AM 13.68 56.624 0.074 6.82 21.07 10.27
9/25/2021 9:00:00 AM 13.71 56.678 0.074 6.81 19.52 10.32
9/25/2021 9:15:00 AM 13.73 56.714 0.074 6.86 22.37 10.36
9/25/2021 9:30:00 AM 13.77 56.786 0.074 6.77 19.54 10.39
9/25/2021 9:45:00 AM 13.81 56.858 0.074 6.88 18.76 10.41
9/25/2021 10:00:00 AM 13.88 56.984 0.074 6.87 19.05 10.46
9/25/2021 10:15:00 AM 13.94 57.092 0.074 6.82 21.7 10.47
9/25/2021 10:30:00 AM 14.03 57.254 0.074 6.87 17.19 10.52
9/25/2021 10:45:00 AM 14.14 57.452 0.074 6.9 17.18 10.55
9/25/2021 11:00:00 AM 14.26 57.668 0.074 6.93 16.76 10.58
9/25/2021 11:15:00 AM 14.41 57.938 0.074 6.89 17.07 10.6
9/25/2021 11:30:00 AM 14.58 58.244 0.074 6.89 16.23 10.63
9/25/2021 11:45:00 AM 14.75 58.55 0.074 6.76 15.86 10.67
9/25/2021 12:00:00 PM 14.94 58.892 0.074 6.94 15.75 10.69
9/25/2021 12:15:00 PM 15.12 59.216 0.074 6.96 15.89 10.7
9/25/2021 12:30:00 PM 15.29 59.522 0.074 6.96 16.64 10.71
9/25/2021 12:45:00 PM 15.46 59.828 0.074 6.87 18 10.73
9/25/2021 1:00:00 PM 15.62 60.116 0.074 6.97 17.97 10.73
9/25/2021 1:15:00 PM 15.77 60.386 0.074 6.96 17.57 10.72
9/25/2021 1:30:00 PM 15.92 60.656 0.074 6.9 15.99 10.73
9/25/2021 1:45:00 PM 16.05 60.89 0.074 6.9 16.79 10.73
9/25/2021 2:00:00 PM 16.18 61.124 0.074 7 18.12 10.72
9/25/2021 2:15:00 PM 16.31 61.358 0.074 6.96 16.22 10.7
9/25/2021 2:30:00 PM 16.42 61.556 0.074 7 17.52 10.69
9/25/2021 2:45:00 PM 16.52 61.736 0.074 6.8 18.32 10.67
9/25/2021 3:00:00 PM 16.59 61.862 0.075 6.86 17.6 10.64
9/25/2021 3:15:00 PM 16.68 62.024 0.075 6.94 16.24 10.62
9/25/2021 3:30:00 PM 16.75 62.15 0.075 7 18.24 10.57
9/25/2021 3:45:00 PM 16.78 62.204 0.075 6.72 17.4 10.52
9/25/2021 4:00:00 PM 16.82 62.276 0.075 6.97 16.72 10.48
9/25/2021 4:15:00 PM 16.87 62.366 0.075 7.02 18.03 10.44
9/25/2021 4:30:00 PM 16.91 62.438 0.075 6.98 16.8 10.38
9/25/2021 4:45:00 PM 16.96 62.528 0.075 6.95 16.03 10.32
9/25/2021 5:00:00 PM 17.01 62.618 0.075 6.81 18.58 10.25
9/25/2021 5:15:00 PM 17.06 62.708 0.075 6.97 16.1 10.21
9/25/2021 5:30:00 PM 17.1 62.78 0.075 6.7 16.75 10.15
9/25/2021 5:45:00 PM 17.13 62.834 0.075 6.98 17.3 10.08
9/25/2021 6:00:00 PM 17.16 62.888 0.075 6.88 16.48 10.02
9/25/2021 6:15:00 PM 17.18 62.924 0.075 6.96 17.5 9.97
9/25/2021 6:30:00 PM 17.18 62.924 0.075 6.77 18.32 9.9
9/25/2021 6:45:00 PM 17.17 62.906 0.075 6.83 17.2 9.83
9/25/2021 7:00:00 PM 17.15 62.87 0.075 6.77 17.19 9.77
9/25/2021 7:15:00 PM 17.12 62.816 0.075 6.94 23 9.71
9/25/2021 7:30:00 PM 17.07 62.726 0.075 6.91 23.1 9.68
9/25/2021 7:45:00 PM 17.03 62.654 0.075 6.67 22.98 9.64
9/25/2021 8:00:00 PM 16.97 62.546 0.075 6.72 22.81 9.62
9/25/2021 8:15:00 PM 16.91 62.438 0.075 6.89 23.06 9.6
9/25/2021 8:30:00 PM 16.85 62.33 0.075 6.81 24.1 9.58
9/25/2021 8:45:00 PM 16.78 62.204 0.076 6.72 23.82 9.55
9/25/2021 9:00:00 PM 16.7 62.06 0.076 6.76 23.33 9.53
9/25/2021 9:15:00 PM 16.62 61.916 0.076 6.83 23.61 9.52
9/25/2021 9:30:00 PM 16.54 61.772 0.076 6.6 23.7 9.5
9/25/2021 9:45:00 PM 16.47 61.646 0.076 6.81 23.27 9.49
9/25/2021 10:00:00 PM 16.4 61.52 0.076 6.74 23.66 9.49
9/25/2021 10:15:00 PM 16.33 61.394 0.076 6.7 23.53 9.49
9/25/2021 10:30:00 PM 16.27 61.286 0.076 6.58 23.33 9.49
9/25/2021 10:45:00 PM 16.21 61.178 0.076 6.81 23.35 9.49
9/25/2021 11:00:00 PM 16.15 61.07 0.076 6.56 23.44 9.5
9/25/2021 11:15:00 PM 16.1 60.98 0.076 6.56 24.23 9.5
9/25/2021 11:30:00 PM 16.04 60.872 0.076 6.69 23.77 9.5
9/25/2021 11:45:00 PM 15.99 60.782 0.076 6.86 23.91 9.51
9/26/2021 12:00:00 AM 15.94 60.692 0.076 6.65 23.47 9.51
9/26/2021 12:15:00 AM 15.89 60.602 0.076 6.68 24.73 9.52
9/26/2021 12:30:00 AM 15.83 60.494 0.077 6.83 23.57 9.52
9/26/2021 12:45:00 AM 15.78 60.404 0.077 6.85 23.52 9.53
9/26/2021 1:00:00 AM 15.74 60.332 0.077 6.85 23.36 9.54
9/26/2021 1:15:00 AM 15.69 60.242 0.077 6.69 22.71 9.55
9/26/2021 1:30:00 AM 15.65 60.17 0.077 6.72 22.57 9.56
9/26/2021 1:45:00 AM 15.59 60.062 0.077 6.82 23.28 9.58
9/26/2021 2:00:00 AM 15.55 59.99 0.077 6.81 22.35 9.59
9/26/2021 2:15:00 AM 15.5 59.9 0.077 6.53 22.13 9.6
9/26/2021 2:30:00 AM 15.46 59.828 0.077 6.88 20.55 9.61
9/26/2021 2:45:00 AM 15.42 59.756 0.077 6.64 21.29 9.62
9/26/2021 3:00:00 AM 15.39 59.702 0.077 6.62 22.03 9.62
9/26/2021 3:15:00 AM 15.35 59.63 0.077 6.69 21.51 9.64
9/26/2021 3:30:00 AM 15.32 59.576 0.077 6.55 20.87 9.64
9/26/2021 3:45:00 AM 15.29 59.522 0.077 6.87 21.26 9.65
9/26/2021 4:00:00 AM 15.25 59.45 0.077 6.71 20.27 9.65
9/26/2021 4:15:00 AM 15.22 59.396 0.077 6.75 20.93 9.66
9/26/2021 4:30:00 AM 15.18 59.324 0.077 6.65 21.16 9.66
9/26/2021 4:45:00 AM 15.14 59.252 0.077 6.69 20.7 9.67
9/26/2021 5:00:00 AM 15.09 59.162 0.077 6.64 20.91 9.68
9/26/2021 5:15:00 AM 15.05 59.09 0.077 6.64 20.61 9.68
9/26/2021 5:30:00 AM 15 59 0.077 6.72 20.51 9.7
9/26/2021 5:45:00 AM 14.96 58.928 0.077 6.83 21.2 9.7
9/26/2021 6:00:00 AM 14.91 58.838 0.077 6.71 20.84 9.71
9/26/2021 6:15:00 AM 14.87 58.766 0.077 6.72 21.01 9.72
9/26/2021 6:30:00 AM 14.84 58.712 0.077 6.65 17.08 9.74
9/26/2021 6:45:00 AM 14.81 58.658 0.077 6.62 42.88 9.74
9/26/2021 7:00:00 AM 14.78 58.604 0.077 6.79 13.72 9.76
9/26/2021 7:15:00 AM 14.74 58.532 0.077 6.69 15.47 9.78
9/26/2021 7:30:00 AM 14.71 58.478 0.077 6.73 15.26 9.8
9/26/2021 7:45:00 AM 14.68 58.424 0.077 6.83 15.44 9.84
9/26/2021 8:00:00 AM 14.65 58.37 0.077 6.71 14.57 9.87
9/26/2021 8:15:00 AM 14.62 58.316 0.077 6.71 14.52 9.9
9/26/2021 8:30:00 AM 14.59 58.262 0.077 6.82 14.05 9.93
9/26/2021 8:45:00 AM 14.57 58.226 0.078 6.83 14.64 9.97
9/26/2021 9:00:00 AM 14.56 58.208 0.078 6.88 15.3 10.01
9/26/2021 9:15:00 AM 14.56 58.208 0.077 6.76 17.05 10.05
9/26/2021 9:30:00 AM 14.58 58.244 0.077 6.69 17.4 10.1
9/26/2021 9:45:00 AM 14.6 58.28 0.078 6.69 17.29 10.15
9/26/2021 10:00:00 AM 14.63 58.334 0.077 6.93 17.24 10.2
9/26/2021 10:15:00 AM 14.69 58.442 0.077 6.9 17.14 10.25
9/26/2021 10:30:00 AM 14.75 58.55 0.078 6.83 17.12 10.31
9/26/2021 10:45:00 AM 14.83 58.694 0.078 6.9 16.89 10.38
9/26/2021 11:00:00 AM 14.91 58.838 0.078 6.87 16.94 10.43
9/26/2021 11:15:00 AM 15 59 0.078 6.84 16.68 10.46
9/26/2021 11:30:00 AM 15.09 59.162 0.077 6.84 16.99 10.5
9/26/2021 11:45:00 AM 15.23 59.414 0.078 6.83 16.84 10.58
9/26/2021 12:00:00 PM 15.38 59.684 0.078 6.8 16.91 10.65
9/26/2021 12:15:00 PM 15.54 59.972 0.078 6.97 16.81 10.68
9/26/2021 12:30:00 PM 15.68 60.224 0.078 6.86 16.74 10.7
9/26/2021 12:45:00 PM 15.71 60.278 0.078 6.97 17.92 10.7
9/26/2021 1:00:00 PM 15.86 60.548 0.077 6.89 16.98 10.75
9/26/2021 1:15:00 PM 16.01 60.818 0.078 6.94 16.59 10.77
9/26/2021 1:30:00 PM 16.21 61.178 0.078 6.85 16.53 10.81
9/26/2021 1:45:00 PM 16.28 61.304 0.078 6.96 16.61 10.79
9/26/2021 2:00:00 PM 16.3 61.34 0.078 6.92 16.31 10.81
9/26/2021 2:15:00 PM 16.28 61.304 0.077 6.97 17.4 10.78
9/26/2021 2:30:00 PM 16.34 61.412 0.078 6.99 17.77 10.8
9/26/2021 2:45:00 PM 16.32 61.376 0.077 6.88 17.78 10.79
9/26/2021 3:00:00 PM 16.36 61.448 0.077 7.04 16.77 10.8
9/26/2021 3:15:00 PM 16.39 61.502 0.078 7.12 17.64 10.72
9/26/2021 3:30:00 PM 16.45 61.61 0.078 7 17.55 10.71
9/26/2021 3:45:00 PM 16.52 61.736 0.077 7.08 16.14 10.69
9/26/2021 4:00:00 PM 16.59 61.862 0.077 6.98 17.5 10.69
9/26/2021 4:15:00 PM 16.61 61.898 0.078 7.1 16.14 10.63
9/26/2021 4:30:00 PM 16.62 61.916 0.078 7.09 15.92 10.58
9/26/2021 4:45:00 PM 16.6 61.88 0.078 7.05 16.19 10.49
9/26/2021 5:00:00 PM 16.59 61.862 0.078 6.98 16.1 10.45
9/26/2021 5:15:00 PM 16.58 61.844 0.078 7.06 16.61 10.38
9/26/2021 5:30:00 PM 16.58 61.844 0.078 7.08 17.03 10.31
9/26/2021 5:45:00 PM 16.6 61.88 0.078 7.06 17.04 10.24
9/26/2021 6:00:00 PM 16.62 61.916 0.078 6.83 16.13 10.17
9/26/2021 6:15:00 PM 16.65 61.97 0.078 6.94 17.06 10.1
9/26/2021 6:30:00 PM 16.65 61.97 0.078 7.03 17.27 10.02
9/26/2021 6:45:00 PM 16.65 61.97 0.078 6.82 16.05 9.96
9/26/2021 7:00:00 PM 16.64 61.952 0.078 7.02 17.29 9.89
9/26/2021 7:15:00 PM 16.63 61.934 0.078 6.73 17.21 9.83
9/26/2021 7:30:00 PM 16.6 61.88 0.078 6.76 16.57 9.78
9/26/2021 7:45:00 PM 16.57 61.826 0.078 6.87 23.85 9.73
9/26/2021 8:00:00 PM 16.53 61.754 0.078 6.95 19.61 9.7
9/26/2021 8:15:00 PM 16.48 61.664 0.078 6.96 18.12 9.66
9/26/2021 8:30:00 PM 16.43 61.574 0.078 6.95 17.29 9.65
9/26/2021 8:45:00 PM 16.37 61.466 0.078 6.95 18.13 9.63
9/26/2021 9:00:00 PM 16.32 61.376 0.079 6.93 18.26 9.62
9/26/2021 9:15:00 PM 16.25 61.25 0.079 6.83 16.54 9.61
9/26/2021 9:30:00 PM 16.18 61.124 0.079 6.78 18.02 9.59
9/26/2021 9:45:00 PM 16.11 60.998 0.079 6.91 16.76 9.59
9/26/2021 10:00:00 PM 16.04 60.872 0.079 6.75 17.55 9.57
9/26/2021 10:15:00 PM 15.96 60.728 0.079 6.81 17.35 9.57
9/26/2021 10:30:00 PM 15.87 60.566 0.079 6.88 16.96 9.56
9/26/2021 10:45:00 PM 15.79 60.422 0.079 6.79 17.51 9.55
9/26/2021 11:00:00 PM 15.72 60.296 0.079 6.86 17.24 9.55
9/26/2021 11:15:00 PM 15.64 60.152 0.079 6.85 16.88 9.56
9/26/2021 11:30:00 PM 15.57 60.026 0.079 6.85 16.01 9.57
9/26/2021 11:45:00 PM 15.5 59.9 0.079 6.82 17.35 9.58
9/27/2021 12:00:00 AM 15.43 59.774 0.079 6.84 17.4 9.58
9/27/2021 12:15:00 AM 15.37 59.666 0.079 6.85 17.69 9.59
9/27/2021 12:30:00 AM 15.31 59.558 0.08 6.85 17.15 9.6
9/27/2021 12:45:00 AM 15.25 59.45 0.08 6.72 16.26 9.61
9/27/2021 1:00:00 AM 15.18 59.324 0.079 6.81 15.48 9.62
9/27/2021 1:15:00 AM 15.13 59.234 0.08 6.84 16.22 9.61
9/27/2021 1:30:00 AM 15.08 59.144 0.08 6.82 18.47 9.63
9/27/2021 1:45:00 AM 15.03 59.054 0.08 6.83 16.11 9.65
9/27/2021 2:00:00 AM 14.99 58.982 0.08 6.87 15.48 9.67
9/27/2021 2:15:00 AM 14.95 58.91 0.08 6.76 14.6 9.67
9/27/2021 2:30:00 AM 14.91 58.838 0.08 6.83 14.44 9.69
9/27/2021 2:45:00 AM 14.87 58.766 0.08 6.83 15.02 9.7
9/27/2021 3:00:00 AM 14.83 58.694 0.08 6.85 13.35 9.71
9/27/2021 3:15:00 AM 14.79 58.622 0.08 6.86 15.24 9.72
9/27/2021 3:30:00 AM 14.75 58.55 0.08 6.75 13.91 9.73
9/27/2021 3:45:00 AM 14.72 58.496 0.08 6.7 13.76 9.74
9/27/2021 4:00:00 AM 14.68 58.424 0.08 6.7 13.07 9.75
9/27/2021 4:15:00 AM 14.65 58.37 0.08 6.75 14.42 9.75
9/27/2021 4:30:00 AM 14.63 58.334 0.08 6.72 13.25 9.76
9/27/2021 4:45:00 AM 14.6 58.28 0.08 6.78 12.87 9.76
9/27/2021 5:00:00 AM 14.57 58.226 0.08 6.72 12.84 9.77
9/27/2021 5:15:00 AM 14.55 58.19 0.08 6.74 12.82 9.78
9/27/2021 5:30:00 AM 14.52 58.136 0.08 6.72 13 9.78
9/27/2021 5:45:00 AM 14.5 58.1 0.08 6.84 13.22 9.79
9/27/2021 6:00:00 AM 14.48 58.064 0.08 6.85 13.14 9.8
9/27/2021 6:15:00 AM 14.46 58.028 0.08 6.67 13.31 9.8
9/27/2021 6:30:00 AM 14.44 57.992 0.08 6.82 13.24 9.81
9/27/2021 6:45:00 AM 14.42 57.956 0.081 6.75 12.49 9.81
9/27/2021 7:00:00 AM 14.4 57.92 0.08 6.82 12.2 9.81
9/27/2021 7:15:00 AM 14.39 57.902 0.08 6.83 12.18 9.83
9/27/2021 7:30:00 AM 14.37 57.866 0.08 6.71 12.22 9.84
9/27/2021 7:45:00 AM 14.36 57.848 0.08 6.84 12.2 9.86
9/27/2021 8:00:00 AM 14.35 57.83 0.08 6.84 11.89 9.88
9/27/2021 8:15:00 AM 14.34 57.812 0.08 6.83 11.97 9.91
9/27/2021 8:30:00 AM 14.33 57.794 0.08 6.85 12.2 9.9
9/27/2021 8:45:00 AM 14.34 57.812 0.08 6.73 12.46 9.95
9/27/2021 9:00:00 AM 14.35 57.83 0.08 6.85 13.43 10.03
9/27/2021 9:15:00 AM 14.37 57.866 0.08 6.85 14.47 10.1
9/27/2021 9:30:00 AM 14.41 57.938 0.08 6.88 19.18 10.22
9/27/2021 9:45:00 AM 14.46 58.028 0.08 6.75 16.3 10.32
9/27/2021 10:00:00 AM 14.53 58.154 0.08 6.82 1.74 10.37
9/27/2021 10:15:00 AM 14.56 58.208 0.08 6.85 11.68 10.42
9/27/2021 10:30:00 AM 14.62 58.316 0.08 6.9 10.43 10.48
9/27/2021 10:45:00 AM 14.72 58.496 0.08 6.96 10.92 10.57
9/27/2021 11:00:00 AM 14.78 58.604 0.08 6.92 10.2 10.63
9/27/2021 11:15:00 AM 14.86 58.748 0.08 6.99 9.69 10.68
9/27/2021 11:30:00 AM 15.03 59.054 0.08 6.99 10.4 10.75
9/27/2021 11:45:00 AM 15.18 59.324 0.08 7.01 9.98 10.79
9/27/2021 12:00:00 PM 15.24 59.432 0.08 7.02 10.36 10.8
9/27/2021 12:15:00 PM 15.45 59.81 0.08 7.01 9.74 10.91
9/27/2021 12:30:00 PM 15.62 60.116 0.08 7.07 10.06 10.96
9/27/2021 12:45:00 PM 15.74 60.332 0.08 6.99 9.95 10.99
9/27/2021 1:00:00 PM 15.97 60.746 0.08 7.11 10.39 11.06
9/27/2021 1:15:00 PM 16.17 61.106 0.08 7.07 10.25 11.09
9/27/2021 1:30:00 PM 16.34 61.412 0.08 7.16 10.51 11.12
9/27/2021 1:45:00 PM 16.5 61.7 0.08 7.04 9.95 11.14
9/27/2021 2:00:00 PM 16.61 61.898 0.08 7.03 9.54 11.16
9/27/2021 2:15:00 PM 16.66 61.988 0.08 7.04 9.43 11.17
9/27/2021 2:30:00 PM 16.72 62.096 0.08 7.17 9.78 11.17
9/27/2021 2:45:00 PM 16.8 62.24 0.08 7.03 9.9 11.17
9/27/2021 3:00:00 PM 16.84 62.312 0.08 7.11 9.7 11.18
9/27/2021 3:15:00 PM 16.9 62.42 0.08 7.19 9.65 11.16
9/27/2021 3:30:00 PM 16.95 62.51 0.08 7.03 9.9 11.12
9/27/2021 3:45:00 PM 16.99 62.582 0.08 7.09 9.91 11.1
9/27/2021 4:00:00 PM 17.03 62.654 0.08 7.23 9.79 11.05
9/27/2021 4:15:00 PM 17.03 62.654 0.08 7.17 9.77 11.01
9/27/2021 4:30:00 PM 17.05 62.69 0.08 7.25 10.02 10.97
9/27/2021 4:45:00 PM 17.06 62.708 0.08 7.26 10.18 10.92
9/27/2021 5:00:00 PM 17.06 62.708 0.08 7.25 9.81 10.85
9/27/2021 5:15:00 PM 17.07 62.726 0.08 7.19 9.69 10.79
9/27/2021 5:30:00 PM 17.09 62.762 0.08 7.13 9.99 10.71
9/27/2021 5:45:00 PM 17.1 62.78 0.08 7.02 9.98 10.61
9/27/2021 6:00:00 PM 17.11 62.798 0.08 7.19 9.78 10.51
9/27/2021 6:15:00 PM 17.12 62.816 0.08 7.16 9.53 10.4
9/27/2021 6:30:00 PM 17.12 62.816 0.08 7.14 9.61 10.3
9/27/2021 6:45:00 PM 17.11 62.798 0.08 7.01 9.8 10.18
9/27/2021 7:00:00 PM 17.1 62.78 0.081 7.06 9.75 10.08
9/27/2021 7:15:00 PM 17.09 62.762 0.081 7.04 9.79 9.99
9/27/2021 7:30:00 PM 17.07 62.726 0.081 6.92 13.58 9.91
9/27/2021 7:45:00 PM 17.06 62.708 0.085 7.11 2721.53 9.81
9/27/2021 8:00:00 PM 17.06 62.708 0.081 6.87 11.48 9.79
9/27/2021 8:15:00 PM 17.05 62.69 0.081 6.86 11.13 9.74
9/27/2021 8:30:00 PM 17.04 62.672 0.081 6.97 11.54 9.69
9/27/2021 8:45:00 PM 17.03 62.654 0.081 6.89 11.33 9.64
9/27/2021 9:00:00 PM 17.03 62.654 0.081 6.92 11.55 9.59
9/27/2021 9:15:00 PM 17.01 62.618 0.081 6.95 11.59 9.55
9/27/2021 9:30:00 PM 17 62.6 0.081 6.85 11.23 9.5
9/27/2021 9:45:00 PM 16.98 62.564 0.081 6.84 11.56 9.47
9/27/2021 10:00:00 PM 16.95 62.51 0.081 6.92 11.51 9.42
9/27/2021 10:15:00 PM 16.93 62.474 0.081 6.93 10.86 9.39
9/27/2021 10:30:00 PM 16.89 62.402 0.082 6.9 11.7 9.37
9/27/2021 10:45:00 PM 16.84 62.312 0.082 6.89 11.56 9.35
9/27/2021 11:00:00 PM 16.79 62.222 0.082 6.95 11.13 9.33
9/27/2021 11:15:00 PM 16.73 62.114 0.082 6.92 13.25 9.31
9/27/2021 11:30:00 PM 16.68 62.024 0.082 6.8 11.74 9.31
9/27/2021 11:45:00 PM 16.63 61.934 0.082 6.91 12.59 9.3
9/28/2021 12:00:00 AM 16.58 61.844 0.082 6.72 12.44 9.29
9/28/2021 12:15:00 AM 16.55 61.79 0.082 6.94 11.71 9.29
9/28/2021 12:30:00 AM 16.5 61.7 0.082 6.91 12.04 9.28
9/28/2021 12:45:00 AM 16.47 61.646 0.082 6.87 11.79 9.28
9/28/2021 1:00:00 AM 16.44 61.592 0.082 6.73 11.71 9.28
9/28/2021 1:15:00 AM 16.41 61.538 0.082 6.92 12.1 9.28
9/28/2021 1:30:00 AM 16.38 61.484 0.082 6.85 11.79 9.28
9/28/2021 1:45:00 AM 16.34 61.412 0.083 6.86 12.17 9.29
9/28/2021 2:00:00 AM 16.3 61.34 0.083 6.86 11.68 9.29
9/28/2021 2:15:00 AM 16.26 61.268 0.083 6.81 11.79 9.29
9/28/2021 2:30:00 AM 16.21 61.178 0.083 6.86 11.84 9.3
9/28/2021 2:45:00 AM 16.17 61.106 0.083 6.86 11.62 9.31
9/28/2021 3:00:00 AM 16.14 61.052 0.083 6.82 11.87 9.31
9/28/2021 3:15:00 AM 16.1 60.98 0.083 6.85 11.64 9.32
9/28/2021 3:30:00 AM 16.07 60.926 0.083 6.85 11.52 9.33
9/28/2021 3:45:00 AM 16.04 60.872 0.083 6.86 12.47 9.33
9/28/2021 4:00:00 AM 16.01 60.818 0.083 6.79 12.6 9.33
9/28/2021 4:15:00 AM 15.98 60.764 0.083 6.79 11.3 9.33
9/28/2021 4:30:00 AM 15.95 60.71 0.083 6.86 12.07 9.34
9/28/2021 4:45:00 AM 15.92 60.656 0.083 6.81 12.34 9.35
9/28/2021 5:00:00 AM 15.89 60.602 0.083 6.76 9.66 9.35
9/28/2021 5:15:00 AM 15.85 60.53 0.083 6.75 13.75 9.35
9/28/2021 5:30:00 AM 15.8 60.44 0.083 6.86 13.34 9.35
9/28/2021 5:45:00 AM 15.76 60.368 0.083 6.81 13.44 9.36
9/28/2021 6:00:00 AM 15.73 60.314 0.083 6.78 12.43 9.37
9/28/2021 6:15:00 AM 15.69 60.242 0.083 6.85 13.3 9.38
9/28/2021 6:30:00 AM 15.65 60.17 0.083 6.88 13.1 9.39
9/28/2021 6:45:00 AM 15.63 60.134 0.083 6.7 12.64 9.4
9/28/2021 7:00:00 AM 15.61 60.098 0.083 6.85 13.12 9.41
9/28/2021 7:15:00 AM 15.59 60.062 0.083 6.77 13.7 9.43
9/28/2021 7:30:00 AM 15.58 60.044 0.083 6.73 13.62 9.47
9/28/2021 7:45:00 AM 15.57 60.026 0.083 6.86 12.86 9.51
9/28/2021 8:00:00 AM 15.57 60.026 0.083 6.88 12.37 9.53
9/28/2021 8:15:00 AM 15.57 60.026 0.083 6.79 12.96 9.58
9/28/2021 8:30:00 AM 15.56 60.008 0.083 6.87 13.3 9.61
9/28/2021 8:45:00 AM 15.56 60.008 0.083 6.73 13.19 9.63
9/28/2021 9:00:00 AM 15.55 59.99 0.083 6.88 13.01 9.64
9/28/2021 9:15:00 AM 15.54 59.972 0.083 6.88 12.89 9.66
9/28/2021 9:30:00 AM 15.54 59.972 0.083 6.77 12.71 9.66
9/28/2021 9:45:00 AM 15.52 59.936 0.083 6.82 12.37 9.65
9/28/2021 10:00:00 AM 15.52 59.936 0.083 6.86 12.46 9.66
9/28/2021 10:15:00 AM 15.51 59.918 0.083 6.87 12.49 9.66
9/28/2021 10:30:00 AM 15.5 59.9 0.084 6.86 12.05 9.63
9/28/2021 10:45:00 AM 15.5 59.9 0.084 6.9 12.91 9.64
9/28/2021 11:00:00 AM 15.5 59.9 0.084 6.74 12.6 9.66
9/28/2021 11:15:00 AM 15.5 59.9 0.084 6.8 12.52 9.68
9/28/2021 11:30:00 AM 15.5 59.9 0.083 6.75 12.88 9.73
9/28/2021 11:45:00 AM 15.51 59.918 0.083 6.87 13.14 9.79
9/28/2021 12:00:00 PM 15.54 59.972 0.083 6.8 12.44 9.92
9/28/2021 12:15:00 PM 15.59 60.062 0.083 6.88 12.42 10.11
9/28/2021 12:30:00 PM 15.62 60.116 0.083 6.89 12.4 10.2
9/28/2021 12:45:00 PM 15.69 60.242 0.083 6.9 13.16 10.35
9/28/2021 1:00:00 PM 15.79 60.422 0.083 6.97 12.78 10.49
9/28/2021 1:15:00 PM 15.84 60.512 0.083 6.96 12.83 10.53
9/28/2021 1:30:00 PM 15.9 60.62 0.083 6.91 12.79 10.58
9/28/2021 1:45:00 PM 15.97 60.746 0.083 7.03 12.05 10.66
9/28/2021 2:00:00 PM 16 60.8 0.083 6.93 11.07 10.62
9/28/2021 2:15:00 PM 16 60.8 0.083 7.04 10.54 10.57
9/28/2021 2:30:00 PM 15.99 60.782 0.083 7.09 10.37 10.52
9/28/2021 2:45:00 PM 15.97 60.746 0.083 7 10.81 10.5
9/28/2021 3:00:00 PM 16.01 60.818 0.083 7.01 10.73 10.64
9/28/2021 3:15:00 PM 16.05 60.89 0.083 7.09 10.68 10.72
9/28/2021 3:30:00 PM 16.06 60.908 0.082 7.15 11.02 10.79
9/28/2021 3:45:00 PM 16.14 61.052 0.082 7.04 10.48 10.88
9/28/2021 4:00:00 PM 16.2 61.16 0.082 7.14 11.25 10.88
9/28/2021 4:15:00 PM 16.25 61.25 0.082 7.15 10.71 10.93
9/28/2021 4:30:00 PM 16.27 61.286 0.082 7.07 9.87 10.92
9/28/2021 4:45:00 PM 16.24 61.232 0.082 7.2 10.82 10.86
9/28/2021 5:00:00 PM 16.24 61.232 0.082 7.05 10.36 10.86
9/28/2021 5:15:00 PM 16.19 61.142 0.081 7.16 9.97 10.75
9/28/2021 5:30:00 PM 16.11 60.998 0.081 7.1 10.21 10.65
9/28/2021 5:45:00 PM 16.08 60.944 0.082 7.04 10 10.61
9/28/2021 6:00:00 PM 16.04 60.872 0.081 7.13 10.17 10.54
9/28/2021 6:15:00 PM 16 60.8 0.082 7.06 10.58 10.45
9/28/2021 6:30:00 PM 15.97 60.746 0.081 6.98 10.72 10.39
9/28/2021 6:45:00 PM 15.95 60.71 0.081 7.11 11.91 10.33
9/28/2021 7:00:00 PM 15.92 60.656 0.081 7.09 10.07 10.26
9/28/2021 7:15:00 PM 15.88 60.584 0.081 6.98 10.28 10.18
9/28/2021 7:30:00 PM 15.84 60.512 0.081 6.97 10.38 10.13
9/28/2021 7:45:00 PM 15.81 60.458 0.081 7.07 11.83 10.09
9/28/2021 8:00:00 PM 15.77 60.386 0.081 6.89 10.93 10.04
9/28/2021 8:15:00 PM 15.73 60.314 0.081 7.03 11.32 10
9/28/2021 8:30:00 PM 15.71 60.278 0.081 6.95 10.83 9.95
9/28/2021 8:45:00 PM 15.68 60.224 0.081 7 10.98 9.92
9/28/2021 9:00:00 PM 15.66 60.188 0.081 7.03 10.47 9.88
9/28/2021 9:15:00 PM 15.62 60.116 0.081 6.89 10.65 9.85
9/28/2021 9:30:00 PM 15.59 60.062 0.081 6.99 10.49 9.81
9/28/2021 9:45:00 PM 15.55 59.99 0.081 7 10.14 9.78
9/28/2021 10:00:00 PM 15.5 59.9 0.081 6.97 10.33 9.76
9/28/2021 10:15:00 PM 15.45 59.81 0.081 6.94 13.52 9.75
9/28/2021 10:30:00 PM 15.39 59.702 0.081 6.95 11.38 9.73
9/28/2021 10:45:00 PM 15.33 59.594 0.082 6.89 10.44 9.71
9/28/2021 11:00:00 PM 15.28 59.504 0.081 6.87 11.91 9.7
9/28/2021 11:15:00 PM 15.22 59.396 0.082 6.91 10.87 9.69
9/28/2021 11:30:00 PM 15.16 59.288 0.082 6.92 10.96 9.69
9/28/2021 11:45:00 PM 15.1 59.18 0.082 6.81 11.42 9.68
9/29/2021 12:00:00 AM 15.04 59.072 0.082 6.98 80.03 9.68
9/29/2021 12:15:00 AM 14.98 58.964 0.082 6.81 10.82 9.69
9/29/2021 12:30:00 AM 14.93 58.874 0.082 6.91 10.62 9.69
9/29/2021 12:45:00 AM 14.86 58.748 0.082 6.8 11.16 9.7
9/29/2021 1:00:00 AM 14.8 58.64 0.082 6.87 10.77 9.7
9/29/2021 1:15:00 AM 14.74 58.532 0.082 6.89 10.68 9.71
9/29/2021 1:30:00 AM 14.68 58.424 0.082 6.83 10.73 9.72
9/29/2021 1:45:00 AM 14.61 58.298 0.082 6.83 16.19 9.72
9/29/2021 2:00:00 AM 14.55 58.19 0.082 6.86 10.91 9.73
9/29/2021 2:15:00 AM 14.48 58.064 0.082 6.86 10.22 9.74
9/29/2021 2:30:00 AM 14.41 57.938 0.082 6.83 10.11 9.75
9/29/2021 2:45:00 AM 14.35 57.83 0.082 6.76 10.18 9.75
9/29/2021 3:00:00 AM 14.28 57.704 0.082 6.89 10.75 9.77
9/29/2021 3:15:00 AM 14.22 57.596 0.082 6.88 11.66 9.79
9/29/2021 3:30:00 AM 14.17 57.506 0.083 6.85 10.73 9.8
9/29/2021 3:45:00 AM 14.11 57.398 0.083 6.77 11.56 9.81
9/29/2021 4:00:00 AM 14.06 57.308 0.083 6.82 11.65 9.82
9/29/2021 4:15:00 AM 14.02 57.236 0.083 6.85 12.06 9.83
9/29/2021 4:30:00 AM 13.98 57.164 0.083 6.87 13.53 9.84
9/29/2021 4:45:00 AM 13.94 57.092 0.083 6.8 18.64 9.85
9/29/2021 5:00:00 AM 13.89 57.002 0.083 6.8 12.55 9.85
9/29/2021 5:15:00 AM 13.85 56.93 0.083 6.76 12.35 9.88
9/29/2021 5:30:00 AM 13.79 56.822 0.083 6.75 11.3 9.89
9/29/2021 5:45:00 AM 13.73 56.714 0.083 6.86 11.85 9.9
9/29/2021 6:00:00 AM 13.67 56.606 0.083 6.87 10.93 9.92
9/29/2021 6:15:00 AM 13.61 56.498 0.083 6.75 11.81 9.93
9/29/2021 6:30:00 AM 13.54 56.372 0.083 6.83 12.83 9.95
9/29/2021 6:45:00 AM 13.47 56.246 0.083 6.85 11.71 9.97
9/29/2021 7:00:00 AM 13.42 56.156 0.083 6.9 11.21 9.99
9/29/2021 7:15:00 AM 13.36 56.048 0.083 6.72 10.47 10.02
9/29/2021 7:30:00 AM 13.32 55.976 0.083 6.77 10.5 10.05
9/29/2021 7:45:00 AM 13.28 55.904 0.083 6.77 10.55 10.11
9/29/2021 8:00:00 AM 13.26 55.868 0.083 6.87 10.34 10.19
9/29/2021 8:15:00 AM 13.23 55.814 0.083 6.76 10.41 10.21
9/29/2021 8:30:00 AM 13.21 55.778 0.083 6.9 10.31 10.27
9/29/2021 8:45:00 AM 13.22 55.796 0.083 6.88 9.91 10.36
9/29/2021 9:00:00 AM 13.22 55.796 0.083 6.73 10.89 10.44
9/29/2021 9:15:00 AM 13.22 55.796 0.083 6.88 10.75 10.51
9/29/2021 9:30:00 AM 13.26 55.868 0.083 6.82 11.48 10.61
9/29/2021 9:45:00 AM 13.29 55.922 0.083 6.88 10.55 10.69
9/29/2021 10:00:00 AM 13.33 55.994 0.083 6.92 12.85 10.78
9/29/2021 10:15:00 AM 13.41 56.138 0.083 6.9 10.7 10.88
9/29/2021 10:30:00 AM 13.48 56.264 0.083 6.87 11.41 10.98
9/29/2021 10:45:00 AM 13.54 56.372 0.083 6.98 10.43 11.05
9/29/2021 11:00:00 AM 13.62 56.516 0.083 6.93 9.87 11.14
9/29/2021 11:15:00 AM 13.73 56.714 0.083 7.03 9.78 11.18
9/29/2021 11:30:00 AM 13.77 56.786 0.083 7.05 10.65 11.22
9/29/2021 11:45:00 AM 13.86 56.948 0.083 7.01 10.32 11.3
9/29/2021 12:00:00 PM 14.02 57.236 0.083 6.96 10.3 11.37
9/29/2021 12:15:00 PM 14.18 57.524 0.083 7.05 9.59 11.45
9/29/2021 12:30:00 PM 14.32 57.776 0.083 7.12 9.29 11.48
9/29/2021 12:45:00 PM 14.5 58.1 0.083 7.15 9.68 11.52
9/29/2021 1:00:00 PM 14.64 58.352 0.083 7.17 10.05 11.55
9/29/2021 1:15:00 PM 14.77 58.586 0.083 7.12 11.48 11.57
9/29/2021 1:30:00 PM 14.86 58.748 0.083 7.16 10.29 11.61
9/29/2021 1:45:00 PM 14.93 58.874 0.083 7.21 10.62 11.59
9/29/2021 2:00:00 PM 15 59 0.083 7.13 10.2 11.59
9/29/2021 2:15:00 PM 14.99 58.982 0.083 7.11 10.12 11.56
9/29/2021 2:30:00 PM 15.02 59.036 0.083 7.26 10.02 11.63
9/29/2021 2:45:00 PM 15 59 0.083 7.18 9.94 11.56
9/29/2021 3:00:00 PM 14.94 58.892 0.083 7.14 9.98 11.41
9/29/2021 3:15:00 PM 14.92 58.856 0.083 7.25 10.02 11.42
9/29/2021 3:30:00 PM 14.93 58.874 0.083 7.15 10.16 11.48
9/29/2021 3:45:00 PM 14.95 58.91 0.083 7.12 10.22 11.47
9/29/2021 4:00:00 PM 14.95 58.91 0.083 7.24 10.99 11.4
9/29/2021 4:15:00 PM 14.97 58.946 0.083 7.23 11.35 11.31
9/29/2021 4:30:00 PM 14.99 58.982 0.083 7.15 9.56 11.28
9/29/2021 4:45:00 PM 15.04 59.072 0.083 7.22 9.46 11.28
9/29/2021 5:00:00 PM 15.08 59.144 0.083 7.2 10.63 11.26
9/29/2021 5:15:00 PM 15.11 59.198 0.083 7.17 11.03 11.18
9/29/2021 5:30:00 PM 15.13 59.234 0.083 7.19 10.19 11.14
9/29/2021 5:45:00 PM 15.14 59.252 0.083 7.09 9.66 11.09
9/29/2021 6:00:00 PM 15.15 59.27 0.083 7.1 10.56 11.03
9/29/2021 6:15:00 PM 15.15 59.27 0.083 7.16 10.19 10.94
9/29/2021 6:30:00 PM 15.14 59.252 0.083 7.03 9.34 10.82
9/29/2021 6:45:00 PM 15.12 59.216 0.083 7.05 10.55 10.7
9/29/2021 7:00:00 PM 15.11 59.198 0.083 7.02 9.69 10.61
9/29/2021 7:15:00 PM 15.1 59.18 0.083 6.96 10.22 10.52
9/29/2021 7:30:00 PM 15.08 59.144 0.083 6.95 11.6 10.43
9/29/2021 7:45:00 PM 15.07 59.126 0.083 7.05 9.99 10.35
9/29/2021 8:00:00 PM 15.06 59.108 0.083 7.02 10.03 10.29
9/29/2021 8:15:00 PM 15.05 59.09 0.084 7.02 9.81 10.24
9/29/2021 8:30:00 PM 15.05 59.09 0.084 7.01 9.58 10.19
9/29/2021 8:45:00 PM 15.04 59.072 0.083 7 10.28 10.16
9/29/2021 9:00:00 PM 15.04 59.072 0.083 6.98 9.68 10.13
9/29/2021 9:15:00 PM 15.04 59.072 0.084 6.99 10.7 10.09
9/29/2021 9:30:00 PM 15.04 59.072 0.084 6.98 9.88 10.06
9/29/2021 9:45:00 PM 15.04 59.072 0.084 6.92 10.17 10.02
9/29/2021 10:00:00 PM 15.03 59.054 0.084 6.98 9.69 9.97
9/29/2021 10:15:00 PM 15.02 59.036 0.084 6.95 9.5 9.94
9/29/2021 10:30:00 PM 15 59 0.084 6.97 11.07 9.89
9/29/2021 10:45:00 PM 14.99 58.982 0.084 6.94 10.73 9.87
9/29/2021 11:00:00 PM 14.97 58.946 0.084 6.91 9.58 9.83
9/29/2021 11:15:00 PM 14.95 58.91 0.084 6.85 10.31 9.8
9/29/2021 11:30:00 PM 14.93 58.874 0.084 6.91 9.89 9.78
9/29/2021 11:45:00 PM 14.9 58.82 0.085 6.92 10.03 9.77
9/30/2021 12:00:00 AM 14.88 58.784 0.084 6.91 9.95 9.76
9/30/2021 12:15:00 AM 14.85 58.73 0.084 6.91 13.23 9.74
9/30/2021 12:30:00 AM 14.82 58.676 0.084 6.81 10.15 9.74
9/30/2021 12:45:00 AM 14.79 58.622 0.084 6.77 10.39 9.72
9/30/2021 1:00:00 AM 14.75 58.55 0.085 6.85 10.19 9.72
9/30/2021 1:15:00 AM 14.72 58.496 0.084 6.74 10.07 9.73
9/30/2021 1:30:00 AM 14.69 58.442 0.085 6.86 10.27 9.72
9/30/2021 1:45:00 AM 14.65 58.37 0.085 6.81 9.96 9.72
9/30/2021 2:00:00 AM 14.62 58.316 0.085 6.69 10.83 9.72
9/30/2021 2:15:00 AM 14.59 58.262 0.085 6.68 9.9 9.72
9/30/2021 2:30:00 AM 14.55 58.19 0.085 6.81 31.24 9.73
9/30/2021 2:45:00 AM 14.52 58.136 0.085 6.75 11.97 9.73
9/30/2021 3:00:00 AM 14.49 58.082 0.085 6.87 11.53 9.73
9/30/2021 3:15:00 AM 14.45 58.01 0.085 6.88 10.95 9.74
9/30/2021 3:30:00 AM 14.42 57.956 0.085 6.88 11.3 9.74
9/30/2021 3:45:00 AM 14.39 57.902 0.085 6.83 12.36 9.75
9/30/2021 4:00:00 AM 14.35 57.83 0.086 6.88 11.33 9.76
9/30/2021 4:15:00 AM 14.32 57.776 0.086 6.88 11.55 9.76
9/30/2021 4:30:00 AM 14.29 57.722 0.086 6.88 13.36 9.77
9/30/2021 4:45:00 AM 14.26 57.668 0.086 6.87 9.98 9.78
9/30/2021 5:00:00 AM 14.23 57.614 0.086 6.87 9.45 9.79
9/30/2021 5:15:00 AM 14.21 57.578 0.086 6.86 10.49 9.79
9/30/2021 5:30:00 AM 14.18 57.524 0.086 6.85 10.34 9.8
9/30/2021 5:45:00 AM 14.15 57.47 0.086 6.88 10.57 9.81
9/30/2021 6:00:00 AM 14.12 57.416 0.086 6.81 14.52 9.81
9/30/2021 6:15:00 AM 14.09 57.362 0.086 6.89 11.77 9.82
9/30/2021 6:30:00 AM 14.06 57.308 0.086 6.88 10.78 9.83
9/30/2021 6:45:00 AM 14.01 57.218 0.086 6.85 9.38 9.84
9/30/2021 7:00:00 AM 13.96 57.128 0.086 6.88 10.87 9.85
9/30/2021 7:15:00 AM 13.92 57.056 0.086 6.88 9.81 9.88
9/30/2021 7:30:00 AM 13.89 57.002 0.086 6.91 13.29 9.92
9/30/2021 7:45:00 AM 13.87 56.966 0.086 6.92 6.45 9.98
9/30/2021 8:00:00 AM 13.85 56.93 0.086 6.93 9.49 10.03
9/30/2021 8:15:00 AM 13.84 56.912 0.086 6.94 9.23 10.12
9/30/2021 8:30:00 AM 13.85 56.93 0.086 6.96 8.98 10.25
9/30/2021 8:45:00 AM 13.84 56.912 0.086 6.96 9.32 10.36
9/30/2021 9:00:00 AM 13.84 56.912 0.086 6.87 9.44 10.42